<?xml version="1.0" encoding="UTF-8" standalone="no" ?>
<gpx xmlns="http://www.topografix.com/GPX/1/1" xmlns:xsi="http://www.w3.org/2001/XMLSchema-instance" xsi:schemaLocation="http://www.topografix.com/GPX/1/1 http://www.topografix.com/GPX/1/1/gpx.xsd" version="1.1" creator="VisuGPX - https://www.visugpx.com">
  <metadata>
    <name>2019-05-29 12:54:24</name>
    <desc><![CDATA[

]]></desc>
  </metadata>
  <trk>
    <name><![CDATA[2019-05-29 12:54:24]]></name>
    <trkseg>
      <trkpt lat="41.23893" lon="-8.66926">
        <ele>65.51</ele>
        <time>2019-05-29T07:17:33Z</time>
      </trkpt>
      <trkpt lat="41.23893" lon="-8.66927">
        <ele>65.51</ele>
        <time>2019-05-29T07:17:35Z</time>
      </trkpt>
      <trkpt lat="41.23905" lon="-8.66938">
        <ele>65.03</ele>
        <time>2019-05-29T07:17:49Z</time>
      </trkpt>
      <trkpt lat="41.23916" lon="-8.66942">
        <ele>64.55</ele>
        <time>2019-05-29T07:18:03Z</time>
      </trkpt>
      <trkpt lat="41.23917" lon="-8.66943">
        <ele>65.03</ele>
        <time>2019-05-29T07:18:05Z</time>
      </trkpt>
      <trkpt lat="41.23926" lon="-8.66942">
        <ele>64.55</ele>
        <time>2019-05-29T07:18:20Z</time>
      </trkpt>
      <trkpt lat="41.23933" lon="-8.66947">
        <ele>65.03</ele>
        <time>2019-05-29T07:18:46Z</time>
      </trkpt>
      <trkpt lat="41.23944" lon="-8.66944">
        <ele>65.99</ele>
        <time>2019-05-29T07:19:02Z</time>
      </trkpt>
      <trkpt lat="41.23945" lon="-8.66941">
        <ele>65.51</ele>
        <time>2019-05-29T07:19:19Z</time>
      </trkpt>
      <trkpt lat="41.23947" lon="-8.66939">
        <ele>65.51</ele>
        <time>2019-05-29T07:19:22Z</time>
      </trkpt>
      <trkpt lat="41.23948" lon="-8.66937">
        <ele>64.07</ele>
        <time>2019-05-29T07:19:24Z</time>
      </trkpt>
      <trkpt lat="41.23952" lon="-8.66938">
        <ele>64.55</ele>
        <time>2019-05-29T07:19:28Z</time>
      </trkpt>
      <trkpt lat="41.23954" lon="-8.66941">
        <ele>65.99</ele>
        <time>2019-05-29T07:19:31Z</time>
      </trkpt>
      <trkpt lat="41.23959" lon="-8.66948">
        <ele>65.51</ele>
        <time>2019-05-29T07:19:37Z</time>
      </trkpt>
      <trkpt lat="41.23968" lon="-8.66953">
        <ele>65.03</ele>
        <time>2019-05-29T07:19:49Z</time>
      </trkpt>
      <trkpt lat="41.23985" lon="-8.66954">
        <ele>65.51</ele>
        <time>2019-05-29T07:20:07Z</time>
      </trkpt>
      <trkpt lat="41.23987" lon="-8.66954">
        <ele>65.51</ele>
        <time>2019-05-29T07:20:22Z</time>
      </trkpt>
      <trkpt lat="41.23993" lon="-8.66955">
        <ele>65.51</ele>
        <time>2019-05-29T07:20:35Z</time>
      </trkpt>
      <trkpt lat="41.23994" lon="-8.66956">
        <ele>66.47</ele>
        <time>2019-05-29T07:20:59Z</time>
      </trkpt>
      <trkpt lat="41.23997" lon="-8.66959">
        <ele>66.47</ele>
        <time>2019-05-29T07:21:17Z</time>
      </trkpt>
      <trkpt lat="41.23997" lon="-8.66957">
        <ele>66.95</ele>
        <time>2019-05-29T07:21:41Z</time>
      </trkpt>
      <trkpt lat="41.23998" lon="-8.66957">
        <ele>66.47</ele>
        <time>2019-05-29T07:21:59Z</time>
      </trkpt>
      <trkpt lat="41.23991" lon="-8.66954">
        <ele>66.47</ele>
        <time>2019-05-29T07:22:08Z</time>
      </trkpt>
      <trkpt lat="41.23976" lon="-8.66951">
        <ele>66.95</ele>
        <time>2019-05-29T07:22:20Z</time>
      </trkpt>
      <trkpt lat="41.23962" lon="-8.66949">
        <ele>66.95</ele>
        <time>2019-05-29T07:22:36Z</time>
      </trkpt>
      <trkpt lat="41.23961" lon="-8.66948">
        <ele>66.47</ele>
        <time>2019-05-29T07:22:37Z</time>
      </trkpt>
      <trkpt lat="41.23943" lon="-8.66942">
        <ele>66.95</ele>
        <time>2019-05-29T07:22:53Z</time>
      </trkpt>
      <trkpt lat="41.2394" lon="-8.66943">
        <ele>66.47</ele>
        <time>2019-05-29T07:22:55Z</time>
      </trkpt>
      <trkpt lat="41.23935" lon="-8.66943">
        <ele>67.43</ele>
        <time>2019-05-29T07:23:00Z</time>
      </trkpt>
      <trkpt lat="41.23932" lon="-8.66942">
        <ele>66.95</ele>
        <time>2019-05-29T07:23:03Z</time>
      </trkpt>
      <trkpt lat="41.2393" lon="-8.66942">
        <ele>67.43</ele>
        <time>2019-05-29T07:23:05Z</time>
      </trkpt>
      <trkpt lat="41.23914" lon="-8.66936">
        <ele>66.95</ele>
        <time>2019-05-29T07:23:20Z</time>
      </trkpt>
      <trkpt lat="41.23905" lon="-8.66926">
        <ele>67.43</ele>
        <time>2019-05-29T07:23:33Z</time>
      </trkpt>
      <trkpt lat="41.23904" lon="-8.66923">
        <ele>67.43</ele>
        <time>2019-05-29T07:23:36Z</time>
      </trkpt>
      <trkpt lat="41.23897" lon="-8.66901">
        <ele>67.91</ele>
        <time>2019-05-29T07:23:51Z</time>
      </trkpt>
      <trkpt lat="41.23891" lon="-8.6688">
        <ele>67.91</ele>
        <time>2019-05-29T07:24:05Z</time>
      </trkpt>
      <trkpt lat="41.23886" lon="-8.66858">
        <ele>68.39</ele>
        <time>2019-05-29T07:24:21Z</time>
      </trkpt>
      <trkpt lat="41.23877" lon="-8.66834">
        <ele>68.87</ele>
        <time>2019-05-29T07:24:38Z</time>
      </trkpt>
      <trkpt lat="41.23876" lon="-8.6682">
        <ele>69.35</ele>
        <time>2019-05-29T07:24:50Z</time>
      </trkpt>
      <trkpt lat="41.23873" lon="-8.66808">
        <ele>69.83</ele>
        <time>2019-05-29T07:25:03Z</time>
      </trkpt>
      <trkpt lat="41.2387" lon="-8.66799">
        <ele>69.35</ele>
        <time>2019-05-29T07:25:09Z</time>
      </trkpt>
      <trkpt lat="41.23869" lon="-8.6679">
        <ele>69.83</ele>
        <time>2019-05-29T07:25:16Z</time>
      </trkpt>
      <trkpt lat="41.23863" lon="-8.66768">
        <ele>69.83</ele>
        <time>2019-05-29T07:25:31Z</time>
      </trkpt>
      <trkpt lat="41.2386" lon="-8.66744">
        <ele>70.31</ele>
        <time>2019-05-29T07:25:44Z</time>
      </trkpt>
      <trkpt lat="41.23857" lon="-8.6673">
        <ele>69.83</ele>
        <time>2019-05-29T07:25:55Z</time>
      </trkpt>
      <trkpt lat="41.23855" lon="-8.66716">
        <ele>70.79</ele>
        <time>2019-05-29T07:26:05Z</time>
      </trkpt>
      <trkpt lat="41.23855" lon="-8.66704">
        <ele>70.79</ele>
        <time>2019-05-29T07:26:20Z</time>
      </trkpt>
      <trkpt lat="41.2386" lon="-8.66694">
        <ele>70.79</ele>
        <time>2019-05-29T07:26:32Z</time>
      </trkpt>
      <trkpt lat="41.2386" lon="-8.66692">
        <ele>70.31</ele>
        <time>2019-05-29T07:26:48Z</time>
      </trkpt>
      <trkpt lat="41.23864" lon="-8.66688">
        <ele>70.79</ele>
        <time>2019-05-29T07:26:53Z</time>
      </trkpt>
      <trkpt lat="41.23868" lon="-8.66686">
        <ele>70.31</ele>
        <time>2019-05-29T07:26:57Z</time>
      </trkpt>
      <trkpt lat="41.23879" lon="-8.66677">
        <ele>71.27</ele>
        <time>2019-05-29T07:27:11Z</time>
      </trkpt>
      <trkpt lat="41.23884" lon="-8.66676">
        <ele>71.76</ele>
        <time>2019-05-29T07:27:17Z</time>
      </trkpt>
      <trkpt lat="41.23897" lon="-8.66669">
        <ele>70.79</ele>
        <time>2019-05-29T07:27:27Z</time>
      </trkpt>
      <trkpt lat="41.23913" lon="-8.66659">
        <ele>71.27</ele>
        <time>2019-05-29T07:27:42Z</time>
      </trkpt>
      <trkpt lat="41.23919" lon="-8.66657">
        <ele>71.27</ele>
        <time>2019-05-29T07:27:48Z</time>
      </trkpt>
      <trkpt lat="41.23921" lon="-8.66657">
        <ele>71.76</ele>
        <time>2019-05-29T07:27:51Z</time>
      </trkpt>
      <trkpt lat="41.2393" lon="-8.66653">
        <ele>71.76</ele>
        <time>2019-05-29T07:28:00Z</time>
      </trkpt>
      <trkpt lat="41.23934" lon="-8.66653">
        <ele>71.76</ele>
        <time>2019-05-29T07:28:03Z</time>
      </trkpt>
      <trkpt lat="41.23953" lon="-8.66647">
        <ele>71.27</ele>
        <time>2019-05-29T07:28:20Z</time>
      </trkpt>
      <trkpt lat="41.2397" lon="-8.6664">
        <ele>71.76</ele>
        <time>2019-05-29T07:28:35Z</time>
      </trkpt>
      <trkpt lat="41.23974" lon="-8.66637">
        <ele>72.72</ele>
        <time>2019-05-29T07:28:50Z</time>
      </trkpt>
      <trkpt lat="41.23974" lon="-8.66636">
        <ele>72.24</ele>
        <time>2019-05-29T07:29:06Z</time>
      </trkpt>
      <trkpt lat="41.23977" lon="-8.66633">
        <ele>72.72</ele>
        <time>2019-05-29T07:29:22Z</time>
      </trkpt>
      <trkpt lat="41.23989" lon="-8.66631">
        <ele>73.68</ele>
        <time>2019-05-29T07:29:35Z</time>
      </trkpt>
      <trkpt lat="41.23995" lon="-8.66629">
        <ele>72.72</ele>
        <time>2019-05-29T07:29:41Z</time>
      </trkpt>
      <trkpt lat="41.24012" lon="-8.6662">
        <ele>72.72</ele>
        <time>2019-05-29T07:29:56Z</time>
      </trkpt>
      <trkpt lat="41.24027" lon="-8.66609">
        <ele>74.16</ele>
        <time>2019-05-29T07:30:10Z</time>
      </trkpt>
      <trkpt lat="41.24041" lon="-8.66601">
        <ele>73.68</ele>
        <time>2019-05-29T07:30:25Z</time>
      </trkpt>
      <trkpt lat="41.24041" lon="-8.66602">
        <ele>74.16</ele>
        <time>2019-05-29T07:30:26Z</time>
      </trkpt>
      <trkpt lat="41.24047" lon="-8.66599">
        <ele>74.64</ele>
        <time>2019-05-29T07:30:32Z</time>
      </trkpt>
      <trkpt lat="41.24051" lon="-8.66596">
        <ele>74.16</ele>
        <time>2019-05-29T07:30:37Z</time>
      </trkpt>
      <trkpt lat="41.2406" lon="-8.6659">
        <ele>75.12</ele>
        <time>2019-05-29T07:30:46Z</time>
      </trkpt>
      <trkpt lat="41.24071" lon="-8.66585">
        <ele>74.16</ele>
        <time>2019-05-29T07:30:55Z</time>
      </trkpt>
      <trkpt lat="41.24074" lon="-8.66582">
        <ele>74.16</ele>
        <time>2019-05-29T07:30:58Z</time>
      </trkpt>
      <trkpt lat="41.24083" lon="-8.66582">
        <ele>75.12</ele>
        <time>2019-05-29T07:31:10Z</time>
      </trkpt>
      <trkpt lat="41.24086" lon="-8.66577">
        <ele>76.08</ele>
        <time>2019-05-29T07:31:21Z</time>
      </trkpt>
      <trkpt lat="41.24089" lon="-8.66573">
        <ele>76.56</ele>
        <time>2019-05-29T07:31:34Z</time>
      </trkpt>
      <trkpt lat="41.24091" lon="-8.66571">
        <ele>77.04</ele>
        <time>2019-05-29T07:31:59Z</time>
      </trkpt>
      <trkpt lat="41.24095" lon="-8.66573">
        <ele>76.56</ele>
        <time>2019-05-29T07:32:16Z</time>
      </trkpt>
      <trkpt lat="41.24098" lon="-8.66575">
        <ele>76.56</ele>
        <time>2019-05-29T07:32:37Z</time>
      </trkpt>
      <trkpt lat="41.24098" lon="-8.66576">
        <ele>76.56</ele>
        <time>2019-05-29T07:33:05Z</time>
      </trkpt>
      <trkpt lat="41.24112" lon="-8.6658">
        <ele>76.56</ele>
        <time>2019-05-29T07:33:19Z</time>
      </trkpt>
      <trkpt lat="41.24122" lon="-8.66588">
        <ele>77.52</ele>
        <time>2019-05-29T07:33:40Z</time>
      </trkpt>
      <trkpt lat="41.2412" lon="-8.66583">
        <ele>77.52</ele>
        <time>2019-05-29T07:34:09Z</time>
      </trkpt>
      <trkpt lat="41.24121" lon="-8.66585">
        <ele>77.52</ele>
        <time>2019-05-29T07:34:34Z</time>
      </trkpt>
      <trkpt lat="41.24126" lon="-8.66588">
        <ele>78</ele>
        <time>2019-05-29T07:34:59Z</time>
      </trkpt>
      <trkpt lat="41.24131" lon="-8.66589">
        <ele>78.97</ele>
        <time>2019-05-29T07:35:13Z</time>
      </trkpt>
      <trkpt lat="41.24143" lon="-8.66593">
        <ele>78.48</ele>
        <time>2019-05-29T07:35:24Z</time>
      </trkpt>
      <trkpt lat="41.24151" lon="-8.66595">
        <ele>78.97</ele>
        <time>2019-05-29T07:35:30Z</time>
      </trkpt>
      <trkpt lat="41.24157" lon="-8.66591">
        <ele>78.48</ele>
        <time>2019-05-29T07:35:44Z</time>
      </trkpt>
      <trkpt lat="41.24159" lon="-8.6659">
        <ele>78.97</ele>
        <time>2019-05-29T07:36:16Z</time>
      </trkpt>
      <trkpt lat="41.24157" lon="-8.66593">
        <ele>79.45</ele>
        <time>2019-05-29T07:36:31Z</time>
      </trkpt>
      <trkpt lat="41.24155" lon="-8.66594">
        <ele>79.45</ele>
        <time>2019-05-29T07:37:09Z</time>
      </trkpt>
      <trkpt lat="41.2415" lon="-8.66594">
        <ele>79.93</ele>
        <time>2019-05-29T07:37:20Z</time>
      </trkpt>
      <trkpt lat="41.24144" lon="-8.66589">
        <ele>80.41</ele>
        <time>2019-05-29T07:37:34Z</time>
      </trkpt>
      <trkpt lat="41.24144" lon="-8.66587">
        <ele>79.93</ele>
        <time>2019-05-29T07:37:59Z</time>
      </trkpt>
      <trkpt lat="41.24143" lon="-8.66585">
        <ele>79.93</ele>
        <time>2019-05-29T07:38:08Z</time>
      </trkpt>
      <trkpt lat="41.24147" lon="-8.66558">
        <ele>79.45</ele>
        <time>2019-05-29T07:38:25Z</time>
      </trkpt>
      <trkpt lat="41.24153" lon="-8.66536">
        <ele>80.41</ele>
        <time>2019-05-29T07:38:45Z</time>
      </trkpt>
      <trkpt lat="41.24157" lon="-8.66524">
        <ele>79.93</ele>
        <time>2019-05-29T07:38:59Z</time>
      </trkpt>
      <trkpt lat="41.24161" lon="-8.66506">
        <ele>80.41</ele>
        <time>2019-05-29T07:39:13Z</time>
      </trkpt>
      <trkpt lat="41.24168" lon="-8.66484">
        <ele>79.93</ele>
        <time>2019-05-29T07:39:27Z</time>
      </trkpt>
      <trkpt lat="41.24182" lon="-8.66473">
        <ele>80.89</ele>
        <time>2019-05-29T07:39:45Z</time>
      </trkpt>
      <trkpt lat="41.24199" lon="-8.66469">
        <ele>79.45</ele>
        <time>2019-05-29T07:39:57Z</time>
      </trkpt>
      <trkpt lat="41.24208" lon="-8.66466">
        <ele>80.89</ele>
        <time>2019-05-29T07:40:05Z</time>
      </trkpt>
      <trkpt lat="41.24227" lon="-8.66459">
        <ele>80.89</ele>
        <time>2019-05-29T07:40:22Z</time>
      </trkpt>
      <trkpt lat="41.24233" lon="-8.66456">
        <ele>81.37</ele>
        <time>2019-05-29T07:40:27Z</time>
      </trkpt>
      <trkpt lat="41.24245" lon="-8.66456">
        <ele>80.89</ele>
        <time>2019-05-29T07:40:35Z</time>
      </trkpt>
      <trkpt lat="41.24252" lon="-8.66446">
        <ele>80.89</ele>
        <time>2019-05-29T07:40:46Z</time>
      </trkpt>
      <trkpt lat="41.24255" lon="-8.66433">
        <ele>81.85</ele>
        <time>2019-05-29T07:41:00Z</time>
      </trkpt>
      <trkpt lat="41.24258" lon="-8.66425">
        <ele>80.41</ele>
        <time>2019-05-29T07:41:06Z</time>
      </trkpt>
      <trkpt lat="41.24266" lon="-8.66407">
        <ele>80.89</ele>
        <time>2019-05-29T07:41:21Z</time>
      </trkpt>
      <trkpt lat="41.24273" lon="-8.66384">
        <ele>80.41</ele>
        <time>2019-05-29T07:41:38Z</time>
      </trkpt>
      <trkpt lat="41.24273" lon="-8.66382">
        <ele>81.37</ele>
        <time>2019-05-29T07:41:40Z</time>
      </trkpt>
      <trkpt lat="41.24274" lon="-8.66373">
        <ele>81.85</ele>
        <time>2019-05-29T07:41:46Z</time>
      </trkpt>
      <trkpt lat="41.24285" lon="-8.66346">
        <ele>81.85</ele>
        <time>2019-05-29T07:42:06Z</time>
      </trkpt>
      <trkpt lat="41.2429" lon="-8.66325">
        <ele>82.81</ele>
        <time>2019-05-29T07:42:21Z</time>
      </trkpt>
      <trkpt lat="41.24291" lon="-8.66321">
        <ele>81.85</ele>
        <time>2019-05-29T07:42:24Z</time>
      </trkpt>
      <trkpt lat="41.24292" lon="-8.66313">
        <ele>81.85</ele>
        <time>2019-05-29T07:42:30Z</time>
      </trkpt>
      <trkpt lat="41.24294" lon="-8.66292">
        <ele>81.85</ele>
        <time>2019-05-29T07:42:43Z</time>
      </trkpt>
      <trkpt lat="41.24301" lon="-8.66269">
        <ele>81.85</ele>
        <time>2019-05-29T07:42:57Z</time>
      </trkpt>
      <trkpt lat="41.24303" lon="-8.66261">
        <ele>82.81</ele>
        <time>2019-05-29T07:43:08Z</time>
      </trkpt>
      <trkpt lat="41.24305" lon="-8.66248">
        <ele>81.85</ele>
        <time>2019-05-29T07:43:24Z</time>
      </trkpt>
      <trkpt lat="41.24308" lon="-8.66226">
        <ele>82.33</ele>
        <time>2019-05-29T07:43:39Z</time>
      </trkpt>
      <trkpt lat="41.24313" lon="-8.66202">
        <ele>82.81</ele>
        <time>2019-05-29T07:43:54Z</time>
      </trkpt>
      <trkpt lat="41.24314" lon="-8.66184">
        <ele>82.33</ele>
        <time>2019-05-29T07:44:09Z</time>
      </trkpt>
      <trkpt lat="41.24314" lon="-8.66165">
        <ele>82.33</ele>
        <time>2019-05-29T07:44:22Z</time>
      </trkpt>
      <trkpt lat="41.24315" lon="-8.66159">
        <ele>82.81</ele>
        <time>2019-05-29T07:44:26Z</time>
      </trkpt>
      <trkpt lat="41.24316" lon="-8.66148">
        <ele>82.81</ele>
        <time>2019-05-29T07:44:33Z</time>
      </trkpt>
      <trkpt lat="41.24318" lon="-8.66131">
        <ele>81.85</ele>
        <time>2019-05-29T07:44:44Z</time>
      </trkpt>
      <trkpt lat="41.24319" lon="-8.66127">
        <ele>81.85</ele>
        <time>2019-05-29T07:44:47Z</time>
      </trkpt>
      <trkpt lat="41.24322" lon="-8.66111">
        <ele>82.33</ele>
        <time>2019-05-29T07:45:00Z</time>
      </trkpt>
      <trkpt lat="41.24322" lon="-8.66104">
        <ele>81.37</ele>
        <time>2019-05-29T07:45:04Z</time>
      </trkpt>
      <trkpt lat="41.24328" lon="-8.66078">
        <ele>79.93</ele>
        <time>2019-05-29T07:45:21Z</time>
      </trkpt>
      <trkpt lat="41.24327" lon="-8.66075">
        <ele>80.89</ele>
        <time>2019-05-29T07:45:23Z</time>
      </trkpt>
      <trkpt lat="41.24328" lon="-8.66072">
        <ele>79.45</ele>
        <time>2019-05-29T07:45:25Z</time>
      </trkpt>
      <trkpt lat="41.24331" lon="-8.66043">
        <ele>79.93</ele>
        <time>2019-05-29T07:45:42Z</time>
      </trkpt>
      <trkpt lat="41.24334" lon="-8.66022">
        <ele>79.93</ele>
        <time>2019-05-29T07:45:57Z</time>
      </trkpt>
      <trkpt lat="41.24337" lon="-8.66015">
        <ele>78</ele>
        <time>2019-05-29T07:46:04Z</time>
      </trkpt>
      <trkpt lat="41.2434" lon="-8.66013">
        <ele>79.93</ele>
        <time>2019-05-29T07:46:07Z</time>
      </trkpt>
      <trkpt lat="41.2434" lon="-8.66011">
        <ele>79.45</ele>
        <time>2019-05-29T07:46:10Z</time>
      </trkpt>
      <trkpt lat="41.24343" lon="-8.66006">
        <ele>79.45</ele>
        <time>2019-05-29T07:46:21Z</time>
      </trkpt>
      <trkpt lat="41.24345" lon="-8.65998">
        <ele>78</ele>
        <time>2019-05-29T07:46:26Z</time>
      </trkpt>
      <trkpt lat="41.24349" lon="-8.65983">
        <ele>78.48</ele>
        <time>2019-05-29T07:46:42Z</time>
      </trkpt>
      <trkpt lat="41.24351" lon="-8.65979">
        <ele>77.52</ele>
        <time>2019-05-29T07:46:46Z</time>
      </trkpt>
      <trkpt lat="41.24357" lon="-8.65976">
        <ele>77.52</ele>
        <time>2019-05-29T07:46:59Z</time>
      </trkpt>
      <trkpt lat="41.24357" lon="-8.65976">
        <ele>78.48</ele>
        <time>2019-05-29T07:47:00Z</time>
      </trkpt>
      <trkpt lat="41.24369" lon="-8.65986">
        <ele>78</ele>
        <time>2019-05-29T07:47:11Z</time>
      </trkpt>
      <trkpt lat="41.24375" lon="-8.6599">
        <ele>78.48</ele>
        <time>2019-05-29T07:47:26Z</time>
      </trkpt>
      <trkpt lat="41.24387" lon="-8.65997">
        <ele>78.48</ele>
        <time>2019-05-29T07:47:47Z</time>
      </trkpt>
      <trkpt lat="41.24393" lon="-8.66">
        <ele>78.48</ele>
        <time>2019-05-29T07:47:53Z</time>
      </trkpt>
      <trkpt lat="41.24405" lon="-8.66007">
        <ele>78.48</ele>
        <time>2019-05-29T07:48:05Z</time>
      </trkpt>
      <trkpt lat="41.24412" lon="-8.66012">
        <ele>78.97</ele>
        <time>2019-05-29T07:48:12Z</time>
      </trkpt>
      <trkpt lat="41.24428" lon="-8.66014">
        <ele>78.48</ele>
        <time>2019-05-29T07:48:27Z</time>
      </trkpt>
      <trkpt lat="41.2443" lon="-8.66013">
        <ele>78.97</ele>
        <time>2019-05-29T07:48:33Z</time>
      </trkpt>
      <trkpt lat="41.24444" lon="-8.66023">
        <ele>78.97</ele>
        <time>2019-05-29T07:48:48Z</time>
      </trkpt>
      <trkpt lat="41.24462" lon="-8.66037">
        <ele>79.45</ele>
        <time>2019-05-29T07:49:05Z</time>
      </trkpt>
      <trkpt lat="41.24483" lon="-8.66044">
        <ele>79.93</ele>
        <time>2019-05-29T07:49:22Z</time>
      </trkpt>
      <trkpt lat="41.24504" lon="-8.6605">
        <ele>80.41</ele>
        <time>2019-05-29T07:49:40Z</time>
      </trkpt>
      <trkpt lat="41.2452" lon="-8.66056">
        <ele>80.41</ele>
        <time>2019-05-29T07:49:56Z</time>
      </trkpt>
      <trkpt lat="41.24527" lon="-8.66057">
        <ele>80.89</ele>
        <time>2019-05-29T07:50:10Z</time>
      </trkpt>
      <trkpt lat="41.24545" lon="-8.66052">
        <ele>79.93</ele>
        <time>2019-05-29T07:50:27Z</time>
      </trkpt>
      <trkpt lat="41.2456" lon="-8.66029">
        <ele>78.48</ele>
        <time>2019-05-29T07:50:45Z</time>
      </trkpt>
      <trkpt lat="41.24569" lon="-8.66007">
        <ele>77.52</ele>
        <time>2019-05-29T07:51:01Z</time>
      </trkpt>
      <trkpt lat="41.24577" lon="-8.65981">
        <ele>77.04</ele>
        <time>2019-05-29T07:51:19Z</time>
      </trkpt>
      <trkpt lat="41.24587" lon="-8.65949">
        <ele>76.56</ele>
        <time>2019-05-29T07:51:41Z</time>
      </trkpt>
      <trkpt lat="41.24592" lon="-8.65936">
        <ele>75.6</ele>
        <time>2019-05-29T07:51:58Z</time>
      </trkpt>
      <trkpt lat="41.24599" lon="-8.65914">
        <ele>75.6</ele>
        <time>2019-05-29T07:52:15Z</time>
      </trkpt>
      <trkpt lat="41.24606" lon="-8.65891">
        <ele>76.08</ele>
        <time>2019-05-29T07:52:31Z</time>
      </trkpt>
      <trkpt lat="41.24615" lon="-8.65867">
        <ele>76.56</ele>
        <time>2019-05-29T07:52:48Z</time>
      </trkpt>
      <trkpt lat="41.24622" lon="-8.65847">
        <ele>77.04</ele>
        <time>2019-05-29T07:53:03Z</time>
      </trkpt>
      <trkpt lat="41.24636" lon="-8.65829">
        <ele>78</ele>
        <time>2019-05-29T07:53:21Z</time>
      </trkpt>
      <trkpt lat="41.24645" lon="-8.65825">
        <ele>78.48</ele>
        <time>2019-05-29T07:53:30Z</time>
      </trkpt>
      <trkpt lat="41.24649" lon="-8.65825">
        <ele>78</ele>
        <time>2019-05-29T07:53:34Z</time>
      </trkpt>
      <trkpt lat="41.24668" lon="-8.65818">
        <ele>78.97</ele>
        <time>2019-05-29T07:53:51Z</time>
      </trkpt>
      <trkpt lat="41.24685" lon="-8.65815">
        <ele>79.45</ele>
        <time>2019-05-29T07:54:06Z</time>
      </trkpt>
      <trkpt lat="41.247" lon="-8.65811">
        <ele>79.93</ele>
        <time>2019-05-29T07:54:21Z</time>
      </trkpt>
      <trkpt lat="41.24716" lon="-8.65808">
        <ele>80.41</ele>
        <time>2019-05-29T07:54:38Z</time>
      </trkpt>
      <trkpt lat="41.24734" lon="-8.65804">
        <ele>81.37</ele>
        <time>2019-05-29T07:54:55Z</time>
      </trkpt>
      <trkpt lat="41.24739" lon="-8.65799">
        <ele>81.37</ele>
        <time>2019-05-29T07:55:04Z</time>
      </trkpt>
      <trkpt lat="41.24738" lon="-8.65787">
        <ele>80.89</ele>
        <time>2019-05-29T07:55:19Z</time>
      </trkpt>
      <trkpt lat="41.2474" lon="-8.65779">
        <ele>81.37</ele>
        <time>2019-05-29T07:55:30Z</time>
      </trkpt>
      <trkpt lat="41.24739" lon="-8.65765">
        <ele>80.89</ele>
        <time>2019-05-29T07:55:43Z</time>
      </trkpt>
      <trkpt lat="41.24739" lon="-8.65745">
        <ele>80.89</ele>
        <time>2019-05-29T07:55:58Z</time>
      </trkpt>
      <trkpt lat="41.24735" lon="-8.65725">
        <ele>80.89</ele>
        <time>2019-05-29T07:56:16Z</time>
      </trkpt>
      <trkpt lat="41.24735" lon="-8.65727">
        <ele>81.37</ele>
        <time>2019-05-29T07:56:38Z</time>
      </trkpt>
      <trkpt lat="41.24736" lon="-8.65717">
        <ele>81.85</ele>
        <time>2019-05-29T07:56:56Z</time>
      </trkpt>
      <trkpt lat="41.24731" lon="-8.65689">
        <ele>80.41</ele>
        <time>2019-05-29T07:57:12Z</time>
      </trkpt>
      <trkpt lat="41.24727" lon="-8.65669">
        <ele>80.89</ele>
        <time>2019-05-29T07:57:30Z</time>
      </trkpt>
      <trkpt lat="41.24726" lon="-8.65651">
        <ele>80.41</ele>
        <time>2019-05-29T07:57:48Z</time>
      </trkpt>
      <trkpt lat="41.24725" lon="-8.6564">
        <ele>80.41</ele>
        <time>2019-05-29T07:58:00Z</time>
      </trkpt>
      <trkpt lat="41.24721" lon="-8.65616">
        <ele>80.41</ele>
        <time>2019-05-29T07:58:16Z</time>
      </trkpt>
      <trkpt lat="41.24718" lon="-8.65589">
        <ele>79.93</ele>
        <time>2019-05-29T07:58:32Z</time>
      </trkpt>
      <trkpt lat="41.24716" lon="-8.65566">
        <ele>79.45</ele>
        <time>2019-05-29T07:58:47Z</time>
      </trkpt>
      <trkpt lat="41.24712" lon="-8.65534">
        <ele>78</ele>
        <time>2019-05-29T07:59:05Z</time>
      </trkpt>
      <trkpt lat="41.24708" lon="-8.65504">
        <ele>76.08</ele>
        <time>2019-05-29T07:59:24Z</time>
      </trkpt>
      <trkpt lat="41.24709" lon="-8.65469">
        <ele>74.16</ele>
        <time>2019-05-29T07:59:45Z</time>
      </trkpt>
      <trkpt lat="41.24702" lon="-8.65434">
        <ele>73.68</ele>
        <time>2019-05-29T08:00:04Z</time>
      </trkpt>
      <trkpt lat="41.24698" lon="-8.65402">
        <ele>72.24</ele>
        <time>2019-05-29T08:00:23Z</time>
      </trkpt>
      <trkpt lat="41.24694" lon="-8.65367">
        <ele>70.79</ele>
        <time>2019-05-29T08:00:45Z</time>
      </trkpt>
      <trkpt lat="41.24694" lon="-8.65357">
        <ele>68.87</ele>
        <time>2019-05-29T08:00:55Z</time>
      </trkpt>
      <trkpt lat="41.24697" lon="-8.65345">
        <ele>69.83</ele>
        <time>2019-05-29T08:01:04Z</time>
      </trkpt>
      <trkpt lat="41.24696" lon="-8.6534">
        <ele>69.83</ele>
        <time>2019-05-29T08:01:07Z</time>
      </trkpt>
      <trkpt lat="41.24691" lon="-8.65315">
        <ele>69.83</ele>
        <time>2019-05-29T08:01:22Z</time>
      </trkpt>
      <trkpt lat="41.24685" lon="-8.65299">
        <ele>69.83</ele>
        <time>2019-05-29T08:01:35Z</time>
      </trkpt>
      <trkpt lat="41.24681" lon="-8.65293">
        <ele>70.31</ele>
        <time>2019-05-29T08:01:47Z</time>
      </trkpt>
      <trkpt lat="41.24677" lon="-8.6529">
        <ele>70.31</ele>
        <time>2019-05-29T08:01:57Z</time>
      </trkpt>
      <trkpt lat="41.24661" lon="-8.65275">
        <ele>69.83</ele>
        <time>2019-05-29T08:02:15Z</time>
      </trkpt>
      <trkpt lat="41.24642" lon="-8.65263">
        <ele>70.31</ele>
        <time>2019-05-29T08:02:34Z</time>
      </trkpt>
      <trkpt lat="41.24624" lon="-8.65248">
        <ele>70.79</ele>
        <time>2019-05-29T08:02:53Z</time>
      </trkpt>
      <trkpt lat="41.24615" lon="-8.65234">
        <ele>70.79</ele>
        <time>2019-05-29T08:03:07Z</time>
      </trkpt>
      <trkpt lat="41.24592" lon="-8.65205">
        <ele>71.76</ele>
        <time>2019-05-29T08:03:27Z</time>
      </trkpt>
      <trkpt lat="41.24573" lon="-8.65178">
        <ele>73.68</ele>
        <time>2019-05-29T08:03:49Z</time>
      </trkpt>
      <trkpt lat="41.24559" lon="-8.65151">
        <ele>74.64</ele>
        <time>2019-05-29T08:04:10Z</time>
      </trkpt>
      <trkpt lat="41.24558" lon="-8.65149">
        <ele>74.64</ele>
        <time>2019-05-29T08:04:12Z</time>
      </trkpt>
      <trkpt lat="41.24548" lon="-8.65125">
        <ele>75.12</ele>
        <time>2019-05-29T08:04:30Z</time>
      </trkpt>
      <trkpt lat="41.24545" lon="-8.65102">
        <ele>76.56</ele>
        <time>2019-05-29T08:04:49Z</time>
      </trkpt>
      <trkpt lat="41.24546" lon="-8.65088">
        <ele>77.04</ele>
        <time>2019-05-29T08:05:00Z</time>
      </trkpt>
      <trkpt lat="41.24548" lon="-8.65057">
        <ele>78</ele>
        <time>2019-05-29T08:05:18Z</time>
      </trkpt>
      <trkpt lat="41.24547" lon="-8.65026">
        <ele>79.45</ele>
        <time>2019-05-29T08:05:38Z</time>
      </trkpt>
      <trkpt lat="41.24547" lon="-8.64998">
        <ele>80.41</ele>
        <time>2019-05-29T08:05:57Z</time>
      </trkpt>
      <trkpt lat="41.24547" lon="-8.64966">
        <ele>81.37</ele>
        <time>2019-05-29T08:06:17Z</time>
      </trkpt>
      <trkpt lat="41.24547" lon="-8.64938">
        <ele>81.37</ele>
        <time>2019-05-29T08:06:33Z</time>
      </trkpt>
      <trkpt lat="41.24548" lon="-8.64906">
        <ele>80.41</ele>
        <time>2019-05-29T08:06:54Z</time>
      </trkpt>
      <trkpt lat="41.24552" lon="-8.64889">
        <ele>82.33</ele>
        <time>2019-05-29T08:07:10Z</time>
      </trkpt>
      <trkpt lat="41.24554" lon="-8.64886">
        <ele>81.85</ele>
        <time>2019-05-29T08:07:23Z</time>
      </trkpt>
      <trkpt lat="41.24552" lon="-8.6489">
        <ele>82.33</ele>
        <time>2019-05-29T08:07:39Z</time>
      </trkpt>
      <trkpt lat="41.24548" lon="-8.64898">
        <ele>82.33</ele>
        <time>2019-05-29T08:07:56Z</time>
      </trkpt>
      <trkpt lat="41.24548" lon="-8.64894">
        <ele>82.81</ele>
        <time>2019-05-29T08:08:16Z</time>
      </trkpt>
      <trkpt lat="41.24548" lon="-8.64892">
        <ele>82.81</ele>
        <time>2019-05-29T08:08:24Z</time>
      </trkpt>
      <trkpt lat="41.2455" lon="-8.64885">
        <ele>81.37</ele>
        <time>2019-05-29T08:08:36Z</time>
      </trkpt>
      <trkpt lat="41.24561" lon="-8.64879">
        <ele>82.81</ele>
        <time>2019-05-29T08:08:51Z</time>
      </trkpt>
      <trkpt lat="41.24565" lon="-8.64874">
        <ele>83.29</ele>
        <time>2019-05-29T08:09:10Z</time>
      </trkpt>
      <trkpt lat="41.24566" lon="-8.64869">
        <ele>82.81</ele>
        <time>2019-05-29T08:09:38Z</time>
      </trkpt>
      <trkpt lat="41.24568" lon="-8.64869">
        <ele>82.33</ele>
        <time>2019-05-29T08:09:55Z</time>
      </trkpt>
      <trkpt lat="41.24567" lon="-8.64864">
        <ele>82.33</ele>
        <time>2019-05-29T08:10:22Z</time>
      </trkpt>
      <trkpt lat="41.24568" lon="-8.64865">
        <ele>82.33</ele>
        <time>2019-05-29T08:10:49Z</time>
      </trkpt>
      <trkpt lat="41.24566" lon="-8.64862">
        <ele>82.81</ele>
        <time>2019-05-29T08:11:19Z</time>
      </trkpt>
      <trkpt lat="41.24566" lon="-8.64865">
        <ele>83.29</ele>
        <time>2019-05-29T08:11:43Z</time>
      </trkpt>
      <trkpt lat="41.24571" lon="-8.64868">
        <ele>82.33</ele>
        <time>2019-05-29T08:11:57Z</time>
      </trkpt>
      <trkpt lat="41.24572" lon="-8.64867">
        <ele>82.33</ele>
        <time>2019-05-29T08:11:59Z</time>
      </trkpt>
      <trkpt lat="41.24581" lon="-8.64867">
        <ele>83.29</ele>
        <time>2019-05-29T08:12:13Z</time>
      </trkpt>
      <trkpt lat="41.24588" lon="-8.64867">
        <ele>83.29</ele>
        <time>2019-05-29T08:12:26Z</time>
      </trkpt>
      <trkpt lat="41.24601" lon="-8.6487">
        <ele>83.77</ele>
        <time>2019-05-29T08:12:37Z</time>
      </trkpt>
      <trkpt lat="41.24609" lon="-8.6487">
        <ele>84.25</ele>
        <time>2019-05-29T08:12:47Z</time>
      </trkpt>
      <trkpt lat="41.24616" lon="-8.64872">
        <ele>84.25</ele>
        <time>2019-05-29T08:12:54Z</time>
      </trkpt>
      <trkpt lat="41.24626" lon="-8.64876">
        <ele>84.25</ele>
        <time>2019-05-29T08:13:03Z</time>
      </trkpt>
      <trkpt lat="41.2464" lon="-8.64881">
        <ele>84.73</ele>
        <time>2019-05-29T08:13:15Z</time>
      </trkpt>
      <trkpt lat="41.24647" lon="-8.64881">
        <ele>85.69</ele>
        <time>2019-05-29T08:13:24Z</time>
      </trkpt>
      <trkpt lat="41.24656" lon="-8.64882">
        <ele>86.18</ele>
        <time>2019-05-29T08:13:35Z</time>
      </trkpt>
      <trkpt lat="41.24663" lon="-8.64882">
        <ele>87.14</ele>
        <time>2019-05-29T08:13:40Z</time>
      </trkpt>
      <trkpt lat="41.24673" lon="-8.64883">
        <ele>86.66</ele>
        <time>2019-05-29T08:13:50Z</time>
      </trkpt>
      <trkpt lat="41.24679" lon="-8.64886">
        <ele>87.14</ele>
        <time>2019-05-29T08:13:56Z</time>
      </trkpt>
      <trkpt lat="41.24683" lon="-8.64886">
        <ele>87.14</ele>
        <time>2019-05-29T08:14:01Z</time>
      </trkpt>
      <trkpt lat="41.24688" lon="-8.64884">
        <ele>86.66</ele>
        <time>2019-05-29T08:14:13Z</time>
      </trkpt>
      <trkpt lat="41.24698" lon="-8.64875">
        <ele>87.62</ele>
        <time>2019-05-29T08:14:25Z</time>
      </trkpt>
      <trkpt lat="41.24706" lon="-8.64872">
        <ele>88.1</ele>
        <time>2019-05-29T08:14:32Z</time>
      </trkpt>
      <trkpt lat="41.24724" lon="-8.64871">
        <ele>88.58</ele>
        <time>2019-05-29T08:14:48Z</time>
      </trkpt>
      <trkpt lat="41.24743" lon="-8.64867">
        <ele>88.58</ele>
        <time>2019-05-29T08:15:05Z</time>
      </trkpt>
      <trkpt lat="41.2476" lon="-8.64861">
        <ele>89.06</ele>
        <time>2019-05-29T08:15:20Z</time>
      </trkpt>
      <trkpt lat="41.24773" lon="-8.64858">
        <ele>89.06</ele>
        <time>2019-05-29T08:15:33Z</time>
      </trkpt>
      <trkpt lat="41.24786" lon="-8.64854">
        <ele>89.54</ele>
        <time>2019-05-29T08:15:47Z</time>
      </trkpt>
      <trkpt lat="41.248" lon="-8.64849">
        <ele>89.54</ele>
        <time>2019-05-29T08:16:02Z</time>
      </trkpt>
      <trkpt lat="41.24811" lon="-8.64845">
        <ele>90.5</ele>
        <time>2019-05-29T08:16:14Z</time>
      </trkpt>
      <trkpt lat="41.24822" lon="-8.64832">
        <ele>90.98</ele>
        <time>2019-05-29T08:16:27Z</time>
      </trkpt>
      <trkpt lat="41.24826" lon="-8.64831">
        <ele>90.02</ele>
        <time>2019-05-29T08:16:33Z</time>
      </trkpt>
      <trkpt lat="41.24839" lon="-8.64835">
        <ele>90.98</ele>
        <time>2019-05-29T08:16:46Z</time>
      </trkpt>
      <trkpt lat="41.24847" lon="-8.64837">
        <ele>90.98</ele>
        <time>2019-05-29T08:16:59Z</time>
      </trkpt>
      <trkpt lat="41.24861" lon="-8.64835">
        <ele>90.98</ele>
        <time>2019-05-29T08:17:13Z</time>
      </trkpt>
      <trkpt lat="41.24876" lon="-8.64829">
        <ele>91.46</ele>
        <time>2019-05-29T08:17:27Z</time>
      </trkpt>
      <trkpt lat="41.24893" lon="-8.64824">
        <ele>91.46</ele>
        <time>2019-05-29T08:17:43Z</time>
      </trkpt>
      <trkpt lat="41.24908" lon="-8.6482">
        <ele>91.46</ele>
        <time>2019-05-29T08:17:56Z</time>
      </trkpt>
      <trkpt lat="41.24925" lon="-8.64816">
        <ele>91.94</ele>
        <time>2019-05-29T08:18:12Z</time>
      </trkpt>
      <trkpt lat="41.2494" lon="-8.64814">
        <ele>92.42</ele>
        <time>2019-05-29T08:18:27Z</time>
      </trkpt>
      <trkpt lat="41.24956" lon="-8.64814">
        <ele>91.94</ele>
        <time>2019-05-29T08:18:41Z</time>
      </trkpt>
      <trkpt lat="41.24969" lon="-8.64817">
        <ele>91.94</ele>
        <time>2019-05-29T08:18:54Z</time>
      </trkpt>
      <trkpt lat="41.24983" lon="-8.64819">
        <ele>93.39</ele>
        <time>2019-05-29T08:19:05Z</time>
      </trkpt>
      <trkpt lat="41.24989" lon="-8.6482">
        <ele>92.42</ele>
        <time>2019-05-29T08:19:09Z</time>
      </trkpt>
      <trkpt lat="41.24991" lon="-8.64821">
        <ele>91.94</ele>
        <time>2019-05-29T08:19:11Z</time>
      </trkpt>
      <trkpt lat="41.24995" lon="-8.64821">
        <ele>93.39</ele>
        <time>2019-05-29T08:19:14Z</time>
      </trkpt>
      <trkpt lat="41.25009" lon="-8.64826">
        <ele>93.39</ele>
        <time>2019-05-29T08:19:31Z</time>
      </trkpt>
      <trkpt lat="41.25022" lon="-8.64831">
        <ele>94.35</ele>
        <time>2019-05-29T08:19:46Z</time>
      </trkpt>
      <trkpt lat="41.25027" lon="-8.64832">
        <ele>94.35</ele>
        <time>2019-05-29T08:19:51Z</time>
      </trkpt>
      <trkpt lat="41.25039" lon="-8.64825">
        <ele>94.35</ele>
        <time>2019-05-29T08:20:03Z</time>
      </trkpt>
      <trkpt lat="41.25049" lon="-8.64817">
        <ele>94.35</ele>
        <time>2019-05-29T08:20:13Z</time>
      </trkpt>
      <trkpt lat="41.25053" lon="-8.64813">
        <ele>95.79</ele>
        <time>2019-05-29T08:20:18Z</time>
      </trkpt>
      <trkpt lat="41.25057" lon="-8.64811">
        <ele>95.31</ele>
        <time>2019-05-29T08:20:22Z</time>
      </trkpt>
      <trkpt lat="41.25066" lon="-8.64805">
        <ele>95.79</ele>
        <time>2019-05-29T08:20:32Z</time>
      </trkpt>
      <trkpt lat="41.25068" lon="-8.64804">
        <ele>95.79</ele>
        <time>2019-05-29T08:20:34Z</time>
      </trkpt>
      <trkpt lat="41.25076" lon="-8.64802">
        <ele>96.27</ele>
        <time>2019-05-29T08:20:41Z</time>
      </trkpt>
      <trkpt lat="41.25083" lon="-8.64799">
        <ele>96.75</ele>
        <time>2019-05-29T08:20:48Z</time>
      </trkpt>
      <trkpt lat="41.25085" lon="-8.648">
        <ele>96.75</ele>
        <time>2019-05-29T08:20:50Z</time>
      </trkpt>
      <trkpt lat="41.2509" lon="-8.648">
        <ele>96.27</ele>
        <time>2019-05-29T08:20:55Z</time>
      </trkpt>
      <trkpt lat="41.25111" lon="-8.64801">
        <ele>96.75</ele>
        <time>2019-05-29T08:21:11Z</time>
      </trkpt>
      <trkpt lat="41.25127" lon="-8.64799">
        <ele>97.23</ele>
        <time>2019-05-29T08:21:24Z</time>
      </trkpt>
      <trkpt lat="41.2513" lon="-8.64799">
        <ele>97.23</ele>
        <time>2019-05-29T08:21:26Z</time>
      </trkpt>
      <trkpt lat="41.25132" lon="-8.64798">
        <ele>97.71</ele>
        <time>2019-05-29T08:21:28Z</time>
      </trkpt>
      <trkpt lat="41.25149" lon="-8.64798">
        <ele>97.71</ele>
        <time>2019-05-29T08:21:42Z</time>
      </trkpt>
      <trkpt lat="41.25165" lon="-8.648">
        <ele>97.23</ele>
        <time>2019-05-29T08:21:56Z</time>
      </trkpt>
      <trkpt lat="41.25179" lon="-8.64804">
        <ele>97.71</ele>
        <time>2019-05-29T08:22:10Z</time>
      </trkpt>
      <trkpt lat="41.25193" lon="-8.64805">
        <ele>98.19</ele>
        <time>2019-05-29T08:22:24Z</time>
      </trkpt>
      <trkpt lat="41.25194" lon="-8.64802">
        <ele>98.67</ele>
        <time>2019-05-29T08:22:43Z</time>
      </trkpt>
      <trkpt lat="41.25201" lon="-8.64802">
        <ele>98.67</ele>
        <time>2019-05-29T08:23:01Z</time>
      </trkpt>
      <trkpt lat="41.25215" lon="-8.64806">
        <ele>98.19</ele>
        <time>2019-05-29T08:23:18Z</time>
      </trkpt>
      <trkpt lat="41.25227" lon="-8.6481">
        <ele>98.19</ele>
        <time>2019-05-29T08:23:30Z</time>
      </trkpt>
      <trkpt lat="41.25245" lon="-8.64817">
        <ele>99.15</ele>
        <time>2019-05-29T08:23:47Z</time>
      </trkpt>
      <trkpt lat="41.25254" lon="-8.64825">
        <ele>98.67</ele>
        <time>2019-05-29T08:23:56Z</time>
      </trkpt>
      <trkpt lat="41.25266" lon="-8.6483">
        <ele>99.63</ele>
        <time>2019-05-29T08:24:09Z</time>
      </trkpt>
      <trkpt lat="41.25276" lon="-8.64842">
        <ele>100.11</ele>
        <time>2019-05-29T08:24:23Z</time>
      </trkpt>
      <trkpt lat="41.2528" lon="-8.64853">
        <ele>99.63</ele>
        <time>2019-05-29T08:24:30Z</time>
      </trkpt>
      <trkpt lat="41.25291" lon="-8.64871">
        <ele>99.63</ele>
        <time>2019-05-29T08:24:44Z</time>
      </trkpt>
      <trkpt lat="41.253" lon="-8.64886">
        <ele>99.15</ele>
        <time>2019-05-29T08:24:56Z</time>
      </trkpt>
      <trkpt lat="41.25312" lon="-8.64902">
        <ele>99.63</ele>
        <time>2019-05-29T08:25:11Z</time>
      </trkpt>
      <trkpt lat="41.25323" lon="-8.64918">
        <ele>99.63</ele>
        <time>2019-05-29T08:25:24Z</time>
      </trkpt>
      <trkpt lat="41.25335" lon="-8.6493">
        <ele>99.63</ele>
        <time>2019-05-29T08:25:37Z</time>
      </trkpt>
      <trkpt lat="41.25347" lon="-8.64944">
        <ele>99.63</ele>
        <time>2019-05-29T08:25:52Z</time>
      </trkpt>
      <trkpt lat="41.25356" lon="-8.64952">
        <ele>99.63</ele>
        <time>2019-05-29T08:26:06Z</time>
      </trkpt>
      <trkpt lat="41.25365" lon="-8.64964">
        <ele>99.63</ele>
        <time>2019-05-29T08:26:17Z</time>
      </trkpt>
      <trkpt lat="41.25375" lon="-8.64976">
        <ele>100.11</ele>
        <time>2019-05-29T08:26:29Z</time>
      </trkpt>
      <trkpt lat="41.25386" lon="-8.64989">
        <ele>100.11</ele>
        <time>2019-05-29T08:26:42Z</time>
      </trkpt>
      <trkpt lat="41.25391" lon="-8.64997">
        <ele>100.11</ele>
        <time>2019-05-29T08:26:49Z</time>
      </trkpt>
      <trkpt lat="41.25397" lon="-8.65003">
        <ele>100.6</ele>
        <time>2019-05-29T08:27:05Z</time>
      </trkpt>
      <trkpt lat="41.25397" lon="-8.65002">
        <ele>100.6</ele>
        <time>2019-05-29T08:27:18Z</time>
      </trkpt>
      <trkpt lat="41.254" lon="-8.65006">
        <ele>99.63</ele>
        <time>2019-05-29T08:27:46Z</time>
      </trkpt>
      <trkpt lat="41.25402" lon="-8.65013">
        <ele>100.11</ele>
        <time>2019-05-29T08:28:02Z</time>
      </trkpt>
      <trkpt lat="41.25404" lon="-8.65015">
        <ele>100.6</ele>
        <time>2019-05-29T08:28:07Z</time>
      </trkpt>
      <trkpt lat="41.25403" lon="-8.65009">
        <ele>100.11</ele>
        <time>2019-05-29T08:28:14Z</time>
      </trkpt>
      <trkpt lat="41.25404" lon="-8.65006">
        <ele>99.15</ele>
        <time>2019-05-29T08:28:16Z</time>
      </trkpt>
      <trkpt lat="41.25414" lon="-8.64997">
        <ele>100.11</ele>
        <time>2019-05-29T08:28:29Z</time>
      </trkpt>
      <trkpt lat="41.25418" lon="-8.64992">
        <ele>100.11</ele>
        <time>2019-05-29T08:28:35Z</time>
      </trkpt>
      <trkpt lat="41.25419" lon="-8.64986">
        <ele>100.11</ele>
        <time>2019-05-29T08:28:40Z</time>
      </trkpt>
      <trkpt lat="41.2543" lon="-8.64974">
        <ele>100.6</ele>
        <time>2019-05-29T08:28:50Z</time>
      </trkpt>
      <trkpt lat="41.25439" lon="-8.64961">
        <ele>101.08</ele>
        <time>2019-05-29T08:29:03Z</time>
      </trkpt>
      <trkpt lat="41.25441" lon="-8.64964">
        <ele>101.08</ele>
        <time>2019-05-29T08:29:09Z</time>
      </trkpt>
      <trkpt lat="41.25445" lon="-8.6497">
        <ele>101.08</ele>
        <time>2019-05-29T08:29:16Z</time>
      </trkpt>
      <trkpt lat="41.25451" lon="-8.64993">
        <ele>100.6</ele>
        <time>2019-05-29T08:29:31Z</time>
      </trkpt>
      <trkpt lat="41.25465" lon="-8.65015">
        <ele>100.11</ele>
        <time>2019-05-29T08:29:48Z</time>
      </trkpt>
      <trkpt lat="41.25479" lon="-8.65022">
        <ele>99.63</ele>
        <time>2019-05-29T08:29:59Z</time>
      </trkpt>
      <trkpt lat="41.25498" lon="-8.6503">
        <ele>99.63</ele>
        <time>2019-05-29T08:30:14Z</time>
      </trkpt>
      <trkpt lat="41.25516" lon="-8.65039">
        <ele>98.67</ele>
        <time>2019-05-29T08:30:30Z</time>
      </trkpt>
      <trkpt lat="41.25517" lon="-8.65039">
        <ele>99.15</ele>
        <time>2019-05-29T08:30:31Z</time>
      </trkpt>
      <trkpt lat="41.25536" lon="-8.65048">
        <ele>98.67</ele>
        <time>2019-05-29T08:30:47Z</time>
      </trkpt>
      <trkpt lat="41.25551" lon="-8.65049">
        <ele>98.19</ele>
        <time>2019-05-29T08:31:02Z</time>
      </trkpt>
      <trkpt lat="41.25552" lon="-8.65045">
        <ele>99.15</ele>
        <time>2019-05-29T08:31:06Z</time>
      </trkpt>
      <trkpt lat="41.25558" lon="-8.65025">
        <ele>98.67</ele>
        <time>2019-05-29T08:31:21Z</time>
      </trkpt>
      <trkpt lat="41.25563" lon="-8.65008">
        <ele>99.63</ele>
        <time>2019-05-29T08:31:35Z</time>
      </trkpt>
      <trkpt lat="41.25566" lon="-8.64987">
        <ele>100.11</ele>
        <time>2019-05-29T08:31:50Z</time>
      </trkpt>
      <trkpt lat="41.25569" lon="-8.64978">
        <ele>99.63</ele>
        <time>2019-05-29T08:31:57Z</time>
      </trkpt>
      <trkpt lat="41.2557" lon="-8.64975">
        <ele>99.63</ele>
        <time>2019-05-29T08:31:59Z</time>
      </trkpt>
      <trkpt lat="41.25579" lon="-8.64953">
        <ele>101.08</ele>
        <time>2019-05-29T08:32:14Z</time>
      </trkpt>
      <trkpt lat="41.25586" lon="-8.6493">
        <ele>101.56</ele>
        <time>2019-05-29T08:32:29Z</time>
      </trkpt>
      <trkpt lat="41.25592" lon="-8.64906">
        <ele>102.52</ele>
        <time>2019-05-29T08:32:44Z</time>
      </trkpt>
      <trkpt lat="41.25597" lon="-8.64888">
        <ele>103.48</ele>
        <time>2019-05-29T08:32:58Z</time>
      </trkpt>
      <trkpt lat="41.25602" lon="-8.64869">
        <ele>103.48</ele>
        <time>2019-05-29T08:33:13Z</time>
      </trkpt>
      <trkpt lat="41.25606" lon="-8.64856">
        <ele>103</ele>
        <time>2019-05-29T08:33:23Z</time>
      </trkpt>
      <trkpt lat="41.2561" lon="-8.64843">
        <ele>104.44</ele>
        <time>2019-05-29T08:33:32Z</time>
      </trkpt>
      <trkpt lat="41.25621" lon="-8.64823">
        <ele>104.44</ele>
        <time>2019-05-29T08:33:47Z</time>
      </trkpt>
      <trkpt lat="41.25627" lon="-8.64805">
        <ele>104.92</ele>
        <time>2019-05-29T08:34:00Z</time>
      </trkpt>
      <trkpt lat="41.25634" lon="-8.64782">
        <ele>105.4</ele>
        <time>2019-05-29T08:34:14Z</time>
      </trkpt>
      <trkpt lat="41.25635" lon="-8.64763">
        <ele>105.88</ele>
        <time>2019-05-29T08:34:28Z</time>
      </trkpt>
      <trkpt lat="41.25635" lon="-8.6475">
        <ele>106.36</ele>
        <time>2019-05-29T08:34:43Z</time>
      </trkpt>
      <trkpt lat="41.25635" lon="-8.64748">
        <ele>106.36</ele>
        <time>2019-05-29T08:34:45Z</time>
      </trkpt>
      <trkpt lat="41.25638" lon="-8.64742">
        <ele>106.36</ele>
        <time>2019-05-29T08:34:50Z</time>
      </trkpt>
      <trkpt lat="41.25641" lon="-8.64721">
        <ele>106.36</ele>
        <time>2019-05-29T08:35:05Z</time>
      </trkpt>
      <trkpt lat="41.25647" lon="-8.64701">
        <ele>106.84</ele>
        <time>2019-05-29T08:35:19Z</time>
      </trkpt>
      <trkpt lat="41.25652" lon="-8.64681">
        <ele>107.32</ele>
        <time>2019-05-29T08:35:33Z</time>
      </trkpt>
      <trkpt lat="41.25657" lon="-8.6466">
        <ele>107.81</ele>
        <time>2019-05-29T08:35:48Z</time>
      </trkpt>
      <trkpt lat="41.25661" lon="-8.64642">
        <ele>107.81</ele>
        <time>2019-05-29T08:36:01Z</time>
      </trkpt>
      <trkpt lat="41.25668" lon="-8.64627">
        <ele>108.29</ele>
        <time>2019-05-29T08:36:14Z</time>
      </trkpt>
      <trkpt lat="41.25673" lon="-8.6461">
        <ele>107.81</ele>
        <time>2019-05-29T08:36:27Z</time>
      </trkpt>
      <trkpt lat="41.25676" lon="-8.64595">
        <ele>107.81</ele>
        <time>2019-05-29T08:36:40Z</time>
      </trkpt>
      <trkpt lat="41.25679" lon="-8.64574">
        <ele>108.77</ele>
        <time>2019-05-29T08:36:54Z</time>
      </trkpt>
      <trkpt lat="41.25686" lon="-8.64551">
        <ele>108.29</ele>
        <time>2019-05-29T08:37:09Z</time>
      </trkpt>
      <trkpt lat="41.25686" lon="-8.64545">
        <ele>109.25</ele>
        <time>2019-05-29T08:37:13Z</time>
      </trkpt>
      <trkpt lat="41.2569" lon="-8.64537">
        <ele>109.25</ele>
        <time>2019-05-29T08:37:19Z</time>
      </trkpt>
      <trkpt lat="41.25693" lon="-8.64524">
        <ele>108.77</ele>
        <time>2019-05-29T08:37:27Z</time>
      </trkpt>
      <trkpt lat="41.25699" lon="-8.64504">
        <ele>110.21</ele>
        <time>2019-05-29T08:37:41Z</time>
      </trkpt>
      <trkpt lat="41.25705" lon="-8.64485">
        <ele>109.25</ele>
        <time>2019-05-29T08:37:54Z</time>
      </trkpt>
      <trkpt lat="41.25707" lon="-8.64484">
        <ele>109.73</ele>
        <time>2019-05-29T08:37:56Z</time>
      </trkpt>
      <trkpt lat="41.25718" lon="-8.64476">
        <ele>109.73</ele>
        <time>2019-05-29T08:38:11Z</time>
      </trkpt>
      <trkpt lat="41.25726" lon="-8.64472">
        <ele>110.21</ele>
        <time>2019-05-29T08:38:23Z</time>
      </trkpt>
      <trkpt lat="41.25727" lon="-8.64473">
        <ele>109.73</ele>
        <time>2019-05-29T08:38:25Z</time>
      </trkpt>
      <trkpt lat="41.25741" lon="-8.64476">
        <ele>110.69</ele>
        <time>2019-05-29T08:38:36Z</time>
      </trkpt>
      <trkpt lat="41.25753" lon="-8.64482">
        <ele>109.73</ele>
        <time>2019-05-29T08:38:47Z</time>
      </trkpt>
      <trkpt lat="41.25766" lon="-8.64492">
        <ele>109.73</ele>
        <time>2019-05-29T08:38:59Z</time>
      </trkpt>
      <trkpt lat="41.25774" lon="-8.64502">
        <ele>108.77</ele>
        <time>2019-05-29T08:39:10Z</time>
      </trkpt>
      <trkpt lat="41.2579" lon="-8.64511">
        <ele>108.77</ele>
        <time>2019-05-29T08:39:24Z</time>
      </trkpt>
      <trkpt lat="41.25804" lon="-8.6451">
        <ele>109.25</ele>
        <time>2019-05-29T08:39:38Z</time>
      </trkpt>
      <trkpt lat="41.25807" lon="-8.64524">
        <ele>108.29</ele>
        <time>2019-05-29T08:39:53Z</time>
      </trkpt>
      <trkpt lat="41.25809" lon="-8.64528">
        <ele>107.81</ele>
        <time>2019-05-29T08:39:57Z</time>
      </trkpt>
      <trkpt lat="41.25813" lon="-8.64532">
        <ele>107.81</ele>
        <time>2019-05-29T08:40:02Z</time>
      </trkpt>
      <trkpt lat="41.25828" lon="-8.64539">
        <ele>107.32</ele>
        <time>2019-05-29T08:40:16Z</time>
      </trkpt>
      <trkpt lat="41.25844" lon="-8.64541">
        <ele>106.36</ele>
        <time>2019-05-29T08:40:27Z</time>
      </trkpt>
      <trkpt lat="41.25865" lon="-8.64544">
        <ele>106.36</ele>
        <time>2019-05-29T08:40:41Z</time>
      </trkpt>
      <trkpt lat="41.25882" lon="-8.6455">
        <ele>105.88</ele>
        <time>2019-05-29T08:40:54Z</time>
      </trkpt>
      <trkpt lat="41.25898" lon="-8.64558">
        <ele>104.92</ele>
        <time>2019-05-29T08:41:07Z</time>
      </trkpt>
      <trkpt lat="41.25914" lon="-8.6457">
        <ele>103</ele>
        <time>2019-05-29T08:41:23Z</time>
      </trkpt>
      <trkpt lat="41.25928" lon="-8.6458">
        <ele>103</ele>
        <time>2019-05-29T08:41:35Z</time>
      </trkpt>
      <trkpt lat="41.25938" lon="-8.64589">
        <ele>103</ele>
        <time>2019-05-29T08:41:47Z</time>
      </trkpt>
      <trkpt lat="41.2595" lon="-8.64599">
        <ele>102.52</ele>
        <time>2019-05-29T08:42:00Z</time>
      </trkpt>
      <trkpt lat="41.25963" lon="-8.64608">
        <ele>102.52</ele>
        <time>2019-05-29T08:42:12Z</time>
      </trkpt>
      <trkpt lat="41.25975" lon="-8.6462">
        <ele>102.04</ele>
        <time>2019-05-29T08:42:25Z</time>
      </trkpt>
      <trkpt lat="41.25981" lon="-8.64624">
        <ele>101.56</ele>
        <time>2019-05-29T08:42:30Z</time>
      </trkpt>
      <trkpt lat="41.25986" lon="-8.64629">
        <ele>101.08</ele>
        <time>2019-05-29T08:42:36Z</time>
      </trkpt>
      <trkpt lat="41.25998" lon="-8.64641">
        <ele>100.6</ele>
        <time>2019-05-29T08:42:47Z</time>
      </trkpt>
      <trkpt lat="41.26002" lon="-8.64643">
        <ele>100.6</ele>
        <time>2019-05-29T08:42:52Z</time>
      </trkpt>
      <trkpt lat="41.26007" lon="-8.64646">
        <ele>101.08</ele>
        <time>2019-05-29T08:42:56Z</time>
      </trkpt>
      <trkpt lat="41.2602" lon="-8.64652">
        <ele>100.6</ele>
        <time>2019-05-29T08:43:07Z</time>
      </trkpt>
      <trkpt lat="41.2603" lon="-8.6466">
        <ele>101.08</ele>
        <time>2019-05-29T08:43:16Z</time>
      </trkpt>
      <trkpt lat="41.26039" lon="-8.64671">
        <ele>99.63</ele>
        <time>2019-05-29T08:43:27Z</time>
      </trkpt>
      <trkpt lat="41.26052" lon="-8.64684">
        <ele>99.15</ele>
        <time>2019-05-29T08:43:43Z</time>
      </trkpt>
      <trkpt lat="41.26054" lon="-8.64686">
        <ele>99.15</ele>
        <time>2019-05-29T08:43:45Z</time>
      </trkpt>
      <trkpt lat="41.26057" lon="-8.64688">
        <ele>99.15</ele>
        <time>2019-05-29T08:43:48Z</time>
      </trkpt>
      <trkpt lat="41.26069" lon="-8.64694">
        <ele>98.67</ele>
        <time>2019-05-29T08:44:00Z</time>
      </trkpt>
      <trkpt lat="41.26082" lon="-8.64696">
        <ele>98.19</ele>
        <time>2019-05-29T08:44:11Z</time>
      </trkpt>
      <trkpt lat="41.26093" lon="-8.64698">
        <ele>98.19</ele>
        <time>2019-05-29T08:44:19Z</time>
      </trkpt>
      <trkpt lat="41.26108" lon="-8.64701">
        <ele>97.23</ele>
        <time>2019-05-29T08:44:32Z</time>
      </trkpt>
      <trkpt lat="41.26124" lon="-8.64703">
        <ele>97.71</ele>
        <time>2019-05-29T08:44:46Z</time>
      </trkpt>
      <trkpt lat="41.26133" lon="-8.64707">
        <ele>97.23</ele>
        <time>2019-05-29T08:44:55Z</time>
      </trkpt>
      <trkpt lat="41.26139" lon="-8.64708">
        <ele>96.75</ele>
        <time>2019-05-29T08:45:00Z</time>
      </trkpt>
      <trkpt lat="41.26155" lon="-8.64709">
        <ele>97.71</ele>
        <time>2019-05-29T08:45:13Z</time>
      </trkpt>
      <trkpt lat="41.26165" lon="-8.64708">
        <ele>98.67</ele>
        <time>2019-05-29T08:45:22Z</time>
      </trkpt>
      <trkpt lat="41.26175" lon="-8.64712">
        <ele>97.23</ele>
        <time>2019-05-29T08:45:35Z</time>
      </trkpt>
      <trkpt lat="41.26183" lon="-8.64713">
        <ele>96.75</ele>
        <time>2019-05-29T08:45:43Z</time>
      </trkpt>
      <trkpt lat="41.26199" lon="-8.64714">
        <ele>96.75</ele>
        <time>2019-05-29T08:45:57Z</time>
      </trkpt>
      <trkpt lat="41.26218" lon="-8.64715">
        <ele>96.27</ele>
        <time>2019-05-29T08:46:12Z</time>
      </trkpt>
      <trkpt lat="41.26226" lon="-8.64716">
        <ele>95.79</ele>
        <time>2019-05-29T08:46:19Z</time>
      </trkpt>
      <trkpt lat="41.26241" lon="-8.64718">
        <ele>96.27</ele>
        <time>2019-05-29T08:46:32Z</time>
      </trkpt>
      <trkpt lat="41.26254" lon="-8.64723">
        <ele>95.31</ele>
        <time>2019-05-29T08:46:44Z</time>
      </trkpt>
      <trkpt lat="41.26271" lon="-8.64724">
        <ele>95.31</ele>
        <time>2019-05-29T08:46:58Z</time>
      </trkpt>
      <trkpt lat="41.26293" lon="-8.64726">
        <ele>93.87</ele>
        <time>2019-05-29T08:47:12Z</time>
      </trkpt>
      <trkpt lat="41.26309" lon="-8.64732">
        <ele>94.35</ele>
        <time>2019-05-29T08:47:25Z</time>
      </trkpt>
      <trkpt lat="41.26323" lon="-8.64736">
        <ele>93.39</ele>
        <time>2019-05-29T08:47:37Z</time>
      </trkpt>
      <trkpt lat="41.26332" lon="-8.64739">
        <ele>93.87</ele>
        <time>2019-05-29T08:47:45Z</time>
      </trkpt>
      <trkpt lat="41.26345" lon="-8.64736">
        <ele>92.42</ele>
        <time>2019-05-29T08:47:52Z</time>
      </trkpt>
      <trkpt lat="41.2636" lon="-8.64743">
        <ele>93.39</ele>
        <time>2019-05-29T08:48:07Z</time>
      </trkpt>
      <trkpt lat="41.26362" lon="-8.64745">
        <ele>92.42</ele>
        <time>2019-05-29T08:48:10Z</time>
      </trkpt>
      <trkpt lat="41.26377" lon="-8.64747">
        <ele>92.9</ele>
        <time>2019-05-29T08:48:23Z</time>
      </trkpt>
      <trkpt lat="41.26379" lon="-8.64751">
        <ele>92.9</ele>
        <time>2019-05-29T08:48:27Z</time>
      </trkpt>
      <trkpt lat="41.26382" lon="-8.64755">
        <ele>92.42</ele>
        <time>2019-05-29T08:48:31Z</time>
      </trkpt>
      <trkpt lat="41.2639" lon="-8.64765">
        <ele>91.94</ele>
        <time>2019-05-29T08:48:40Z</time>
      </trkpt>
      <trkpt lat="41.264" lon="-8.64776">
        <ele>91.94</ele>
        <time>2019-05-29T08:48:50Z</time>
      </trkpt>
      <trkpt lat="41.26402" lon="-8.64777">
        <ele>91.94</ele>
        <time>2019-05-29T08:48:52Z</time>
      </trkpt>
      <trkpt lat="41.26413" lon="-8.64785">
        <ele>91.94</ele>
        <time>2019-05-29T08:49:03Z</time>
      </trkpt>
      <trkpt lat="41.26417" lon="-8.64788">
        <ele>91.46</ele>
        <time>2019-05-29T08:49:07Z</time>
      </trkpt>
      <trkpt lat="41.26426" lon="-8.64793">
        <ele>91.94</ele>
        <time>2019-05-29T08:49:15Z</time>
      </trkpt>
      <trkpt lat="41.26441" lon="-8.64802">
        <ele>91.46</ele>
        <time>2019-05-29T08:49:30Z</time>
      </trkpt>
      <trkpt lat="41.26453" lon="-8.64809">
        <ele>90.98</ele>
        <time>2019-05-29T08:49:42Z</time>
      </trkpt>
      <trkpt lat="41.26458" lon="-8.6481">
        <ele>90.98</ele>
        <time>2019-05-29T08:49:47Z</time>
      </trkpt>
      <trkpt lat="41.26462" lon="-8.64813">
        <ele>90.5</ele>
        <time>2019-05-29T08:49:51Z</time>
      </trkpt>
      <trkpt lat="41.26476" lon="-8.6482">
        <ele>90.98</ele>
        <time>2019-05-29T08:50:04Z</time>
      </trkpt>
      <trkpt lat="41.26487" lon="-8.64835">
        <ele>90.5</ele>
        <time>2019-05-29T08:50:17Z</time>
      </trkpt>
      <trkpt lat="41.26496" lon="-8.64846">
        <ele>90.5</ele>
        <time>2019-05-29T08:50:28Z</time>
      </trkpt>
      <trkpt lat="41.26507" lon="-8.64856">
        <ele>90.5</ele>
        <time>2019-05-29T08:50:41Z</time>
      </trkpt>
      <trkpt lat="41.26512" lon="-8.64861">
        <ele>90.02</ele>
        <time>2019-05-29T08:50:48Z</time>
      </trkpt>
      <trkpt lat="41.26516" lon="-8.64863">
        <ele>90.02</ele>
        <time>2019-05-29T08:50:55Z</time>
      </trkpt>
      <trkpt lat="41.26525" lon="-8.64883">
        <ele>89.54</ele>
        <time>2019-05-29T08:51:10Z</time>
      </trkpt>
      <trkpt lat="41.26526" lon="-8.64886">
        <ele>90.02</ele>
        <time>2019-05-29T08:51:13Z</time>
      </trkpt>
      <trkpt lat="41.26531" lon="-8.64897">
        <ele>89.06</ele>
        <time>2019-05-29T08:51:25Z</time>
      </trkpt>
      <trkpt lat="41.26532" lon="-8.64902">
        <ele>89.54</ele>
        <time>2019-05-29T08:51:29Z</time>
      </trkpt>
      <trkpt lat="41.26539" lon="-8.64922">
        <ele>88.58</ele>
        <time>2019-05-29T08:51:44Z</time>
      </trkpt>
      <trkpt lat="41.26537" lon="-8.64924">
        <ele>88.1</ele>
        <time>2019-05-29T08:51:57Z</time>
      </trkpt>
      <trkpt lat="41.26536" lon="-8.64943">
        <ele>87.62</ele>
        <time>2019-05-29T08:52:13Z</time>
      </trkpt>
      <trkpt lat="41.26539" lon="-8.64949">
        <ele>87.62</ele>
        <time>2019-05-29T08:52:18Z</time>
      </trkpt>
      <trkpt lat="41.26543" lon="-8.64958">
        <ele>87.62</ele>
        <time>2019-05-29T08:52:25Z</time>
      </trkpt>
      <trkpt lat="41.26544" lon="-8.64961">
        <ele>87.14</ele>
        <time>2019-05-29T08:52:27Z</time>
      </trkpt>
      <trkpt lat="41.26548" lon="-8.64974">
        <ele>86.18</ele>
        <time>2019-05-29T08:52:36Z</time>
      </trkpt>
      <trkpt lat="41.26558" lon="-8.64992">
        <ele>85.69</ele>
        <time>2019-05-29T08:52:50Z</time>
      </trkpt>
      <trkpt lat="41.26571" lon="-8.65006">
        <ele>85.21</ele>
        <time>2019-05-29T08:53:04Z</time>
      </trkpt>
      <trkpt lat="41.26582" lon="-8.65018">
        <ele>86.18</ele>
        <time>2019-05-29T08:53:16Z</time>
      </trkpt>
      <trkpt lat="41.26595" lon="-8.65031">
        <ele>85.21</ele>
        <time>2019-05-29T08:53:30Z</time>
      </trkpt>
      <trkpt lat="41.26597" lon="-8.65033">
        <ele>85.21</ele>
        <time>2019-05-29T08:53:32Z</time>
      </trkpt>
      <trkpt lat="41.26606" lon="-8.65041">
        <ele>85.21</ele>
        <time>2019-05-29T08:53:40Z</time>
      </trkpt>
      <trkpt lat="41.26611" lon="-8.65046">
        <ele>85.21</ele>
        <time>2019-05-29T08:53:46Z</time>
      </trkpt>
      <trkpt lat="41.26623" lon="-8.65059">
        <ele>84.73</ele>
        <time>2019-05-29T08:54:00Z</time>
      </trkpt>
      <trkpt lat="41.26635" lon="-8.65077">
        <ele>84.73</ele>
        <time>2019-05-29T08:54:15Z</time>
      </trkpt>
      <trkpt lat="41.26635" lon="-8.65078">
        <ele>85.21</ele>
        <time>2019-05-29T08:54:16Z</time>
      </trkpt>
      <trkpt lat="41.26648" lon="-8.65094">
        <ele>84.73</ele>
        <time>2019-05-29T08:54:31Z</time>
      </trkpt>
      <trkpt lat="41.26663" lon="-8.65106">
        <ele>83.77</ele>
        <time>2019-05-29T08:54:45Z</time>
      </trkpt>
      <trkpt lat="41.26676" lon="-8.6512">
        <ele>84.25</ele>
        <time>2019-05-29T08:55:01Z</time>
      </trkpt>
      <trkpt lat="41.26684" lon="-8.65129">
        <ele>84.25</ele>
        <time>2019-05-29T08:55:10Z</time>
      </trkpt>
      <trkpt lat="41.26687" lon="-8.65135">
        <ele>84.25</ele>
        <time>2019-05-29T08:55:16Z</time>
      </trkpt>
      <trkpt lat="41.267" lon="-8.65151">
        <ele>83.77</ele>
        <time>2019-05-29T08:55:31Z</time>
      </trkpt>
      <trkpt lat="41.26711" lon="-8.65163">
        <ele>83.29</ele>
        <time>2019-05-29T08:55:45Z</time>
      </trkpt>
      <trkpt lat="41.26723" lon="-8.65176">
        <ele>83.77</ele>
        <time>2019-05-29T08:55:59Z</time>
      </trkpt>
      <trkpt lat="41.26737" lon="-8.65189">
        <ele>83.77</ele>
        <time>2019-05-29T08:56:13Z</time>
      </trkpt>
      <trkpt lat="41.26749" lon="-8.65198">
        <ele>83.77</ele>
        <time>2019-05-29T08:56:24Z</time>
      </trkpt>
      <trkpt lat="41.26763" lon="-8.65214">
        <ele>83.29</ele>
        <time>2019-05-29T08:56:39Z</time>
      </trkpt>
      <trkpt lat="41.26764" lon="-8.65216">
        <ele>83.29</ele>
        <time>2019-05-29T08:56:41Z</time>
      </trkpt>
      <trkpt lat="41.26765" lon="-8.65219">
        <ele>83.77</ele>
        <time>2019-05-29T08:56:43Z</time>
      </trkpt>
      <trkpt lat="41.2677" lon="-8.65229">
        <ele>83.29</ele>
        <time>2019-05-29T08:56:51Z</time>
      </trkpt>
      <trkpt lat="41.26774" lon="-8.6524">
        <ele>83.29</ele>
        <time>2019-05-29T08:56:59Z</time>
      </trkpt>
      <trkpt lat="41.26777" lon="-8.65259">
        <ele>83.29</ele>
        <time>2019-05-29T08:57:12Z</time>
      </trkpt>
      <trkpt lat="41.26778" lon="-8.65266">
        <ele>82.81</ele>
        <time>2019-05-29T08:57:16Z</time>
      </trkpt>
      <trkpt lat="41.26778" lon="-8.6528">
        <ele>82.81</ele>
        <time>2019-05-29T08:57:27Z</time>
      </trkpt>
      <trkpt lat="41.26779" lon="-8.6529">
        <ele>82.33</ele>
        <time>2019-05-29T08:57:32Z</time>
      </trkpt>
      <trkpt lat="41.26781" lon="-8.65308">
        <ele>82.33</ele>
        <time>2019-05-29T08:57:43Z</time>
      </trkpt>
      <trkpt lat="41.26782" lon="-8.65314">
        <ele>82.81</ele>
        <time>2019-05-29T08:57:47Z</time>
      </trkpt>
      <trkpt lat="41.26783" lon="-8.65322">
        <ele>82.33</ele>
        <time>2019-05-29T08:57:53Z</time>
      </trkpt>
      <trkpt lat="41.26783" lon="-8.65336">
        <ele>82.81</ele>
        <time>2019-05-29T08:58:05Z</time>
      </trkpt>
      <trkpt lat="41.2679" lon="-8.65358">
        <ele>82.81</ele>
        <time>2019-05-29T08:58:22Z</time>
      </trkpt>
      <trkpt lat="41.26791" lon="-8.6536">
        <ele>82.81</ele>
        <time>2019-05-29T08:58:23Z</time>
      </trkpt>
      <trkpt lat="41.26797" lon="-8.65366">
        <ele>81.85</ele>
        <time>2019-05-29T08:58:30Z</time>
      </trkpt>
      <trkpt lat="41.26801" lon="-8.65371">
        <ele>81.85</ele>
        <time>2019-05-29T08:58:46Z</time>
      </trkpt>
      <trkpt lat="41.268" lon="-8.65375">
        <ele>82.33</ele>
        <time>2019-05-29T08:59:06Z</time>
      </trkpt>
      <trkpt lat="41.26796" lon="-8.65381">
        <ele>81.85</ele>
        <time>2019-05-29T08:59:18Z</time>
      </trkpt>
      <trkpt lat="41.26799" lon="-8.65377">
        <ele>81.85</ele>
        <time>2019-05-29T08:59:44Z</time>
      </trkpt>
      <trkpt lat="41.26805" lon="-8.65388">
        <ele>81.85</ele>
        <time>2019-05-29T09:00:03Z</time>
      </trkpt>
      <trkpt lat="41.26812" lon="-8.65395">
        <ele>81.37</ele>
        <time>2019-05-29T09:00:10Z</time>
      </trkpt>
      <trkpt lat="41.26813" lon="-8.65401">
        <ele>81.85</ele>
        <time>2019-05-29T09:00:14Z</time>
      </trkpt>
      <trkpt lat="41.2682" lon="-8.65414">
        <ele>81.85</ele>
        <time>2019-05-29T09:00:28Z</time>
      </trkpt>
      <trkpt lat="41.26822" lon="-8.65422">
        <ele>81.85</ele>
        <time>2019-05-29T09:00:33Z</time>
      </trkpt>
      <trkpt lat="41.26823" lon="-8.65429">
        <ele>81.37</ele>
        <time>2019-05-29T09:00:37Z</time>
      </trkpt>
      <trkpt lat="41.26823" lon="-8.65433">
        <ele>81.37</ele>
        <time>2019-05-29T09:00:40Z</time>
      </trkpt>
      <trkpt lat="41.26826" lon="-8.65455">
        <ele>80.89</ele>
        <time>2019-05-29T09:00:55Z</time>
      </trkpt>
      <trkpt lat="41.26825" lon="-8.65474">
        <ele>80.89</ele>
        <time>2019-05-29T09:01:08Z</time>
      </trkpt>
      <trkpt lat="41.26828" lon="-8.65494">
        <ele>80.41</ele>
        <time>2019-05-29T09:01:22Z</time>
      </trkpt>
      <trkpt lat="41.2683" lon="-8.65515">
        <ele>79.45</ele>
        <time>2019-05-29T09:01:36Z</time>
      </trkpt>
      <trkpt lat="41.26832" lon="-8.65537">
        <ele>78.97</ele>
        <time>2019-05-29T09:01:52Z</time>
      </trkpt>
      <trkpt lat="41.26833" lon="-8.65546">
        <ele>78.97</ele>
        <time>2019-05-29T09:01:58Z</time>
      </trkpt>
      <trkpt lat="41.26834" lon="-8.65558">
        <ele>79.45</ele>
        <time>2019-05-29T09:02:07Z</time>
      </trkpt>
      <trkpt lat="41.26836" lon="-8.6559">
        <ele>79.45</ele>
        <time>2019-05-29T09:02:25Z</time>
      </trkpt>
      <trkpt lat="41.26838" lon="-8.65608">
        <ele>79.45</ele>
        <time>2019-05-29T09:02:39Z</time>
      </trkpt>
      <trkpt lat="41.26841" lon="-8.65631">
        <ele>79.93</ele>
        <time>2019-05-29T09:02:54Z</time>
      </trkpt>
      <trkpt lat="41.26841" lon="-8.65635">
        <ele>79.93</ele>
        <time>2019-05-29T09:02:57Z</time>
      </trkpt>
      <trkpt lat="41.26845" lon="-8.65659">
        <ele>79.93</ele>
        <time>2019-05-29T09:03:14Z</time>
      </trkpt>
      <trkpt lat="41.26849" lon="-8.65681">
        <ele>80.41</ele>
        <time>2019-05-29T09:03:29Z</time>
      </trkpt>
      <trkpt lat="41.26853" lon="-8.657">
        <ele>79.93</ele>
        <time>2019-05-29T09:03:43Z</time>
      </trkpt>
      <trkpt lat="41.2686" lon="-8.65722">
        <ele>79.93</ele>
        <time>2019-05-29T09:03:58Z</time>
      </trkpt>
      <trkpt lat="41.26864" lon="-8.65736">
        <ele>79.45</ele>
        <time>2019-05-29T09:04:08Z</time>
      </trkpt>
      <trkpt lat="41.2687" lon="-8.65763">
        <ele>80.41</ele>
        <time>2019-05-29T09:04:24Z</time>
      </trkpt>
      <trkpt lat="41.26874" lon="-8.65785">
        <ele>79.93</ele>
        <time>2019-05-29T09:04:39Z</time>
      </trkpt>
      <trkpt lat="41.26877" lon="-8.65802">
        <ele>79.93</ele>
        <time>2019-05-29T09:04:51Z</time>
      </trkpt>
      <trkpt lat="41.26878" lon="-8.6582">
        <ele>79.93</ele>
        <time>2019-05-29T09:05:05Z</time>
      </trkpt>
      <trkpt lat="41.26881" lon="-8.65832">
        <ele>79.45</ele>
        <time>2019-05-29T09:05:17Z</time>
      </trkpt>
      <trkpt lat="41.26883" lon="-8.65853">
        <ele>79.45</ele>
        <time>2019-05-29T09:05:31Z</time>
      </trkpt>
      <trkpt lat="41.26882" lon="-8.65857">
        <ele>79.93</ele>
        <time>2019-05-29T09:05:34Z</time>
      </trkpt>
      <trkpt lat="41.2688" lon="-8.65887">
        <ele>79.45</ele>
        <time>2019-05-29T09:05:53Z</time>
      </trkpt>
      <trkpt lat="41.26876" lon="-8.65915">
        <ele>78.48</ele>
        <time>2019-05-29T09:06:09Z</time>
      </trkpt>
      <trkpt lat="41.26871" lon="-8.65935">
        <ele>78.48</ele>
        <time>2019-05-29T09:06:21Z</time>
      </trkpt>
      <trkpt lat="41.26868" lon="-8.65949">
        <ele>77.52</ele>
        <time>2019-05-29T09:06:33Z</time>
      </trkpt>
      <trkpt lat="41.26867" lon="-8.65954">
        <ele>77.52</ele>
        <time>2019-05-29T09:06:37Z</time>
      </trkpt>
      <trkpt lat="41.26862" lon="-8.6598">
        <ele>77.04</ele>
        <time>2019-05-29T09:06:54Z</time>
      </trkpt>
      <trkpt lat="41.26862" lon="-8.65988">
        <ele>76.56</ele>
        <time>2019-05-29T09:06:59Z</time>
      </trkpt>
      <trkpt lat="41.26861" lon="-8.66008">
        <ele>76.08</ele>
        <time>2019-05-29T09:07:12Z</time>
      </trkpt>
      <trkpt lat="41.26859" lon="-8.66022">
        <ele>77.04</ele>
        <time>2019-05-29T09:07:23Z</time>
      </trkpt>
      <trkpt lat="41.26856" lon="-8.66049">
        <ele>75.12</ele>
        <time>2019-05-29T09:07:42Z</time>
      </trkpt>
      <trkpt lat="41.26856" lon="-8.66054">
        <ele>74.64</ele>
        <time>2019-05-29T09:07:46Z</time>
      </trkpt>
      <trkpt lat="41.26856" lon="-8.66069">
        <ele>74.64</ele>
        <time>2019-05-29T09:07:55Z</time>
      </trkpt>
      <trkpt lat="41.26855" lon="-8.66076">
        <ele>74.64</ele>
        <time>2019-05-29T09:07:59Z</time>
      </trkpt>
      <trkpt lat="41.26853" lon="-8.66103">
        <ele>73.68</ele>
        <time>2019-05-29T09:08:16Z</time>
      </trkpt>
      <trkpt lat="41.26851" lon="-8.66125">
        <ele>73.68</ele>
        <time>2019-05-29T09:08:30Z</time>
      </trkpt>
      <trkpt lat="41.26851" lon="-8.66135">
        <ele>73.2</ele>
        <time>2019-05-29T09:08:35Z</time>
      </trkpt>
      <trkpt lat="41.26851" lon="-8.66139">
        <ele>73.2</ele>
        <time>2019-05-29T09:08:38Z</time>
      </trkpt>
      <trkpt lat="41.26851" lon="-8.66167">
        <ele>72.24</ele>
        <time>2019-05-29T09:08:53Z</time>
      </trkpt>
      <trkpt lat="41.2685" lon="-8.66192">
        <ele>71.27</ele>
        <time>2019-05-29T09:09:08Z</time>
      </trkpt>
      <trkpt lat="41.2685" lon="-8.66214">
        <ele>70.79</ele>
        <time>2019-05-29T09:09:23Z</time>
      </trkpt>
      <trkpt lat="41.26848" lon="-8.66238">
        <ele>69.35</ele>
        <time>2019-05-29T09:09:38Z</time>
      </trkpt>
      <trkpt lat="41.26842" lon="-8.66252">
        <ele>69.83</ele>
        <time>2019-05-29T09:09:48Z</time>
      </trkpt>
      <trkpt lat="41.26841" lon="-8.66257">
        <ele>69.83</ele>
        <time>2019-05-29T09:09:50Z</time>
      </trkpt>
      <trkpt lat="41.26833" lon="-8.66286">
        <ele>69.35</ele>
        <time>2019-05-29T09:10:06Z</time>
      </trkpt>
      <trkpt lat="41.2683" lon="-8.66309">
        <ele>67.91</ele>
        <time>2019-05-29T09:10:21Z</time>
      </trkpt>
      <trkpt lat="41.2683" lon="-8.66334">
        <ele>67.43</ele>
        <time>2019-05-29T09:10:37Z</time>
      </trkpt>
      <trkpt lat="41.26833" lon="-8.66348">
        <ele>66.95</ele>
        <time>2019-05-29T09:10:50Z</time>
      </trkpt>
      <trkpt lat="41.26845" lon="-8.66363">
        <ele>67.91</ele>
        <time>2019-05-29T09:11:07Z</time>
      </trkpt>
      <trkpt lat="41.26845" lon="-8.66363">
        <ele>68.39</ele>
        <time>2019-05-29T09:11:08Z</time>
      </trkpt>
      <trkpt lat="41.2686" lon="-8.66375">
        <ele>67.91</ele>
        <time>2019-05-29T09:11:23Z</time>
      </trkpt>
      <trkpt lat="41.26874" lon="-8.66385">
        <ele>67.91</ele>
        <time>2019-05-29T09:11:35Z</time>
      </trkpt>
      <trkpt lat="41.26891" lon="-8.66395">
        <ele>68.39</ele>
        <time>2019-05-29T09:11:50Z</time>
      </trkpt>
      <trkpt lat="41.26904" lon="-8.664">
        <ele>68.39</ele>
        <time>2019-05-29T09:12:05Z</time>
      </trkpt>
      <trkpt lat="41.26918" lon="-8.66404">
        <ele>69.35</ele>
        <time>2019-05-29T09:12:19Z</time>
      </trkpt>
      <trkpt lat="41.26932" lon="-8.66412">
        <ele>69.35</ele>
        <time>2019-05-29T09:12:32Z</time>
      </trkpt>
      <trkpt lat="41.26942" lon="-8.66419">
        <ele>70.31</ele>
        <time>2019-05-29T09:12:46Z</time>
      </trkpt>
      <trkpt lat="41.26952" lon="-8.66429">
        <ele>70.79</ele>
        <time>2019-05-29T09:13:01Z</time>
      </trkpt>
      <trkpt lat="41.26963" lon="-8.66434">
        <ele>70.79</ele>
        <time>2019-05-29T09:13:11Z</time>
      </trkpt>
      <trkpt lat="41.26983" lon="-8.66441">
        <ele>71.27</ele>
        <time>2019-05-29T09:13:25Z</time>
      </trkpt>
      <trkpt lat="41.26992" lon="-8.66444">
        <ele>71.76</ele>
        <time>2019-05-29T09:13:36Z</time>
      </trkpt>
      <trkpt lat="41.26991" lon="-8.66445">
        <ele>71.76</ele>
        <time>2019-05-29T09:13:54Z</time>
      </trkpt>
      <trkpt lat="41.27" lon="-8.66447">
        <ele>72.24</ele>
        <time>2019-05-29T09:14:07Z</time>
      </trkpt>
      <trkpt lat="41.27004" lon="-8.66449">
        <ele>71.27</ele>
        <time>2019-05-29T09:14:11Z</time>
      </trkpt>
      <trkpt lat="41.27018" lon="-8.66453">
        <ele>72.24</ele>
        <time>2019-05-29T09:14:24Z</time>
      </trkpt>
      <trkpt lat="41.27035" lon="-8.66458">
        <ele>72.72</ele>
        <time>2019-05-29T09:14:39Z</time>
      </trkpt>
      <trkpt lat="41.27049" lon="-8.6646">
        <ele>72.24</ele>
        <time>2019-05-29T09:14:52Z</time>
      </trkpt>
      <trkpt lat="41.27065" lon="-8.66466">
        <ele>72.72</ele>
        <time>2019-05-29T09:15:06Z</time>
      </trkpt>
      <trkpt lat="41.27079" lon="-8.6647">
        <ele>73.68</ele>
        <time>2019-05-29T09:15:20Z</time>
      </trkpt>
      <trkpt lat="41.27095" lon="-8.66474">
        <ele>73.68</ele>
        <time>2019-05-29T09:15:36Z</time>
      </trkpt>
      <trkpt lat="41.27108" lon="-8.66479">
        <ele>74.16</ele>
        <time>2019-05-29T09:15:48Z</time>
      </trkpt>
      <trkpt lat="41.27123" lon="-8.66482">
        <ele>74.16</ele>
        <time>2019-05-29T09:16:00Z</time>
      </trkpt>
      <trkpt lat="41.27134" lon="-8.66488">
        <ele>74.64</ele>
        <time>2019-05-29T09:16:12Z</time>
      </trkpt>
      <trkpt lat="41.27144" lon="-8.66495">
        <ele>74.64</ele>
        <time>2019-05-29T09:16:24Z</time>
      </trkpt>
      <trkpt lat="41.2715" lon="-8.665">
        <ele>74.64</ele>
        <time>2019-05-29T09:16:40Z</time>
      </trkpt>
      <trkpt lat="41.27158" lon="-8.66511">
        <ele>75.12</ele>
        <time>2019-05-29T09:16:55Z</time>
      </trkpt>
      <trkpt lat="41.27174" lon="-8.66528">
        <ele>75.12</ele>
        <time>2019-05-29T09:17:11Z</time>
      </trkpt>
      <trkpt lat="41.27181" lon="-8.66535">
        <ele>75.12</ele>
        <time>2019-05-29T09:17:24Z</time>
      </trkpt>
      <trkpt lat="41.27188" lon="-8.66544">
        <ele>74.16</ele>
        <time>2019-05-29T09:17:37Z</time>
      </trkpt>
      <trkpt lat="41.27198" lon="-8.66555">
        <ele>72.72</ele>
        <time>2019-05-29T09:17:52Z</time>
      </trkpt>
      <trkpt lat="41.27209" lon="-8.66564">
        <ele>72.72</ele>
        <time>2019-05-29T09:18:06Z</time>
      </trkpt>
      <trkpt lat="41.27216" lon="-8.66573">
        <ele>72.24</ele>
        <time>2019-05-29T09:18:20Z</time>
      </trkpt>
      <trkpt lat="41.27216" lon="-8.6658">
        <ele>70.79</ele>
        <time>2019-05-29T09:18:34Z</time>
      </trkpt>
      <trkpt lat="41.27237" lon="-8.66598">
        <ele>71.27</ele>
        <time>2019-05-29T09:18:46Z</time>
      </trkpt>
      <trkpt lat="41.27249" lon="-8.66609">
        <ele>70.31</ele>
        <time>2019-05-29T09:19:00Z</time>
      </trkpt>
      <trkpt lat="41.27254" lon="-8.66619">
        <ele>70.31</ele>
        <time>2019-05-29T09:19:13Z</time>
      </trkpt>
      <trkpt lat="41.27262" lon="-8.66627">
        <ele>70.31</ele>
        <time>2019-05-29T09:19:23Z</time>
      </trkpt>
      <trkpt lat="41.27288" lon="-8.66642">
        <ele>69.35</ele>
        <time>2019-05-29T09:19:35Z</time>
      </trkpt>
      <trkpt lat="41.27297" lon="-8.66651">
        <ele>68.87</ele>
        <time>2019-05-29T09:19:46Z</time>
      </trkpt>
      <trkpt lat="41.27306" lon="-8.6666">
        <ele>68.87</ele>
        <time>2019-05-29T09:19:58Z</time>
      </trkpt>
      <trkpt lat="41.27316" lon="-8.6667">
        <ele>68.39</ele>
        <time>2019-05-29T09:20:12Z</time>
      </trkpt>
      <trkpt lat="41.27324" lon="-8.66679">
        <ele>68.87</ele>
        <time>2019-05-29T09:20:24Z</time>
      </trkpt>
      <trkpt lat="41.27333" lon="-8.66691">
        <ele>68.39</ele>
        <time>2019-05-29T09:20:36Z</time>
      </trkpt>
      <trkpt lat="41.2734" lon="-8.66699">
        <ele>67.91</ele>
        <time>2019-05-29T09:20:44Z</time>
      </trkpt>
      <trkpt lat="41.27346" lon="-8.66703">
        <ele>67.91</ele>
        <time>2019-05-29T09:20:48Z</time>
      </trkpt>
      <trkpt lat="41.27355" lon="-8.66717">
        <ele>66.95</ele>
        <time>2019-05-29T09:20:59Z</time>
      </trkpt>
      <trkpt lat="41.27362" lon="-8.66732">
        <ele>66.95</ele>
        <time>2019-05-29T09:21:13Z</time>
      </trkpt>
      <trkpt lat="41.27363" lon="-8.66734">
        <ele>66.95</ele>
        <time>2019-05-29T09:21:15Z</time>
      </trkpt>
      <trkpt lat="41.27382" lon="-8.66751">
        <ele>66.47</ele>
        <time>2019-05-29T09:21:30Z</time>
      </trkpt>
      <trkpt lat="41.2739" lon="-8.6676">
        <ele>66.47</ele>
        <time>2019-05-29T09:21:39Z</time>
      </trkpt>
      <trkpt lat="41.27402" lon="-8.66776">
        <ele>65.51</ele>
        <time>2019-05-29T09:21:51Z</time>
      </trkpt>
      <trkpt lat="41.27406" lon="-8.66782">
        <ele>65.51</ele>
        <time>2019-05-29T09:21:55Z</time>
      </trkpt>
      <trkpt lat="41.27407" lon="-8.66785">
        <ele>65.03</ele>
        <time>2019-05-29T09:21:57Z</time>
      </trkpt>
      <trkpt lat="41.27415" lon="-8.66803">
        <ele>64.07</ele>
        <time>2019-05-29T09:22:10Z</time>
      </trkpt>
      <trkpt lat="41.27421" lon="-8.66814">
        <ele>64.07</ele>
        <time>2019-05-29T09:22:22Z</time>
      </trkpt>
      <trkpt lat="41.27427" lon="-8.66832">
        <ele>63.58</ele>
        <time>2019-05-29T09:22:35Z</time>
      </trkpt>
      <trkpt lat="41.27429" lon="-8.66836">
        <ele>62.62</ele>
        <time>2019-05-29T09:22:38Z</time>
      </trkpt>
      <trkpt lat="41.27435" lon="-8.66849">
        <ele>62.62</ele>
        <time>2019-05-29T09:22:48Z</time>
      </trkpt>
      <trkpt lat="41.27438" lon="-8.66854">
        <ele>62.14</ele>
        <time>2019-05-29T09:22:52Z</time>
      </trkpt>
      <trkpt lat="41.27448" lon="-8.66867">
        <ele>61.18</ele>
        <time>2019-05-29T09:23:03Z</time>
      </trkpt>
      <trkpt lat="41.27458" lon="-8.66876">
        <ele>61.18</ele>
        <time>2019-05-29T09:23:14Z</time>
      </trkpt>
      <trkpt lat="41.27471" lon="-8.66885">
        <ele>60.22</ele>
        <time>2019-05-29T09:23:27Z</time>
      </trkpt>
      <trkpt lat="41.27476" lon="-8.66889">
        <ele>60.22</ele>
        <time>2019-05-29T09:23:32Z</time>
      </trkpt>
      <trkpt lat="41.2748" lon="-8.66893">
        <ele>60.22</ele>
        <time>2019-05-29T09:23:36Z</time>
      </trkpt>
      <trkpt lat="41.27495" lon="-8.66905">
        <ele>59.74</ele>
        <time>2019-05-29T09:23:50Z</time>
      </trkpt>
      <trkpt lat="41.27507" lon="-8.66913">
        <ele>58.78</ele>
        <time>2019-05-29T09:24:02Z</time>
      </trkpt>
      <trkpt lat="41.27509" lon="-8.66914">
        <ele>59.26</ele>
        <time>2019-05-29T09:24:04Z</time>
      </trkpt>
      <trkpt lat="41.27516" lon="-8.66921">
        <ele>58.78</ele>
        <time>2019-05-29T09:24:11Z</time>
      </trkpt>
      <trkpt lat="41.27518" lon="-8.66923">
        <ele>58.3</ele>
        <time>2019-05-29T09:24:13Z</time>
      </trkpt>
      <trkpt lat="41.27533" lon="-8.66934">
        <ele>57.82</ele>
        <time>2019-05-29T09:24:26Z</time>
      </trkpt>
      <trkpt lat="41.27538" lon="-8.66939">
        <ele>57.82</ele>
        <time>2019-05-29T09:24:31Z</time>
      </trkpt>
      <trkpt lat="41.27553" lon="-8.66946">
        <ele>56.86</ele>
        <time>2019-05-29T09:24:45Z</time>
      </trkpt>
      <trkpt lat="41.27565" lon="-8.66955">
        <ele>55.89</ele>
        <time>2019-05-29T09:24:55Z</time>
      </trkpt>
      <trkpt lat="41.27566" lon="-8.66955">
        <ele>56.37</ele>
        <time>2019-05-29T09:24:56Z</time>
      </trkpt>
      <trkpt lat="41.27582" lon="-8.66963">
        <ele>55.41</ele>
        <time>2019-05-29T09:25:10Z</time>
      </trkpt>
      <trkpt lat="41.27586" lon="-8.66966">
        <ele>55.41</ele>
        <time>2019-05-29T09:25:13Z</time>
      </trkpt>
      <trkpt lat="41.27591" lon="-8.66968">
        <ele>54.93</ele>
        <time>2019-05-29T09:25:17Z</time>
      </trkpt>
      <trkpt lat="41.27602" lon="-8.6698">
        <ele>54.45</ele>
        <time>2019-05-29T09:25:29Z</time>
      </trkpt>
      <trkpt lat="41.27603" lon="-8.66981">
        <ele>54.45</ele>
        <time>2019-05-29T09:25:30Z</time>
      </trkpt>
      <trkpt lat="41.27619" lon="-8.66993">
        <ele>54.45</ele>
        <time>2019-05-29T09:25:45Z</time>
      </trkpt>
      <trkpt lat="41.27622" lon="-8.66997">
        <ele>53.97</ele>
        <time>2019-05-29T09:25:49Z</time>
      </trkpt>
      <trkpt lat="41.27624" lon="-8.66999">
        <ele>53.49</ele>
        <time>2019-05-29T09:25:51Z</time>
      </trkpt>
      <trkpt lat="41.27626" lon="-8.67003">
        <ele>53.01</ele>
        <time>2019-05-29T09:25:54Z</time>
      </trkpt>
      <trkpt lat="41.27633" lon="-8.67016">
        <ele>52.53</ele>
        <time>2019-05-29T09:26:05Z</time>
      </trkpt>
      <trkpt lat="41.27638" lon="-8.67029">
        <ele>51.57</ele>
        <time>2019-05-29T09:26:16Z</time>
      </trkpt>
      <trkpt lat="41.27641" lon="-8.67034">
        <ele>50.13</ele>
        <time>2019-05-29T09:26:23Z</time>
      </trkpt>
      <trkpt lat="41.27644" lon="-8.67038">
        <ele>51.09</ele>
        <time>2019-05-29T09:26:26Z</time>
      </trkpt>
      <trkpt lat="41.2766" lon="-8.67049">
        <ele>47.24</ele>
        <time>2019-05-29T09:26:40Z</time>
      </trkpt>
      <trkpt lat="41.27677" lon="-8.67061">
        <ele>45.32</ele>
        <time>2019-05-29T09:26:55Z</time>
      </trkpt>
      <trkpt lat="41.27678" lon="-8.67063">
        <ele>44.36</ele>
        <time>2019-05-29T09:26:57Z</time>
      </trkpt>
      <trkpt lat="41.27696" lon="-8.67071">
        <ele>42.44</ele>
        <time>2019-05-29T09:27:13Z</time>
      </trkpt>
      <trkpt lat="41.27704" lon="-8.67073">
        <ele>40.99</ele>
        <time>2019-05-29T09:27:24Z</time>
      </trkpt>
      <trkpt lat="41.27713" lon="-8.67077">
        <ele>40.51</ele>
        <time>2019-05-29T09:27:31Z</time>
      </trkpt>
      <trkpt lat="41.27716" lon="-8.67079">
        <ele>39.55</ele>
        <time>2019-05-29T09:27:34Z</time>
      </trkpt>
      <trkpt lat="41.27718" lon="-8.6708">
        <ele>40.03</ele>
        <time>2019-05-29T09:27:36Z</time>
      </trkpt>
      <trkpt lat="41.27729" lon="-8.67087">
        <ele>39.07</ele>
        <time>2019-05-29T09:27:45Z</time>
      </trkpt>
      <trkpt lat="41.27742" lon="-8.67096">
        <ele>38.59</ele>
        <time>2019-05-29T09:27:57Z</time>
      </trkpt>
      <trkpt lat="41.27748" lon="-8.67098">
        <ele>37.63</ele>
        <time>2019-05-29T09:28:02Z</time>
      </trkpt>
      <trkpt lat="41.2775" lon="-8.67099">
        <ele>37.15</ele>
        <time>2019-05-29T09:28:04Z</time>
      </trkpt>
      <trkpt lat="41.27754" lon="-8.671">
        <ele>37.15</ele>
        <time>2019-05-29T09:28:08Z</time>
      </trkpt>
      <trkpt lat="41.27762" lon="-8.67103">
        <ele>36.19</ele>
        <time>2019-05-29T09:28:16Z</time>
      </trkpt>
      <trkpt lat="41.27778" lon="-8.67105">
        <ele>34.74</ele>
        <time>2019-05-29T09:28:30Z</time>
      </trkpt>
      <trkpt lat="41.2778" lon="-8.67106">
        <ele>34.74</ele>
        <time>2019-05-29T09:28:31Z</time>
      </trkpt>
      <trkpt lat="41.27781" lon="-8.67107">
        <ele>34.74</ele>
        <time>2019-05-29T09:28:33Z</time>
      </trkpt>
      <trkpt lat="41.27797" lon="-8.67119">
        <ele>33.3</ele>
        <time>2019-05-29T09:28:46Z</time>
      </trkpt>
      <trkpt lat="41.27811" lon="-8.67125">
        <ele>31.86</ele>
        <time>2019-05-29T09:28:58Z</time>
      </trkpt>
      <trkpt lat="41.27819" lon="-8.67131">
        <ele>31.38</ele>
        <time>2019-05-29T09:29:07Z</time>
      </trkpt>
      <trkpt lat="41.2783" lon="-8.67135">
        <ele>31.86</ele>
        <time>2019-05-29T09:29:19Z</time>
      </trkpt>
      <trkpt lat="41.27838" lon="-8.67139">
        <ele>31.38</ele>
        <time>2019-05-29T09:29:35Z</time>
      </trkpt>
      <trkpt lat="41.27837" lon="-8.6714">
        <ele>31.38</ele>
        <time>2019-05-29T09:29:52Z</time>
      </trkpt>
      <trkpt lat="41.27841" lon="-8.6714">
        <ele>30.42</ele>
        <time>2019-05-29T09:30:02Z</time>
      </trkpt>
      <trkpt lat="41.27848" lon="-8.67141">
        <ele>30.42</ele>
        <time>2019-05-29T09:30:11Z</time>
      </trkpt>
      <trkpt lat="41.2786" lon="-8.67145">
        <ele>30.42</ele>
        <time>2019-05-29T09:30:25Z</time>
      </trkpt>
      <trkpt lat="41.27874" lon="-8.6715">
        <ele>29.94</ele>
        <time>2019-05-29T09:30:38Z</time>
      </trkpt>
      <trkpt lat="41.27881" lon="-8.67155">
        <ele>29.94</ele>
        <time>2019-05-29T09:30:50Z</time>
      </trkpt>
      <trkpt lat="41.27889" lon="-8.67161">
        <ele>29.46</ele>
        <time>2019-05-29T09:31:06Z</time>
      </trkpt>
      <trkpt lat="41.27889" lon="-8.67168">
        <ele>29.94</ele>
        <time>2019-05-29T09:31:17Z</time>
      </trkpt>
      <trkpt lat="41.27887" lon="-8.67181">
        <ele>29.46</ele>
        <time>2019-05-29T09:31:31Z</time>
      </trkpt>
      <trkpt lat="41.2788" lon="-8.67182">
        <ele>29.46</ele>
        <time>2019-05-29T09:31:45Z</time>
      </trkpt>
      <trkpt lat="41.27879" lon="-8.6718">
        <ele>29.46</ele>
        <time>2019-05-29T09:31:59Z</time>
      </trkpt>
      <trkpt lat="41.27877" lon="-8.67178">
        <ele>29.46</ele>
        <time>2019-05-29T09:32:15Z</time>
      </trkpt>
      <trkpt lat="41.27879" lon="-8.67177">
        <ele>29.46</ele>
        <time>2019-05-29T09:32:30Z</time>
      </trkpt>
      <trkpt lat="41.27878" lon="-8.67177">
        <ele>29.94</ele>
        <time>2019-05-29T09:32:47Z</time>
      </trkpt>
      <trkpt lat="41.27877" lon="-8.67176">
        <ele>29.94</ele>
        <time>2019-05-29T09:33:03Z</time>
      </trkpt>
      <trkpt lat="41.27876" lon="-8.67176">
        <ele>29.46</ele>
        <time>2019-05-29T09:33:19Z</time>
      </trkpt>
      <trkpt lat="41.27873" lon="-8.6718">
        <ele>30.42</ele>
        <time>2019-05-29T09:33:37Z</time>
      </trkpt>
      <trkpt lat="41.27868" lon="-8.67183">
        <ele>30.42</ele>
        <time>2019-05-29T09:33:53Z</time>
      </trkpt>
      <trkpt lat="41.27866" lon="-8.67182">
        <ele>29.46</ele>
        <time>2019-05-29T09:34:09Z</time>
      </trkpt>
      <trkpt lat="41.27865" lon="-8.67185">
        <ele>29.46</ele>
        <time>2019-05-29T09:34:25Z</time>
      </trkpt>
      <trkpt lat="41.27865" lon="-8.67185">
        <ele>28.98</ele>
        <time>2019-05-29T09:34:57Z</time>
      </trkpt>
      <trkpt lat="41.27866" lon="-8.67183">
        <ele>29.46</ele>
        <time>2019-05-29T09:35:33Z</time>
      </trkpt>
      <trkpt lat="41.27867" lon="-8.67184">
        <ele>29.46</ele>
        <time>2019-05-29T09:36:12Z</time>
      </trkpt>
      <trkpt lat="41.27866" lon="-8.67186">
        <ele>28.98</ele>
        <time>2019-05-29T09:36:50Z</time>
      </trkpt>
      <trkpt lat="41.27868" lon="-8.67188">
        <ele>29.94</ele>
        <time>2019-05-29T09:37:34Z</time>
      </trkpt>
      <trkpt lat="41.27867" lon="-8.67187">
        <ele>29.94</ele>
        <time>2019-05-29T09:38:05Z</time>
      </trkpt>
      <trkpt lat="41.27874" lon="-8.67187">
        <ele>30.42</ele>
        <time>2019-05-29T09:38:41Z</time>
      </trkpt>
      <trkpt lat="41.2787" lon="-8.67187">
        <ele>29.46</ele>
        <time>2019-05-29T09:39:18Z</time>
      </trkpt>
      <trkpt lat="41.27861" lon="-8.67193">
        <ele>30.9</ele>
        <time>2019-05-29T09:40:03Z</time>
      </trkpt>
      <trkpt lat="41.2786" lon="-8.67194">
        <ele>30.42</ele>
        <time>2019-05-29T09:40:25Z</time>
      </trkpt>
      <trkpt lat="41.27862" lon="-8.67201">
        <ele>31.38</ele>
        <time>2019-05-29T09:41:11Z</time>
      </trkpt>
      <trkpt lat="41.27865" lon="-8.67191">
        <ele>31.86</ele>
        <time>2019-05-29T09:41:58Z</time>
      </trkpt>
      <trkpt lat="41.27864" lon="-8.6719">
        <ele>32.34</ele>
        <time>2019-05-29T09:42:40Z</time>
      </trkpt>
      <trkpt lat="41.27864" lon="-8.67186">
        <ele>32.34</ele>
        <time>2019-05-29T09:43:26Z</time>
      </trkpt>
      <trkpt lat="41.27864" lon="-8.6719">
        <ele>32.82</ele>
        <time>2019-05-29T09:44:08Z</time>
      </trkpt>
      <trkpt lat="41.27865" lon="-8.67192">
        <ele>32.82</ele>
        <time>2019-05-29T09:44:45Z</time>
      </trkpt>
      <trkpt lat="41.27863" lon="-8.67198">
        <ele>33.3</ele>
        <time>2019-05-29T09:45:22Z</time>
      </trkpt>
      <trkpt lat="41.27864" lon="-8.67195">
        <ele>32.82</ele>
        <time>2019-05-29T09:45:58Z</time>
      </trkpt>
      <trkpt lat="41.27865" lon="-8.67193">
        <ele>33.78</ele>
        <time>2019-05-29T09:46:38Z</time>
      </trkpt>
      <trkpt lat="41.27867" lon="-8.67188">
        <ele>35.23</ele>
        <time>2019-05-29T09:47:12Z</time>
      </trkpt>
      <trkpt lat="41.27866" lon="-8.67188">
        <ele>34.26</ele>
        <time>2019-05-29T09:47:37Z</time>
      </trkpt>
      <trkpt lat="41.27866" lon="-8.67187">
        <ele>33.3</ele>
        <time>2019-05-29T09:48:11Z</time>
      </trkpt>
      <trkpt lat="41.27864" lon="-8.67188">
        <ele>33.78</ele>
        <time>2019-05-29T09:48:47Z</time>
      </trkpt>
      <trkpt lat="41.27865" lon="-8.67186">
        <ele>33.78</ele>
        <time>2019-05-29T09:49:24Z</time>
      </trkpt>
      <trkpt lat="41.27864" lon="-8.67187">
        <ele>33.78</ele>
        <time>2019-05-29T09:49:59Z</time>
      </trkpt>
      <trkpt lat="41.27867" lon="-8.6719">
        <ele>34.26</ele>
        <time>2019-05-29T09:50:40Z</time>
      </trkpt>
      <trkpt lat="41.2787" lon="-8.67187">
        <ele>34.74</ele>
        <time>2019-05-29T09:51:09Z</time>
      </trkpt>
      <trkpt lat="41.27867" lon="-8.67188">
        <ele>34.74</ele>
        <time>2019-05-29T09:51:20Z</time>
      </trkpt>
      <trkpt lat="41.27871" lon="-8.67184">
        <ele>35.23</ele>
        <time>2019-05-29T09:51:37Z</time>
      </trkpt>
      <trkpt lat="41.27875" lon="-8.67183">
        <ele>35.71</ele>
        <time>2019-05-29T09:51:51Z</time>
      </trkpt>
      <trkpt lat="41.27877" lon="-8.67189">
        <ele>35.23</ele>
        <time>2019-05-29T09:51:56Z</time>
      </trkpt>
      <trkpt lat="41.27883" lon="-8.67206">
        <ele>34.74</ele>
        <time>2019-05-29T09:52:11Z</time>
      </trkpt>
      <trkpt lat="41.27889" lon="-8.67221">
        <ele>34.74</ele>
        <time>2019-05-29T09:52:24Z</time>
      </trkpt>
      <trkpt lat="41.2789" lon="-8.67223">
        <ele>34.74</ele>
        <time>2019-05-29T09:52:26Z</time>
      </trkpt>
      <trkpt lat="41.279" lon="-8.6723">
        <ele>34.74</ele>
        <time>2019-05-29T09:52:38Z</time>
      </trkpt>
      <trkpt lat="41.27908" lon="-8.67236">
        <ele>34.26</ele>
        <time>2019-05-29T09:52:49Z</time>
      </trkpt>
      <trkpt lat="41.27922" lon="-8.67242">
        <ele>33.78</ele>
        <time>2019-05-29T09:53:01Z</time>
      </trkpt>
      <trkpt lat="41.27937" lon="-8.67249">
        <ele>34.26</ele>
        <time>2019-05-29T09:53:14Z</time>
      </trkpt>
      <trkpt lat="41.27948" lon="-8.67253">
        <ele>34.26</ele>
        <time>2019-05-29T09:53:22Z</time>
      </trkpt>
      <trkpt lat="41.27958" lon="-8.67261">
        <ele>33.78</ele>
        <time>2019-05-29T09:53:35Z</time>
      </trkpt>
      <trkpt lat="41.27965" lon="-8.67268">
        <ele>34.26</ele>
        <time>2019-05-29T09:53:46Z</time>
      </trkpt>
      <trkpt lat="41.27981" lon="-8.67275">
        <ele>33.78</ele>
        <time>2019-05-29T09:54:01Z</time>
      </trkpt>
      <trkpt lat="41.27995" lon="-8.67275">
        <ele>33.78</ele>
        <time>2019-05-29T09:54:14Z</time>
      </trkpt>
      <trkpt lat="41.28013" lon="-8.67276">
        <ele>33.78</ele>
        <time>2019-05-29T09:54:30Z</time>
      </trkpt>
      <trkpt lat="41.28025" lon="-8.67276">
        <ele>33.78</ele>
        <time>2019-05-29T09:54:42Z</time>
      </trkpt>
      <trkpt lat="41.28042" lon="-8.67276">
        <ele>34.26</ele>
        <time>2019-05-29T09:54:57Z</time>
      </trkpt>
      <trkpt lat="41.28056" lon="-8.67275">
        <ele>33.78</ele>
        <time>2019-05-29T09:55:10Z</time>
      </trkpt>
      <trkpt lat="41.28071" lon="-8.67276">
        <ele>34.26</ele>
        <time>2019-05-29T09:55:22Z</time>
      </trkpt>
      <trkpt lat="41.28088" lon="-8.67276">
        <ele>35.71</ele>
        <time>2019-05-29T09:55:36Z</time>
      </trkpt>
      <trkpt lat="41.28099" lon="-8.67272">
        <ele>35.71</ele>
        <time>2019-05-29T09:55:46Z</time>
      </trkpt>
      <trkpt lat="41.2811" lon="-8.67267">
        <ele>36.19</ele>
        <time>2019-05-29T09:55:55Z</time>
      </trkpt>
      <trkpt lat="41.28122" lon="-8.67263">
        <ele>35.71</ele>
        <time>2019-05-29T09:56:06Z</time>
      </trkpt>
      <trkpt lat="41.28134" lon="-8.67259">
        <ele>35.23</ele>
        <time>2019-05-29T09:56:18Z</time>
      </trkpt>
      <trkpt lat="41.28141" lon="-8.67257">
        <ele>36.67</ele>
        <time>2019-05-29T09:56:24Z</time>
      </trkpt>
      <trkpt lat="41.28148" lon="-8.67253">
        <ele>36.19</ele>
        <time>2019-05-29T09:56:34Z</time>
      </trkpt>
      <trkpt lat="41.28161" lon="-8.67251">
        <ele>36.19</ele>
        <time>2019-05-29T09:56:45Z</time>
      </trkpt>
      <trkpt lat="41.28175" lon="-8.67246">
        <ele>36.19</ele>
        <time>2019-05-29T09:56:58Z</time>
      </trkpt>
      <trkpt lat="41.28186" lon="-8.67244">
        <ele>36.67</ele>
        <time>2019-05-29T09:57:09Z</time>
      </trkpt>
      <trkpt lat="41.28188" lon="-8.67243">
        <ele>37.15</ele>
        <time>2019-05-29T09:57:11Z</time>
      </trkpt>
      <trkpt lat="41.28207" lon="-8.67236">
        <ele>37.15</ele>
        <time>2019-05-29T09:57:26Z</time>
      </trkpt>
      <trkpt lat="41.28222" lon="-8.67232">
        <ele>37.63</ele>
        <time>2019-05-29T09:57:40Z</time>
      </trkpt>
      <trkpt lat="41.28231" lon="-8.67233">
        <ele>38.11</ele>
        <time>2019-05-29T09:57:48Z</time>
      </trkpt>
      <trkpt lat="41.28243" lon="-8.6723">
        <ele>38.59</ele>
        <time>2019-05-29T09:58:01Z</time>
      </trkpt>
      <trkpt lat="41.28258" lon="-8.67229">
        <ele>38.59</ele>
        <time>2019-05-29T09:58:14Z</time>
      </trkpt>
      <trkpt lat="41.28275" lon="-8.67228">
        <ele>39.55</ele>
        <time>2019-05-29T09:58:28Z</time>
      </trkpt>
      <trkpt lat="41.28292" lon="-8.67226">
        <ele>39.55</ele>
        <time>2019-05-29T09:58:43Z</time>
      </trkpt>
      <trkpt lat="41.28314" lon="-8.67229">
        <ele>40.03</ele>
        <time>2019-05-29T09:59:01Z</time>
      </trkpt>
      <trkpt lat="41.28332" lon="-8.67236">
        <ele>40.99</ele>
        <time>2019-05-29T09:59:16Z</time>
      </trkpt>
      <trkpt lat="41.28347" lon="-8.67244">
        <ele>41.47</ele>
        <time>2019-05-29T09:59:31Z</time>
      </trkpt>
      <trkpt lat="41.28359" lon="-8.67252">
        <ele>41.95</ele>
        <time>2019-05-29T09:59:46Z</time>
      </trkpt>
      <trkpt lat="41.28374" lon="-8.6726">
        <ele>43.4</ele>
        <time>2019-05-29T10:00:00Z</time>
      </trkpt>
      <trkpt lat="41.28384" lon="-8.67266">
        <ele>43.88</ele>
        <time>2019-05-29T10:00:10Z</time>
      </trkpt>
      <trkpt lat="41.28386" lon="-8.67267">
        <ele>43.4</ele>
        <time>2019-05-29T10:00:12Z</time>
      </trkpt>
      <trkpt lat="41.284" lon="-8.67266">
        <ele>44.36</ele>
        <time>2019-05-29T10:00:27Z</time>
      </trkpt>
      <trkpt lat="41.284" lon="-8.67267">
        <ele>44.36</ele>
        <time>2019-05-29T10:00:42Z</time>
      </trkpt>
      <trkpt lat="41.28405" lon="-8.6727">
        <ele>43.88</ele>
        <time>2019-05-29T10:01:16Z</time>
      </trkpt>
      <trkpt lat="41.28405" lon="-8.67271">
        <ele>43.88</ele>
        <time>2019-05-29T10:01:26Z</time>
      </trkpt>
      <trkpt lat="41.28407" lon="-8.67272">
        <ele>44.36</ele>
        <time>2019-05-29T10:01:28Z</time>
      </trkpt>
      <trkpt lat="41.2842" lon="-8.67277">
        <ele>44.84</ele>
        <time>2019-05-29T10:01:39Z</time>
      </trkpt>
      <trkpt lat="41.28428" lon="-8.6728">
        <ele>44.84</ele>
        <time>2019-05-29T10:01:47Z</time>
      </trkpt>
      <trkpt lat="41.28442" lon="-8.6729">
        <ele>45.32</ele>
        <time>2019-05-29T10:02:03Z</time>
      </trkpt>
      <trkpt lat="41.28463" lon="-8.673">
        <ele>45.32</ele>
        <time>2019-05-29T10:02:21Z</time>
      </trkpt>
      <trkpt lat="41.28484" lon="-8.67309">
        <ele>46.28</ele>
        <time>2019-05-29T10:02:39Z</time>
      </trkpt>
      <trkpt lat="41.28502" lon="-8.67319">
        <ele>46.28</ele>
        <time>2019-05-29T10:02:55Z</time>
      </trkpt>
      <trkpt lat="41.28525" lon="-8.6733">
        <ele>46.76</ele>
        <time>2019-05-29T10:03:14Z</time>
      </trkpt>
      <trkpt lat="41.2854" lon="-8.6734">
        <ele>46.76</ele>
        <time>2019-05-29T10:03:29Z</time>
      </trkpt>
      <trkpt lat="41.28547" lon="-8.67343">
        <ele>46.76</ele>
        <time>2019-05-29T10:03:46Z</time>
      </trkpt>
      <trkpt lat="41.2855" lon="-8.67337">
        <ele>45.8</ele>
        <time>2019-05-29T10:04:02Z</time>
      </trkpt>
      <trkpt lat="41.2855" lon="-8.67335">
        <ele>46.76</ele>
        <time>2019-05-29T10:04:22Z</time>
      </trkpt>
      <trkpt lat="41.28549" lon="-8.67337">
        <ele>47.24</ele>
        <time>2019-05-29T10:04:41Z</time>
      </trkpt>
      <trkpt lat="41.28549" lon="-8.67336">
        <ele>47.72</ele>
        <time>2019-05-29T10:05:03Z</time>
      </trkpt>
      <trkpt lat="41.2855" lon="-8.67338">
        <ele>47.72</ele>
        <time>2019-05-29T10:05:26Z</time>
      </trkpt>
      <trkpt lat="41.28548" lon="-8.67338">
        <ele>47.24</ele>
        <time>2019-05-29T10:05:44Z</time>
      </trkpt>
      <trkpt lat="41.28552" lon="-8.67342">
        <ele>47.24</ele>
        <time>2019-05-29T10:05:57Z</time>
      </trkpt>
      <trkpt lat="41.28553" lon="-8.67343">
        <ele>47.24</ele>
        <time>2019-05-29T10:05:58Z</time>
      </trkpt>
      <trkpt lat="41.28568" lon="-8.67357">
        <ele>46.76</ele>
        <time>2019-05-29T10:06:15Z</time>
      </trkpt>
      <trkpt lat="41.28586" lon="-8.67365">
        <ele>46.76</ele>
        <time>2019-05-29T10:06:31Z</time>
      </trkpt>
      <trkpt lat="41.286" lon="-8.67372">
        <ele>46.76</ele>
        <time>2019-05-29T10:06:44Z</time>
      </trkpt>
      <trkpt lat="41.28614" lon="-8.67376">
        <ele>46.28</ele>
        <time>2019-05-29T10:06:56Z</time>
      </trkpt>
      <trkpt lat="41.28625" lon="-8.67381">
        <ele>45.8</ele>
        <time>2019-05-29T10:07:08Z</time>
      </trkpt>
      <trkpt lat="41.28644" lon="-8.67389">
        <ele>46.28</ele>
        <time>2019-05-29T10:07:21Z</time>
      </trkpt>
      <trkpt lat="41.28661" lon="-8.67395">
        <ele>46.28</ele>
        <time>2019-05-29T10:07:36Z</time>
      </trkpt>
      <trkpt lat="41.28672" lon="-8.67398">
        <ele>46.76</ele>
        <time>2019-05-29T10:07:49Z</time>
      </trkpt>
      <trkpt lat="41.28694" lon="-8.67403">
        <ele>47.24</ele>
        <time>2019-05-29T10:08:05Z</time>
      </trkpt>
      <trkpt lat="41.2871" lon="-8.67405">
        <ele>47.72</ele>
        <time>2019-05-29T10:08:20Z</time>
      </trkpt>
      <trkpt lat="41.28724" lon="-8.67406">
        <ele>47.72</ele>
        <time>2019-05-29T10:08:33Z</time>
      </trkpt>
      <trkpt lat="41.28738" lon="-8.67409">
        <ele>48.68</ele>
        <time>2019-05-29T10:08:44Z</time>
      </trkpt>
      <trkpt lat="41.28753" lon="-8.6741">
        <ele>48.2</ele>
        <time>2019-05-29T10:08:58Z</time>
      </trkpt>
      <trkpt lat="41.28773" lon="-8.67416">
        <ele>49.16</ele>
        <time>2019-05-29T10:09:14Z</time>
      </trkpt>
      <trkpt lat="41.2879" lon="-8.67421">
        <ele>48.68</ele>
        <time>2019-05-29T10:09:26Z</time>
      </trkpt>
      <trkpt lat="41.28802" lon="-8.67423">
        <ele>48.68</ele>
        <time>2019-05-29T10:09:39Z</time>
      </trkpt>
      <trkpt lat="41.28803" lon="-8.6742">
        <ele>48.68</ele>
        <time>2019-05-29T10:09:41Z</time>
      </trkpt>
      <trkpt lat="41.28806" lon="-8.67416">
        <ele>48.68</ele>
        <time>2019-05-29T10:09:48Z</time>
      </trkpt>
      <trkpt lat="41.28814" lon="-8.67428">
        <ele>50.13</ele>
        <time>2019-05-29T10:09:58Z</time>
      </trkpt>
      <trkpt lat="41.28816" lon="-8.67428">
        <ele>49.16</ele>
        <time>2019-05-29T10:10:00Z</time>
      </trkpt>
      <trkpt lat="41.28824" lon="-8.67428">
        <ele>50.13</ele>
        <time>2019-05-29T10:10:07Z</time>
      </trkpt>
      <trkpt lat="41.28827" lon="-8.67433">
        <ele>49.65</ele>
        <time>2019-05-29T10:10:10Z</time>
      </trkpt>
      <trkpt lat="41.28834" lon="-8.6744">
        <ele>49.65</ele>
        <time>2019-05-29T10:10:25Z</time>
      </trkpt>
      <trkpt lat="41.28849" lon="-8.67448">
        <ele>49.65</ele>
        <time>2019-05-29T10:10:39Z</time>
      </trkpt>
      <trkpt lat="41.28861" lon="-8.67454">
        <ele>49.65</ele>
        <time>2019-05-29T10:10:51Z</time>
      </trkpt>
      <trkpt lat="41.28872" lon="-8.6746">
        <ele>49.65</ele>
        <time>2019-05-29T10:11:04Z</time>
      </trkpt>
      <trkpt lat="41.28887" lon="-8.67462">
        <ele>49.65</ele>
        <time>2019-05-29T10:11:17Z</time>
      </trkpt>
      <trkpt lat="41.28891" lon="-8.67464">
        <ele>49.16</ele>
        <time>2019-05-29T10:11:21Z</time>
      </trkpt>
      <trkpt lat="41.28906" lon="-8.67473">
        <ele>49.16</ele>
        <time>2019-05-29T10:11:35Z</time>
      </trkpt>
      <trkpt lat="41.28922" lon="-8.67481">
        <ele>48.68</ele>
        <time>2019-05-29T10:11:45Z</time>
      </trkpt>
      <trkpt lat="41.2893" lon="-8.67486">
        <ele>49.16</ele>
        <time>2019-05-29T10:11:52Z</time>
      </trkpt>
      <trkpt lat="41.28946" lon="-8.67493">
        <ele>49.16</ele>
        <time>2019-05-29T10:12:06Z</time>
      </trkpt>
      <trkpt lat="41.28955" lon="-8.67498">
        <ele>49.16</ele>
        <time>2019-05-29T10:12:14Z</time>
      </trkpt>
      <trkpt lat="41.28969" lon="-8.67504">
        <ele>49.16</ele>
        <time>2019-05-29T10:12:26Z</time>
      </trkpt>
      <trkpt lat="41.28985" lon="-8.67514">
        <ele>48.68</ele>
        <time>2019-05-29T10:12:41Z</time>
      </trkpt>
      <trkpt lat="41.28994" lon="-8.67518">
        <ele>49.16</ele>
        <time>2019-05-29T10:12:53Z</time>
      </trkpt>
      <trkpt lat="41.28995" lon="-8.67519">
        <ele>49.16</ele>
        <time>2019-05-29T10:12:54Z</time>
      </trkpt>
      <trkpt lat="41.29011" lon="-8.67533">
        <ele>49.16</ele>
        <time>2019-05-29T10:13:10Z</time>
      </trkpt>
      <trkpt lat="41.29025" lon="-8.67544">
        <ele>49.16</ele>
        <time>2019-05-29T10:13:24Z</time>
      </trkpt>
      <trkpt lat="41.29031" lon="-8.67553">
        <ele>49.65</ele>
        <time>2019-05-29T10:13:35Z</time>
      </trkpt>
      <trkpt lat="41.29033" lon="-8.67556">
        <ele>49.65</ele>
        <time>2019-05-29T10:13:38Z</time>
      </trkpt>
      <trkpt lat="41.29049" lon="-8.67571">
        <ele>49.65</ele>
        <time>2019-05-29T10:13:54Z</time>
      </trkpt>
      <trkpt lat="41.29064" lon="-8.67583">
        <ele>49.65</ele>
        <time>2019-05-29T10:14:09Z</time>
      </trkpt>
      <trkpt lat="41.29073" lon="-8.67594">
        <ele>49.65</ele>
        <time>2019-05-29T10:14:21Z</time>
      </trkpt>
      <trkpt lat="41.29083" lon="-8.67601">
        <ele>50.13</ele>
        <time>2019-05-29T10:14:33Z</time>
      </trkpt>
      <trkpt lat="41.29087" lon="-8.67602">
        <ele>49.65</ele>
        <time>2019-05-29T10:14:35Z</time>
      </trkpt>
      <trkpt lat="41.29107" lon="-8.67609">
        <ele>49.16</ele>
        <time>2019-05-29T10:14:52Z</time>
      </trkpt>
      <trkpt lat="41.29108" lon="-8.67609">
        <ele>49.65</ele>
        <time>2019-05-29T10:14:54Z</time>
      </trkpt>
      <trkpt lat="41.29133" lon="-8.6762">
        <ele>49.65</ele>
        <time>2019-05-29T10:15:11Z</time>
      </trkpt>
      <trkpt lat="41.29135" lon="-8.67621">
        <ele>50.13</ele>
        <time>2019-05-29T10:15:13Z</time>
      </trkpt>
      <trkpt lat="41.29149" lon="-8.6763">
        <ele>49.65</ele>
        <time>2019-05-29T10:15:26Z</time>
      </trkpt>
      <trkpt lat="41.29166" lon="-8.67638">
        <ele>50.13</ele>
        <time>2019-05-29T10:15:40Z</time>
      </trkpt>
      <trkpt lat="41.29181" lon="-8.67649">
        <ele>50.13</ele>
        <time>2019-05-29T10:15:54Z</time>
      </trkpt>
      <trkpt lat="41.29194" lon="-8.67661">
        <ele>49.16</ele>
        <time>2019-05-29T10:16:07Z</time>
      </trkpt>
      <trkpt lat="41.29209" lon="-8.67677">
        <ele>50.13</ele>
        <time>2019-05-29T10:16:23Z</time>
      </trkpt>
      <trkpt lat="41.29213" lon="-8.67682">
        <ele>50.13</ele>
        <time>2019-05-29T10:16:28Z</time>
      </trkpt>
      <trkpt lat="41.29218" lon="-8.6769">
        <ele>50.13</ele>
        <time>2019-05-29T10:16:35Z</time>
      </trkpt>
      <trkpt lat="41.29221" lon="-8.67694">
        <ele>50.13</ele>
        <time>2019-05-29T10:16:39Z</time>
      </trkpt>
      <trkpt lat="41.29235" lon="-8.67713">
        <ele>50.61</ele>
        <time>2019-05-29T10:16:55Z</time>
      </trkpt>
      <trkpt lat="41.29248" lon="-8.67731">
        <ele>50.61</ele>
        <time>2019-05-29T10:17:11Z</time>
      </trkpt>
      <trkpt lat="41.29252" lon="-8.67737">
        <ele>51.09</ele>
        <time>2019-05-29T10:17:16Z</time>
      </trkpt>
      <trkpt lat="41.29266" lon="-8.67753">
        <ele>51.09</ele>
        <time>2019-05-29T10:17:32Z</time>
      </trkpt>
      <trkpt lat="41.29279" lon="-8.67772">
        <ele>51.09</ele>
        <time>2019-05-29T10:17:48Z</time>
      </trkpt>
      <trkpt lat="41.29284" lon="-8.67777">
        <ele>51.09</ele>
        <time>2019-05-29T10:17:53Z</time>
      </trkpt>
      <trkpt lat="41.29293" lon="-8.6779">
        <ele>51.09</ele>
        <time>2019-05-29T10:18:06Z</time>
      </trkpt>
      <trkpt lat="41.29302" lon="-8.67802">
        <ele>52.05</ele>
        <time>2019-05-29T10:18:17Z</time>
      </trkpt>
      <trkpt lat="41.29317" lon="-8.67821">
        <ele>51.57</ele>
        <time>2019-05-29T10:18:33Z</time>
      </trkpt>
      <trkpt lat="41.29319" lon="-8.67823">
        <ele>51.09</ele>
        <time>2019-05-29T10:18:35Z</time>
      </trkpt>
      <trkpt lat="41.29322" lon="-8.67826">
        <ele>52.05</ele>
        <time>2019-05-29T10:18:38Z</time>
      </trkpt>
      <trkpt lat="41.29335" lon="-8.67844">
        <ele>51.57</ele>
        <time>2019-05-29T10:18:53Z</time>
      </trkpt>
      <trkpt lat="41.29343" lon="-8.67855">
        <ele>51.57</ele>
        <time>2019-05-29T10:19:02Z</time>
      </trkpt>
      <trkpt lat="41.29356" lon="-8.67876">
        <ele>52.53</ele>
        <time>2019-05-29T10:19:19Z</time>
      </trkpt>
      <trkpt lat="41.29366" lon="-8.67891">
        <ele>52.05</ele>
        <time>2019-05-29T10:19:32Z</time>
      </trkpt>
      <trkpt lat="41.29373" lon="-8.67904">
        <ele>52.05</ele>
        <time>2019-05-29T10:19:43Z</time>
      </trkpt>
      <trkpt lat="41.29374" lon="-8.67907">
        <ele>52.53</ele>
        <time>2019-05-29T10:19:45Z</time>
      </trkpt>
      <trkpt lat="41.29382" lon="-8.67924">
        <ele>53.01</ele>
        <time>2019-05-29T10:19:58Z</time>
      </trkpt>
      <trkpt lat="41.29386" lon="-8.67934">
        <ele>52.53</ele>
        <time>2019-05-29T10:20:06Z</time>
      </trkpt>
      <trkpt lat="41.29392" lon="-8.67946">
        <ele>51.57</ele>
        <time>2019-05-29T10:20:17Z</time>
      </trkpt>
      <trkpt lat="41.29406" lon="-8.67965">
        <ele>53.01</ele>
        <time>2019-05-29T10:20:33Z</time>
      </trkpt>
      <trkpt lat="41.2942" lon="-8.67977">
        <ele>51.57</ele>
        <time>2019-05-29T10:20:48Z</time>
      </trkpt>
      <trkpt lat="41.29423" lon="-8.6798">
        <ele>51.57</ele>
        <time>2019-05-29T10:20:52Z</time>
      </trkpt>
      <trkpt lat="41.2944" lon="-8.67992">
        <ele>51.57</ele>
        <time>2019-05-29T10:21:07Z</time>
      </trkpt>
      <trkpt lat="41.29456" lon="-8.68009">
        <ele>50.61</ele>
        <time>2019-05-29T10:21:22Z</time>
      </trkpt>
      <trkpt lat="41.29463" lon="-8.68012">
        <ele>48.68</ele>
        <time>2019-05-29T10:21:28Z</time>
      </trkpt>
      <trkpt lat="41.29482" lon="-8.68018">
        <ele>49.65</ele>
        <time>2019-05-29T10:21:46Z</time>
      </trkpt>
      <trkpt lat="41.29497" lon="-8.68024">
        <ele>49.65</ele>
        <time>2019-05-29T10:21:58Z</time>
      </trkpt>
      <trkpt lat="41.29497" lon="-8.68023">
        <ele>50.61</ele>
        <time>2019-05-29T10:22:12Z</time>
      </trkpt>
      <trkpt lat="41.29507" lon="-8.68028">
        <ele>49.65</ele>
        <time>2019-05-29T10:22:27Z</time>
      </trkpt>
      <trkpt lat="41.29509" lon="-8.68029">
        <ele>49.65</ele>
        <time>2019-05-29T10:22:29Z</time>
      </trkpt>
      <trkpt lat="41.29511" lon="-8.6803">
        <ele>50.13</ele>
        <time>2019-05-29T10:22:31Z</time>
      </trkpt>
      <trkpt lat="41.29532" lon="-8.68036">
        <ele>49.16</ele>
        <time>2019-05-29T10:22:48Z</time>
      </trkpt>
      <trkpt lat="41.29545" lon="-8.6804">
        <ele>49.16</ele>
        <time>2019-05-29T10:23:00Z</time>
      </trkpt>
      <trkpt lat="41.29564" lon="-8.68044">
        <ele>48.68</ele>
        <time>2019-05-29T10:23:14Z</time>
      </trkpt>
      <trkpt lat="41.29588" lon="-8.68048">
        <ele>47.24</ele>
        <time>2019-05-29T10:23:32Z</time>
      </trkpt>
      <trkpt lat="41.29602" lon="-8.68049">
        <ele>47.72</ele>
        <time>2019-05-29T10:23:44Z</time>
      </trkpt>
      <trkpt lat="41.29607" lon="-8.68048">
        <ele>46.76</ele>
        <time>2019-05-29T10:23:49Z</time>
      </trkpt>
      <trkpt lat="41.29622" lon="-8.68049">
        <ele>46.76</ele>
        <time>2019-05-29T10:24:01Z</time>
      </trkpt>
      <trkpt lat="41.2963" lon="-8.68051">
        <ele>45.8</ele>
        <time>2019-05-29T10:24:08Z</time>
      </trkpt>
      <trkpt lat="41.29646" lon="-8.68049">
        <ele>45.8</ele>
        <time>2019-05-29T10:24:20Z</time>
      </trkpt>
      <trkpt lat="41.2966" lon="-8.68047">
        <ele>45.8</ele>
        <time>2019-05-29T10:24:33Z</time>
      </trkpt>
      <trkpt lat="41.29662" lon="-8.68047">
        <ele>44.36</ele>
        <time>2019-05-29T10:24:38Z</time>
      </trkpt>
      <trkpt lat="41.29685" lon="-8.68043">
        <ele>42.44</ele>
        <time>2019-05-29T10:24:55Z</time>
      </trkpt>
      <trkpt lat="41.29702" lon="-8.6804">
        <ele>40.99</ele>
        <time>2019-05-29T10:25:10Z</time>
      </trkpt>
      <trkpt lat="41.29725" lon="-8.68037">
        <ele>40.03</ele>
        <time>2019-05-29T10:25:26Z</time>
      </trkpt>
      <trkpt lat="41.29726" lon="-8.68037">
        <ele>40.03</ele>
        <time>2019-05-29T10:25:27Z</time>
      </trkpt>
      <trkpt lat="41.29727" lon="-8.68037">
        <ele>39.07</ele>
        <time>2019-05-29T10:25:28Z</time>
      </trkpt>
      <trkpt lat="41.29728" lon="-8.68036">
        <ele>39.55</ele>
        <time>2019-05-29T10:25:29Z</time>
      </trkpt>
      <trkpt lat="41.29729" lon="-8.68036">
        <ele>39.07</ele>
        <time>2019-05-29T10:25:30Z</time>
      </trkpt>
      <trkpt lat="41.29731" lon="-8.68036">
        <ele>39.07</ele>
        <time>2019-05-29T10:25:31Z</time>
      </trkpt>
      <trkpt lat="41.29735" lon="-8.68035">
        <ele>39.07</ele>
        <time>2019-05-29T10:25:35Z</time>
      </trkpt>
      <trkpt lat="41.29736" lon="-8.68035">
        <ele>38.59</ele>
        <time>2019-05-29T10:25:36Z</time>
      </trkpt>
      <trkpt lat="41.29738" lon="-8.68035">
        <ele>38.59</ele>
        <time>2019-05-29T10:25:37Z</time>
      </trkpt>
      <trkpt lat="41.29739" lon="-8.68034">
        <ele>38.11</ele>
        <time>2019-05-29T10:25:38Z</time>
      </trkpt>
      <trkpt lat="41.2974" lon="-8.68034">
        <ele>38.11</ele>
        <time>2019-05-29T10:25:39Z</time>
      </trkpt>
      <trkpt lat="41.29741" lon="-8.68034">
        <ele>38.11</ele>
        <time>2019-05-29T10:25:40Z</time>
      </trkpt>
      <trkpt lat="41.29742" lon="-8.68034">
        <ele>38.11</ele>
        <time>2019-05-29T10:25:41Z</time>
      </trkpt>
      <trkpt lat="41.29744" lon="-8.68034">
        <ele>37.63</ele>
        <time>2019-05-29T10:25:42Z</time>
      </trkpt>
      <trkpt lat="41.29745" lon="-8.68033">
        <ele>38.11</ele>
        <time>2019-05-29T10:25:43Z</time>
      </trkpt>
      <trkpt lat="41.29746" lon="-8.68033">
        <ele>37.15</ele>
        <time>2019-05-29T10:25:44Z</time>
      </trkpt>
      <trkpt lat="41.2975" lon="-8.68033">
        <ele>37.15</ele>
        <time>2019-05-29T10:25:48Z</time>
      </trkpt>
      <trkpt lat="41.29751" lon="-8.68033">
        <ele>37.15</ele>
        <time>2019-05-29T10:25:49Z</time>
      </trkpt>
      <trkpt lat="41.29753" lon="-8.68033">
        <ele>37.15</ele>
        <time>2019-05-29T10:25:50Z</time>
      </trkpt>
      <trkpt lat="41.29754" lon="-8.68033">
        <ele>37.15</ele>
        <time>2019-05-29T10:25:51Z</time>
      </trkpt>
      <trkpt lat="41.29755" lon="-8.68033">
        <ele>36.67</ele>
        <time>2019-05-29T10:25:52Z</time>
      </trkpt>
      <trkpt lat="41.29769" lon="-8.6803">
        <ele>35.71</ele>
        <time>2019-05-29T10:26:03Z</time>
      </trkpt>
      <trkpt lat="41.29786" lon="-8.68026">
        <ele>35.23</ele>
        <time>2019-05-29T10:26:16Z</time>
      </trkpt>
      <trkpt lat="41.29807" lon="-8.68019">
        <ele>34.26</ele>
        <time>2019-05-29T10:26:31Z</time>
      </trkpt>
      <trkpt lat="41.29815" lon="-8.68016">
        <ele>34.74</ele>
        <time>2019-05-29T10:26:37Z</time>
      </trkpt>
      <trkpt lat="41.29817" lon="-8.68016">
        <ele>34.74</ele>
        <time>2019-05-29T10:26:38Z</time>
      </trkpt>
      <trkpt lat="41.29827" lon="-8.68013">
        <ele>33.78</ele>
        <time>2019-05-29T10:26:48Z</time>
      </trkpt>
      <trkpt lat="41.29833" lon="-8.6801">
        <ele>34.74</ele>
        <time>2019-05-29T10:26:54Z</time>
      </trkpt>
      <trkpt lat="41.29839" lon="-8.68008">
        <ele>34.26</ele>
        <time>2019-05-29T10:26:59Z</time>
      </trkpt>
      <trkpt lat="41.2985" lon="-8.68004">
        <ele>34.74</ele>
        <time>2019-05-29T10:27:09Z</time>
      </trkpt>
      <trkpt lat="41.29851" lon="-8.68004">
        <ele>34.26</ele>
        <time>2019-05-29T10:27:10Z</time>
      </trkpt>
      <trkpt lat="41.29873" lon="-8.67997">
        <ele>34.26</ele>
        <time>2019-05-29T10:27:25Z</time>
      </trkpt>
      <trkpt lat="41.2988" lon="-8.67993">
        <ele>34.26</ele>
        <time>2019-05-29T10:27:40Z</time>
      </trkpt>
      <trkpt lat="41.29885" lon="-8.67991">
        <ele>33.3</ele>
        <time>2019-05-29T10:28:00Z</time>
      </trkpt>
      <trkpt lat="41.29896" lon="-8.67989">
        <ele>33.3</ele>
        <time>2019-05-29T10:28:11Z</time>
      </trkpt>
      <trkpt lat="41.29897" lon="-8.67988">
        <ele>33.3</ele>
        <time>2019-05-29T10:28:12Z</time>
      </trkpt>
      <trkpt lat="41.29913" lon="-8.67986">
        <ele>33.78</ele>
        <time>2019-05-29T10:28:25Z</time>
      </trkpt>
      <trkpt lat="41.29928" lon="-8.67982">
        <ele>33.3</ele>
        <time>2019-05-29T10:28:37Z</time>
      </trkpt>
      <trkpt lat="41.29946" lon="-8.67978">
        <ele>32.82</ele>
        <time>2019-05-29T10:28:50Z</time>
      </trkpt>
      <trkpt lat="41.29954" lon="-8.67977">
        <ele>33.3</ele>
        <time>2019-05-29T10:28:55Z</time>
      </trkpt>
      <trkpt lat="41.29955" lon="-8.67977">
        <ele>32.82</ele>
        <time>2019-05-29T10:28:56Z</time>
      </trkpt>
      <trkpt lat="41.29969" lon="-8.67975">
        <ele>33.3</ele>
        <time>2019-05-29T10:29:08Z</time>
      </trkpt>
      <trkpt lat="41.29981" lon="-8.67973">
        <ele>33.3</ele>
        <time>2019-05-29T10:29:20Z</time>
      </trkpt>
      <trkpt lat="41.29993" lon="-8.67972">
        <ele>33.78</ele>
        <time>2019-05-29T10:29:31Z</time>
      </trkpt>
      <trkpt lat="41.29997" lon="-8.67971">
        <ele>34.26</ele>
        <time>2019-05-29T10:29:53Z</time>
      </trkpt>
      <trkpt lat="41.29996" lon="-8.67971">
        <ele>34.26</ele>
        <time>2019-05-29T10:30:14Z</time>
      </trkpt>
      <trkpt lat="41.29995" lon="-8.6797">
        <ele>34.26</ele>
        <time>2019-05-29T10:30:41Z</time>
      </trkpt>
      <trkpt lat="41.29995" lon="-8.6797">
        <ele>34.26</ele>
        <time>2019-05-29T10:31:13Z</time>
      </trkpt>
      <trkpt lat="41.29997" lon="-8.67969">
        <ele>33.78</ele>
        <time>2019-05-29T10:31:32Z</time>
      </trkpt>
      <trkpt lat="41.30007" lon="-8.67966">
        <ele>33.78</ele>
        <time>2019-05-29T10:31:43Z</time>
      </trkpt>
      <trkpt lat="41.30016" lon="-8.67964">
        <ele>34.26</ele>
        <time>2019-05-29T10:31:52Z</time>
      </trkpt>
      <trkpt lat="41.30028" lon="-8.67963">
        <ele>34.74</ele>
        <time>2019-05-29T10:32:03Z</time>
      </trkpt>
      <trkpt lat="41.30029" lon="-8.67963">
        <ele>35.23</ele>
        <time>2019-05-29T10:32:04Z</time>
      </trkpt>
      <trkpt lat="41.30047" lon="-8.6796">
        <ele>34.26</ele>
        <time>2019-05-29T10:32:19Z</time>
      </trkpt>
      <trkpt lat="41.30066" lon="-8.67959">
        <ele>36.67</ele>
        <time>2019-05-29T10:32:35Z</time>
      </trkpt>
      <trkpt lat="41.30082" lon="-8.67956">
        <ele>36.19</ele>
        <time>2019-05-29T10:32:50Z</time>
      </trkpt>
      <trkpt lat="41.301" lon="-8.67953">
        <ele>37.63</ele>
        <time>2019-05-29T10:33:05Z</time>
      </trkpt>
      <trkpt lat="41.30106" lon="-8.6795">
        <ele>38.11</ele>
        <time>2019-05-29T10:33:10Z</time>
      </trkpt>
      <trkpt lat="41.30107" lon="-8.67949">
        <ele>38.11</ele>
        <time>2019-05-29T10:33:11Z</time>
      </trkpt>
      <trkpt lat="41.30109" lon="-8.67947">
        <ele>38.59</ele>
        <time>2019-05-29T10:33:13Z</time>
      </trkpt>
      <trkpt lat="41.3012" lon="-8.67935">
        <ele>39.55</ele>
        <time>2019-05-29T10:33:27Z</time>
      </trkpt>
      <trkpt lat="41.30131" lon="-8.6793">
        <ele>39.55</ele>
        <time>2019-05-29T10:33:39Z</time>
      </trkpt>
      <trkpt lat="41.30143" lon="-8.67925">
        <ele>40.51</ele>
        <time>2019-05-29T10:33:50Z</time>
      </trkpt>
      <trkpt lat="41.30157" lon="-8.67923">
        <ele>40.99</ele>
        <time>2019-05-29T10:34:02Z</time>
      </trkpt>
      <trkpt lat="41.30164" lon="-8.67919">
        <ele>41.47</ele>
        <time>2019-05-29T10:34:15Z</time>
      </trkpt>
      <trkpt lat="41.30179" lon="-8.67916">
        <ele>42.44</ele>
        <time>2019-05-29T10:34:28Z</time>
      </trkpt>
      <trkpt lat="41.30194" lon="-8.67912">
        <ele>43.4</ele>
        <time>2019-05-29T10:34:42Z</time>
      </trkpt>
      <trkpt lat="41.30204" lon="-8.67908">
        <ele>44.36</ele>
        <time>2019-05-29T10:34:53Z</time>
      </trkpt>
      <trkpt lat="41.3022" lon="-8.67908">
        <ele>43.88</ele>
        <time>2019-05-29T10:35:06Z</time>
      </trkpt>
      <trkpt lat="41.30236" lon="-8.67905">
        <ele>44.36</ele>
        <time>2019-05-29T10:35:20Z</time>
      </trkpt>
      <trkpt lat="41.30251" lon="-8.67903">
        <ele>45.32</ele>
        <time>2019-05-29T10:35:33Z</time>
      </trkpt>
      <trkpt lat="41.30267" lon="-8.67899">
        <ele>45.32</ele>
        <time>2019-05-29T10:35:47Z</time>
      </trkpt>
      <trkpt lat="41.30281" lon="-8.67897">
        <ele>45.8</ele>
        <time>2019-05-29T10:36:00Z</time>
      </trkpt>
      <trkpt lat="41.30295" lon="-8.67895">
        <ele>45.8</ele>
        <time>2019-05-29T10:36:13Z</time>
      </trkpt>
      <trkpt lat="41.30311" lon="-8.67894">
        <ele>46.28</ele>
        <time>2019-05-29T10:36:27Z</time>
      </trkpt>
      <trkpt lat="41.30326" lon="-8.67891">
        <ele>46.76</ele>
        <time>2019-05-29T10:36:39Z</time>
      </trkpt>
      <trkpt lat="41.3034" lon="-8.67888">
        <ele>46.76</ele>
        <time>2019-05-29T10:36:52Z</time>
      </trkpt>
      <trkpt lat="41.30352" lon="-8.67885">
        <ele>47.72</ele>
        <time>2019-05-29T10:37:06Z</time>
      </trkpt>
      <trkpt lat="41.30366" lon="-8.67883">
        <ele>48.2</ele>
        <time>2019-05-29T10:37:19Z</time>
      </trkpt>
      <trkpt lat="41.30381" lon="-8.67879">
        <ele>47.72</ele>
        <time>2019-05-29T10:37:33Z</time>
      </trkpt>
      <trkpt lat="41.30396" lon="-8.67875">
        <ele>48.68</ele>
        <time>2019-05-29T10:37:48Z</time>
      </trkpt>
      <trkpt lat="41.30414" lon="-8.67868">
        <ele>48.68</ele>
        <time>2019-05-29T10:38:01Z</time>
      </trkpt>
      <trkpt lat="41.3043" lon="-8.67868">
        <ele>49.16</ele>
        <time>2019-05-29T10:38:13Z</time>
      </trkpt>
      <trkpt lat="41.30451" lon="-8.6787">
        <ele>50.13</ele>
        <time>2019-05-29T10:38:30Z</time>
      </trkpt>
      <trkpt lat="41.30458" lon="-8.67873">
        <ele>49.65</ele>
        <time>2019-05-29T10:38:43Z</time>
      </trkpt>
      <trkpt lat="41.3047" lon="-8.67875">
        <ele>51.09</ele>
        <time>2019-05-29T10:38:55Z</time>
      </trkpt>
      <trkpt lat="41.30484" lon="-8.67875">
        <ele>51.09</ele>
        <time>2019-05-29T10:39:10Z</time>
      </trkpt>
      <trkpt lat="41.30503" lon="-8.67875">
        <ele>52.05</ele>
        <time>2019-05-29T10:39:26Z</time>
      </trkpt>
      <trkpt lat="41.30523" lon="-8.67874">
        <ele>51.57</ele>
        <time>2019-05-29T10:39:41Z</time>
      </trkpt>
      <trkpt lat="41.30534" lon="-8.67875">
        <ele>52.05</ele>
        <time>2019-05-29T10:39:53Z</time>
      </trkpt>
      <trkpt lat="41.30553" lon="-8.67876">
        <ele>52.53</ele>
        <time>2019-05-29T10:40:07Z</time>
      </trkpt>
      <trkpt lat="41.30571" lon="-8.67878">
        <ele>53.49</ele>
        <time>2019-05-29T10:40:22Z</time>
      </trkpt>
      <trkpt lat="41.3059" lon="-8.67882">
        <ele>53.01</ele>
        <time>2019-05-29T10:40:36Z</time>
      </trkpt>
      <trkpt lat="41.30593" lon="-8.67881">
        <ele>53.01</ele>
        <time>2019-05-29T10:40:38Z</time>
      </trkpt>
      <trkpt lat="41.30607" lon="-8.67875">
        <ele>53.49</ele>
        <time>2019-05-29T10:40:50Z</time>
      </trkpt>
      <trkpt lat="41.30621" lon="-8.67877">
        <ele>53.01</ele>
        <time>2019-05-29T10:41:02Z</time>
      </trkpt>
      <trkpt lat="41.30635" lon="-8.67878">
        <ele>54.45</ele>
        <time>2019-05-29T10:41:14Z</time>
      </trkpt>
      <trkpt lat="41.3064" lon="-8.6788">
        <ele>53.97</ele>
        <time>2019-05-29T10:41:19Z</time>
      </trkpt>
      <trkpt lat="41.30647" lon="-8.67882">
        <ele>54.93</ele>
        <time>2019-05-29T10:41:25Z</time>
      </trkpt>
      <trkpt lat="41.30666" lon="-8.67887">
        <ele>54.93</ele>
        <time>2019-05-29T10:41:41Z</time>
      </trkpt>
      <trkpt lat="41.30677" lon="-8.6789">
        <ele>54.45</ele>
        <time>2019-05-29T10:41:54Z</time>
      </trkpt>
      <trkpt lat="41.30691" lon="-8.67893">
        <ele>55.89</ele>
        <time>2019-05-29T10:42:07Z</time>
      </trkpt>
      <trkpt lat="41.30705" lon="-8.67895">
        <ele>56.37</ele>
        <time>2019-05-29T10:42:19Z</time>
      </trkpt>
      <trkpt lat="41.30723" lon="-8.67901">
        <ele>56.86</ele>
        <time>2019-05-29T10:42:34Z</time>
      </trkpt>
      <trkpt lat="41.30737" lon="-8.67904">
        <ele>57.34</ele>
        <time>2019-05-29T10:42:47Z</time>
      </trkpt>
      <trkpt lat="41.30757" lon="-8.67908">
        <ele>57.82</ele>
        <time>2019-05-29T10:43:01Z</time>
      </trkpt>
      <trkpt lat="41.30762" lon="-8.67912">
        <ele>57.82</ele>
        <time>2019-05-29T10:43:05Z</time>
      </trkpt>
      <trkpt lat="41.30773" lon="-8.67919">
        <ele>58.78</ele>
        <time>2019-05-29T10:43:16Z</time>
      </trkpt>
      <trkpt lat="41.30789" lon="-8.67916">
        <ele>59.26</ele>
        <time>2019-05-29T10:43:32Z</time>
      </trkpt>
      <trkpt lat="41.30796" lon="-8.67914">
        <ele>59.74</ele>
        <time>2019-05-29T10:43:45Z</time>
      </trkpt>
      <trkpt lat="41.30806" lon="-8.67911">
        <ele>59.74</ele>
        <time>2019-05-29T10:43:55Z</time>
      </trkpt>
      <trkpt lat="41.30821" lon="-8.67909">
        <ele>60.22</ele>
        <time>2019-05-29T10:44:09Z</time>
      </trkpt>
      <trkpt lat="41.30841" lon="-8.67913">
        <ele>60.7</ele>
        <time>2019-05-29T10:44:22Z</time>
      </trkpt>
      <trkpt lat="41.30846" lon="-8.67913">
        <ele>61.18</ele>
        <time>2019-05-29T10:44:26Z</time>
      </trkpt>
      <trkpt lat="41.30848" lon="-8.67913">
        <ele>60.7</ele>
        <time>2019-05-29T10:44:27Z</time>
      </trkpt>
      <trkpt lat="41.30864" lon="-8.67913">
        <ele>60.7</ele>
        <time>2019-05-29T10:44:41Z</time>
      </trkpt>
      <trkpt lat="41.30883" lon="-8.67915">
        <ele>60.7</ele>
        <time>2019-05-29T10:44:58Z</time>
      </trkpt>
      <trkpt lat="41.30899" lon="-8.67917">
        <ele>61.18</ele>
        <time>2019-05-29T10:45:12Z</time>
      </trkpt>
      <trkpt lat="41.30915" lon="-8.67918">
        <ele>61.66</ele>
        <time>2019-05-29T10:45:27Z</time>
      </trkpt>
      <trkpt lat="41.30932" lon="-8.67917">
        <ele>61.66</ele>
        <time>2019-05-29T10:45:40Z</time>
      </trkpt>
      <trkpt lat="41.30949" lon="-8.67915">
        <ele>62.14</ele>
        <time>2019-05-29T10:45:54Z</time>
      </trkpt>
      <trkpt lat="41.30959" lon="-8.67915">
        <ele>62.14</ele>
        <time>2019-05-29T10:46:02Z</time>
      </trkpt>
      <trkpt lat="41.30976" lon="-8.67916">
        <ele>62.62</ele>
        <time>2019-05-29T10:46:17Z</time>
      </trkpt>
      <trkpt lat="41.30992" lon="-8.67916">
        <ele>63.1</ele>
        <time>2019-05-29T10:46:30Z</time>
      </trkpt>
      <trkpt lat="41.31003" lon="-8.67915">
        <ele>63.1</ele>
        <time>2019-05-29T10:46:41Z</time>
      </trkpt>
      <trkpt lat="41.31016" lon="-8.67916">
        <ele>62.62</ele>
        <time>2019-05-29T10:46:51Z</time>
      </trkpt>
      <trkpt lat="41.31029" lon="-8.67915">
        <ele>63.1</ele>
        <time>2019-05-29T10:47:03Z</time>
      </trkpt>
      <trkpt lat="41.3104" lon="-8.67911">
        <ele>63.58</ele>
        <time>2019-05-29T10:47:14Z</time>
      </trkpt>
      <trkpt lat="41.31043" lon="-8.6791">
        <ele>63.1</ele>
        <time>2019-05-29T10:47:16Z</time>
      </trkpt>
      <trkpt lat="41.31049" lon="-8.6791">
        <ele>64.55</ele>
        <time>2019-05-29T10:47:21Z</time>
      </trkpt>
      <trkpt lat="41.3105" lon="-8.6791">
        <ele>63.58</ele>
        <time>2019-05-29T10:47:22Z</time>
      </trkpt>
      <trkpt lat="41.31064" lon="-8.67904">
        <ele>63.58</ele>
        <time>2019-05-29T10:47:34Z</time>
      </trkpt>
      <trkpt lat="41.31079" lon="-8.67904">
        <ele>63.58</ele>
        <time>2019-05-29T10:47:46Z</time>
      </trkpt>
      <trkpt lat="41.31086" lon="-8.67904">
        <ele>63.1</ele>
        <time>2019-05-29T10:48:00Z</time>
      </trkpt>
      <trkpt lat="41.31089" lon="-8.67905">
        <ele>63.1</ele>
        <time>2019-05-29T10:48:22Z</time>
      </trkpt>
      <trkpt lat="41.31092" lon="-8.67907">
        <ele>63.58</ele>
        <time>2019-05-29T10:48:47Z</time>
      </trkpt>
      <trkpt lat="41.3109" lon="-8.67906">
        <ele>63.1</ele>
        <time>2019-05-29T10:49:06Z</time>
      </trkpt>
      <trkpt lat="41.31093" lon="-8.67907">
        <ele>63.58</ele>
        <time>2019-05-29T10:49:27Z</time>
      </trkpt>
      <trkpt lat="41.31094" lon="-8.67904">
        <ele>63.1</ele>
        <time>2019-05-29T10:49:57Z</time>
      </trkpt>
      <trkpt lat="41.31097" lon="-8.67906">
        <ele>63.1</ele>
        <time>2019-05-29T10:50:06Z</time>
      </trkpt>
      <trkpt lat="41.31097" lon="-8.67907">
        <ele>63.1</ele>
        <time>2019-05-29T10:50:07Z</time>
      </trkpt>
      <trkpt lat="41.31098" lon="-8.67908">
        <ele>63.58</ele>
        <time>2019-05-29T10:50:08Z</time>
      </trkpt>
      <trkpt lat="41.31111" lon="-8.67914">
        <ele>63.1</ele>
        <time>2019-05-29T10:50:21Z</time>
      </trkpt>
      <trkpt lat="41.31123" lon="-8.67913">
        <ele>63.58</ele>
        <time>2019-05-29T10:50:35Z</time>
      </trkpt>
      <trkpt lat="41.31138" lon="-8.67913">
        <ele>64.07</ele>
        <time>2019-05-29T10:50:49Z</time>
      </trkpt>
      <trkpt lat="41.31144" lon="-8.67913">
        <ele>64.55</ele>
        <time>2019-05-29T10:50:55Z</time>
      </trkpt>
      <trkpt lat="41.31152" lon="-8.67912">
        <ele>65.03</ele>
        <time>2019-05-29T10:51:05Z</time>
      </trkpt>
      <trkpt lat="41.31159" lon="-8.67912">
        <ele>64.55</ele>
        <time>2019-05-29T10:51:11Z</time>
      </trkpt>
      <trkpt lat="41.31167" lon="-8.67911">
        <ele>65.03</ele>
        <time>2019-05-29T10:51:21Z</time>
      </trkpt>
      <trkpt lat="41.31185" lon="-8.67915">
        <ele>65.51</ele>
        <time>2019-05-29T10:51:37Z</time>
      </trkpt>
      <trkpt lat="41.31204" lon="-8.67917">
        <ele>65.99</ele>
        <time>2019-05-29T10:51:53Z</time>
      </trkpt>
      <trkpt lat="41.31204" lon="-8.67917">
        <ele>65.99</ele>
        <time>2019-05-29T10:51:54Z</time>
      </trkpt>
      <trkpt lat="41.31206" lon="-8.67918">
        <ele>65.99</ele>
        <time>2019-05-29T10:51:55Z</time>
      </trkpt>
      <trkpt lat="41.31224" lon="-8.6792">
        <ele>65.51</ele>
        <time>2019-05-29T10:52:10Z</time>
      </trkpt>
      <trkpt lat="41.31231" lon="-8.67923">
        <ele>65.99</ele>
        <time>2019-05-29T10:52:20Z</time>
      </trkpt>
      <trkpt lat="41.31248" lon="-8.67923">
        <ele>65.99</ele>
        <time>2019-05-29T10:52:35Z</time>
      </trkpt>
      <trkpt lat="41.31266" lon="-8.67924">
        <ele>65.51</ele>
        <time>2019-05-29T10:52:47Z</time>
      </trkpt>
      <trkpt lat="41.31279" lon="-8.67925">
        <ele>65.99</ele>
        <time>2019-05-29T10:52:59Z</time>
      </trkpt>
      <trkpt lat="41.31294" lon="-8.67927">
        <ele>65.51</ele>
        <time>2019-05-29T10:53:12Z</time>
      </trkpt>
      <trkpt lat="41.31308" lon="-8.67926">
        <ele>65.51</ele>
        <time>2019-05-29T10:53:25Z</time>
      </trkpt>
      <trkpt lat="41.31317" lon="-8.67927">
        <ele>65.51</ele>
        <time>2019-05-29T10:53:32Z</time>
      </trkpt>
      <trkpt lat="41.31318" lon="-8.67926">
        <ele>65.99</ele>
        <time>2019-05-29T10:53:33Z</time>
      </trkpt>
      <trkpt lat="41.31334" lon="-8.67927">
        <ele>65.99</ele>
        <time>2019-05-29T10:53:46Z</time>
      </trkpt>
      <trkpt lat="41.31348" lon="-8.67925">
        <ele>65.51</ele>
        <time>2019-05-29T10:53:58Z</time>
      </trkpt>
      <trkpt lat="41.31367" lon="-8.67922">
        <ele>65.99</ele>
        <time>2019-05-29T10:54:11Z</time>
      </trkpt>
      <trkpt lat="41.31386" lon="-8.67918">
        <ele>65.03</ele>
        <time>2019-05-29T10:54:25Z</time>
      </trkpt>
      <trkpt lat="41.31399" lon="-8.67915">
        <ele>65.03</ele>
        <time>2019-05-29T10:54:36Z</time>
      </trkpt>
      <trkpt lat="41.314" lon="-8.67915">
        <ele>65.03</ele>
        <time>2019-05-29T10:54:37Z</time>
      </trkpt>
      <trkpt lat="41.31419" lon="-8.67912">
        <ele>65.03</ele>
        <time>2019-05-29T10:54:52Z</time>
      </trkpt>
      <trkpt lat="41.31436" lon="-8.67908">
        <ele>65.51</ele>
        <time>2019-05-29T10:55:06Z</time>
      </trkpt>
      <trkpt lat="41.31453" lon="-8.67903">
        <ele>65.99</ele>
        <time>2019-05-29T10:55:20Z</time>
      </trkpt>
      <trkpt lat="41.31472" lon="-8.67897">
        <ele>65.51</ele>
        <time>2019-05-29T10:55:36Z</time>
      </trkpt>
      <trkpt lat="41.31487" lon="-8.67893">
        <ele>65.51</ele>
        <time>2019-05-29T10:55:50Z</time>
      </trkpt>
      <trkpt lat="41.31489" lon="-8.67891">
        <ele>65.51</ele>
        <time>2019-05-29T10:55:55Z</time>
      </trkpt>
      <trkpt lat="41.3149" lon="-8.6789">
        <ele>65.51</ele>
        <time>2019-05-29T10:55:56Z</time>
      </trkpt>
      <trkpt lat="41.31491" lon="-8.67888">
        <ele>65.51</ele>
        <time>2019-05-29T10:55:57Z</time>
      </trkpt>
      <trkpt lat="41.31492" lon="-8.67887">
        <ele>65.51</ele>
        <time>2019-05-29T10:55:58Z</time>
      </trkpt>
      <trkpt lat="41.31495" lon="-8.67885">
        <ele>65.51</ele>
        <time>2019-05-29T10:56:01Z</time>
      </trkpt>
      <trkpt lat="41.31515" lon="-8.67884">
        <ele>65.51</ele>
        <time>2019-05-29T10:56:15Z</time>
      </trkpt>
      <trkpt lat="41.31528" lon="-8.67886">
        <ele>65.51</ele>
        <time>2019-05-29T10:56:29Z</time>
      </trkpt>
      <trkpt lat="41.31528" lon="-8.67887">
        <ele>65.99</ele>
        <time>2019-05-29T10:56:30Z</time>
      </trkpt>
      <trkpt lat="41.3154" lon="-8.67895">
        <ele>65.51</ele>
        <time>2019-05-29T10:56:43Z</time>
      </trkpt>
      <trkpt lat="41.31547" lon="-8.67899">
        <ele>65.51</ele>
        <time>2019-05-29T10:56:51Z</time>
      </trkpt>
      <trkpt lat="41.31565" lon="-8.67903">
        <ele>65.51</ele>
        <time>2019-05-29T10:57:04Z</time>
      </trkpt>
      <trkpt lat="41.31589" lon="-8.67907">
        <ele>64.55</ele>
        <time>2019-05-29T10:57:21Z</time>
      </trkpt>
      <trkpt lat="41.31591" lon="-8.67907">
        <ele>65.51</ele>
        <time>2019-05-29T10:57:23Z</time>
      </trkpt>
      <trkpt lat="41.31613" lon="-8.6791">
        <ele>66.47</ele>
        <time>2019-05-29T10:57:40Z</time>
      </trkpt>
      <trkpt lat="41.31632" lon="-8.67913">
        <ele>66.95</ele>
        <time>2019-05-29T10:57:55Z</time>
      </trkpt>
      <trkpt lat="41.31653" lon="-8.67917">
        <ele>67.43</ele>
        <time>2019-05-29T10:58:12Z</time>
      </trkpt>
      <trkpt lat="41.31662" lon="-8.67917">
        <ele>67.91</ele>
        <time>2019-05-29T10:58:24Z</time>
      </trkpt>
      <trkpt lat="41.31673" lon="-8.67919">
        <ele>68.87</ele>
        <time>2019-05-29T10:58:38Z</time>
      </trkpt>
      <trkpt lat="41.31684" lon="-8.67921">
        <ele>68.87</ele>
        <time>2019-05-29T10:58:49Z</time>
      </trkpt>
      <trkpt lat="41.31694" lon="-8.67923">
        <ele>70.31</ele>
        <time>2019-05-29T10:59:00Z</time>
      </trkpt>
      <trkpt lat="41.31703" lon="-8.67924">
        <ele>70.31</ele>
        <time>2019-05-29T10:59:12Z</time>
      </trkpt>
      <trkpt lat="41.31723" lon="-8.67926">
        <ele>71.27</ele>
        <time>2019-05-29T10:59:24Z</time>
      </trkpt>
      <trkpt lat="41.31737" lon="-8.67928">
        <ele>72.24</ele>
        <time>2019-05-29T10:59:36Z</time>
      </trkpt>
      <trkpt lat="41.31746" lon="-8.67932">
        <ele>71.76</ele>
        <time>2019-05-29T10:59:49Z</time>
      </trkpt>
      <trkpt lat="41.31765" lon="-8.67932">
        <ele>73.2</ele>
        <time>2019-05-29T11:00:01Z</time>
      </trkpt>
      <trkpt lat="41.3178" lon="-8.67934">
        <ele>73.68</ele>
        <time>2019-05-29T11:00:13Z</time>
      </trkpt>
      <trkpt lat="41.31793" lon="-8.67935">
        <ele>74.16</ele>
        <time>2019-05-29T11:00:25Z</time>
      </trkpt>
      <trkpt lat="41.31809" lon="-8.67936">
        <ele>75.12</ele>
        <time>2019-05-29T11:00:38Z</time>
      </trkpt>
      <trkpt lat="41.31827" lon="-8.67939">
        <ele>76.08</ele>
        <time>2019-05-29T11:00:53Z</time>
      </trkpt>
      <trkpt lat="41.31843" lon="-8.67942">
        <ele>77.04</ele>
        <time>2019-05-29T11:01:08Z</time>
      </trkpt>
      <trkpt lat="41.31862" lon="-8.67944">
        <ele>77.52</ele>
        <time>2019-05-29T11:01:23Z</time>
      </trkpt>
      <trkpt lat="41.31869" lon="-8.67944">
        <ele>77.52</ele>
        <time>2019-05-29T11:01:30Z</time>
      </trkpt>
      <trkpt lat="41.3188" lon="-8.67947">
        <ele>78</ele>
        <time>2019-05-29T11:01:44Z</time>
      </trkpt>
      <trkpt lat="41.3188" lon="-8.67945">
        <ele>78</ele>
        <time>2019-05-29T11:01:57Z</time>
      </trkpt>
      <trkpt lat="41.31879" lon="-8.67943">
        <ele>78</ele>
        <time>2019-05-29T11:02:14Z</time>
      </trkpt>
      <trkpt lat="41.31877" lon="-8.67938">
        <ele>78</ele>
        <time>2019-05-29T11:02:34Z</time>
      </trkpt>
      <trkpt lat="41.31878" lon="-8.67938">
        <ele>77.52</ele>
        <time>2019-05-29T11:02:56Z</time>
      </trkpt>
      <trkpt lat="41.31886" lon="-8.67945">
        <ele>78</ele>
        <time>2019-05-29T11:03:13Z</time>
      </trkpt>
      <trkpt lat="41.31894" lon="-8.67949">
        <ele>78</ele>
        <time>2019-05-29T11:03:22Z</time>
      </trkpt>
      <trkpt lat="41.31895" lon="-8.67949">
        <ele>78</ele>
        <time>2019-05-29T11:03:23Z</time>
      </trkpt>
      <trkpt lat="41.31896" lon="-8.67949">
        <ele>78</ele>
        <time>2019-05-29T11:03:24Z</time>
      </trkpt>
      <trkpt lat="41.31912" lon="-8.67951">
        <ele>78</ele>
        <time>2019-05-29T11:03:38Z</time>
      </trkpt>
      <trkpt lat="41.31933" lon="-8.67954">
        <ele>78</ele>
        <time>2019-05-29T11:03:55Z</time>
      </trkpt>
      <trkpt lat="41.31949" lon="-8.67956">
        <ele>77.52</ele>
        <time>2019-05-29T11:04:09Z</time>
      </trkpt>
      <trkpt lat="41.31968" lon="-8.67959">
        <ele>77.52</ele>
        <time>2019-05-29T11:04:25Z</time>
      </trkpt>
      <trkpt lat="41.31986" lon="-8.67963">
        <ele>77.04</ele>
        <time>2019-05-29T11:04:39Z</time>
      </trkpt>
      <trkpt lat="41.31996" lon="-8.67964">
        <ele>77.04</ele>
        <time>2019-05-29T11:04:50Z</time>
      </trkpt>
      <trkpt lat="41.3201" lon="-8.6796">
        <ele>77.52</ele>
        <time>2019-05-29T11:05:03Z</time>
      </trkpt>
      <trkpt lat="41.32021" lon="-8.6796">
        <ele>77.04</ele>
        <time>2019-05-29T11:05:15Z</time>
      </trkpt>
      <trkpt lat="41.32039" lon="-8.67964">
        <ele>77.04</ele>
        <time>2019-05-29T11:05:30Z</time>
      </trkpt>
      <trkpt lat="41.3205" lon="-8.67967">
        <ele>77.04</ele>
        <time>2019-05-29T11:05:36Z</time>
      </trkpt>
      <trkpt lat="41.32067" lon="-8.6798">
        <ele>76.08</ele>
        <time>2019-05-29T11:05:51Z</time>
      </trkpt>
      <trkpt lat="41.32075" lon="-8.67984">
        <ele>76.08</ele>
        <time>2019-05-29T11:06:04Z</time>
      </trkpt>
      <trkpt lat="41.32089" lon="-8.67993">
        <ele>77.04</ele>
        <time>2019-05-29T11:06:21Z</time>
      </trkpt>
      <trkpt lat="41.32108" lon="-8.68005">
        <ele>76.08</ele>
        <time>2019-05-29T11:06:37Z</time>
      </trkpt>
      <trkpt lat="41.32123" lon="-8.68012">
        <ele>76.08</ele>
        <time>2019-05-29T11:06:53Z</time>
      </trkpt>
      <trkpt lat="41.32128" lon="-8.68013">
        <ele>75.6</ele>
        <time>2019-05-29T11:07:00Z</time>
      </trkpt>
      <trkpt lat="41.3214" lon="-8.68016">
        <ele>75.6</ele>
        <time>2019-05-29T11:07:14Z</time>
      </trkpt>
      <trkpt lat="41.3215" lon="-8.68017">
        <ele>75.6</ele>
        <time>2019-05-29T11:07:28Z</time>
      </trkpt>
      <trkpt lat="41.3217" lon="-8.6802">
        <ele>75.6</ele>
        <time>2019-05-29T11:07:44Z</time>
      </trkpt>
      <trkpt lat="41.32193" lon="-8.68024">
        <ele>75.12</ele>
        <time>2019-05-29T11:08:01Z</time>
      </trkpt>
      <trkpt lat="41.32215" lon="-8.68028">
        <ele>75.6</ele>
        <time>2019-05-29T11:08:18Z</time>
      </trkpt>
      <trkpt lat="41.3224" lon="-8.68036">
        <ele>75.12</ele>
        <time>2019-05-29T11:08:37Z</time>
      </trkpt>
      <trkpt lat="41.32255" lon="-8.68042">
        <ele>75.12</ele>
        <time>2019-05-29T11:08:51Z</time>
      </trkpt>
      <trkpt lat="41.32272" lon="-8.68049">
        <ele>74.64</ele>
        <time>2019-05-29T11:09:06Z</time>
      </trkpt>
      <trkpt lat="41.32291" lon="-8.68055">
        <ele>74.64</ele>
        <time>2019-05-29T11:09:22Z</time>
      </trkpt>
      <trkpt lat="41.32305" lon="-8.68063">
        <ele>74.16</ele>
        <time>2019-05-29T11:09:37Z</time>
      </trkpt>
      <trkpt lat="41.32308" lon="-8.68063">
        <ele>74.16</ele>
        <time>2019-05-29T11:09:53Z</time>
      </trkpt>
      <trkpt lat="41.32308" lon="-8.68063">
        <ele>74.16</ele>
        <time>2019-05-29T11:10:02Z</time>
      </trkpt>
      <trkpt lat="41.32313" lon="-8.68064">
        <ele>73.68</ele>
        <time>2019-05-29T11:10:07Z</time>
      </trkpt>
      <trkpt lat="41.32329" lon="-8.6807">
        <ele>74.16</ele>
        <time>2019-05-29T11:10:20Z</time>
      </trkpt>
      <trkpt lat="41.32345" lon="-8.68076">
        <ele>73.68</ele>
        <time>2019-05-29T11:10:34Z</time>
      </trkpt>
      <trkpt lat="41.32362" lon="-8.68082">
        <ele>73.68</ele>
        <time>2019-05-29T11:10:49Z</time>
      </trkpt>
      <trkpt lat="41.32383" lon="-8.68091">
        <ele>73.2</ele>
        <time>2019-05-29T11:11:06Z</time>
      </trkpt>
      <trkpt lat="41.3239" lon="-8.68092">
        <ele>73.68</ele>
        <time>2019-05-29T11:11:19Z</time>
      </trkpt>
      <trkpt lat="41.32393" lon="-8.68093">
        <ele>73.2</ele>
        <time>2019-05-29T11:11:32Z</time>
      </trkpt>
      <trkpt lat="41.32403" lon="-8.68098">
        <ele>73.2</ele>
        <time>2019-05-29T11:11:45Z</time>
      </trkpt>
      <trkpt lat="41.32418" lon="-8.68105">
        <ele>73.2</ele>
        <time>2019-05-29T11:11:59Z</time>
      </trkpt>
      <trkpt lat="41.32433" lon="-8.6811">
        <ele>73.2</ele>
        <time>2019-05-29T11:12:14Z</time>
      </trkpt>
      <trkpt lat="41.32449" lon="-8.68115">
        <ele>73.2</ele>
        <time>2019-05-29T11:12:25Z</time>
      </trkpt>
      <trkpt lat="41.32474" lon="-8.68124">
        <ele>72.72</ele>
        <time>2019-05-29T11:12:42Z</time>
      </trkpt>
      <trkpt lat="41.32494" lon="-8.68132">
        <ele>72.72</ele>
        <time>2019-05-29T11:12:59Z</time>
      </trkpt>
      <trkpt lat="41.32513" lon="-8.68139">
        <ele>72.72</ele>
        <time>2019-05-29T11:13:13Z</time>
      </trkpt>
      <trkpt lat="41.32533" lon="-8.68146">
        <ele>72.72</ele>
        <time>2019-05-29T11:13:28Z</time>
      </trkpt>
      <trkpt lat="41.32549" lon="-8.68153">
        <ele>72.24</ele>
        <time>2019-05-29T11:13:41Z</time>
      </trkpt>
      <trkpt lat="41.32561" lon="-8.68158">
        <ele>72.72</ele>
        <time>2019-05-29T11:13:50Z</time>
      </trkpt>
      <trkpt lat="41.32578" lon="-8.68166">
        <ele>71.76</ele>
        <time>2019-05-29T11:14:05Z</time>
      </trkpt>
      <trkpt lat="41.32588" lon="-8.68171">
        <ele>71.76</ele>
        <time>2019-05-29T11:14:14Z</time>
      </trkpt>
      <trkpt lat="41.3259" lon="-8.6817">
        <ele>71.76</ele>
        <time>2019-05-29T11:14:15Z</time>
      </trkpt>
      <trkpt lat="41.32591" lon="-8.6817">
        <ele>72.24</ele>
        <time>2019-05-29T11:14:16Z</time>
      </trkpt>
      <trkpt lat="41.32611" lon="-8.68174">
        <ele>72.24</ele>
        <time>2019-05-29T11:14:31Z</time>
      </trkpt>
      <trkpt lat="41.32629" lon="-8.68173">
        <ele>72.24</ele>
        <time>2019-05-29T11:14:46Z</time>
      </trkpt>
      <trkpt lat="41.3265" lon="-8.6817">
        <ele>72.24</ele>
        <time>2019-05-29T11:15:02Z</time>
      </trkpt>
      <trkpt lat="41.32671" lon="-8.68166">
        <ele>71.27</ele>
        <time>2019-05-29T11:15:18Z</time>
      </trkpt>
      <trkpt lat="41.32676" lon="-8.68165">
        <ele>71.27</ele>
        <time>2019-05-29T11:15:27Z</time>
      </trkpt>
      <trkpt lat="41.32677" lon="-8.68165">
        <ele>70.79</ele>
        <time>2019-05-29T11:15:28Z</time>
      </trkpt>
      <trkpt lat="41.32678" lon="-8.68164">
        <ele>70.79</ele>
        <time>2019-05-29T11:15:29Z</time>
      </trkpt>
      <trkpt lat="41.3268" lon="-8.68164">
        <ele>71.27</ele>
        <time>2019-05-29T11:15:30Z</time>
      </trkpt>
      <trkpt lat="41.32681" lon="-8.68164">
        <ele>71.27</ele>
        <time>2019-05-29T11:15:31Z</time>
      </trkpt>
      <trkpt lat="41.32699" lon="-8.68154">
        <ele>70.79</ele>
        <time>2019-05-29T11:15:46Z</time>
      </trkpt>
      <trkpt lat="41.32716" lon="-8.68142">
        <ele>71.27</ele>
        <time>2019-05-29T11:16:01Z</time>
      </trkpt>
      <trkpt lat="41.32734" lon="-8.68125">
        <ele>70.31</ele>
        <time>2019-05-29T11:16:18Z</time>
      </trkpt>
      <trkpt lat="41.32736" lon="-8.68124">
        <ele>69.83</ele>
        <time>2019-05-29T11:16:20Z</time>
      </trkpt>
      <trkpt lat="41.32738" lon="-8.6812">
        <ele>70.79</ele>
        <time>2019-05-29T11:16:34Z</time>
      </trkpt>
      <trkpt lat="41.3274" lon="-8.68118">
        <ele>70.79</ele>
        <time>2019-05-29T11:16:40Z</time>
      </trkpt>
      <trkpt lat="41.32755" lon="-8.68105">
        <ele>70.31</ele>
        <time>2019-05-29T11:16:55Z</time>
      </trkpt>
      <trkpt lat="41.32766" lon="-8.68096">
        <ele>69.83</ele>
        <time>2019-05-29T11:17:08Z</time>
      </trkpt>
      <trkpt lat="41.32768" lon="-8.68094">
        <ele>69.83</ele>
        <time>2019-05-29T11:17:10Z</time>
      </trkpt>
      <trkpt lat="41.3278" lon="-8.68081">
        <ele>70.31</ele>
        <time>2019-05-29T11:17:23Z</time>
      </trkpt>
      <trkpt lat="41.32795" lon="-8.68068">
        <ele>69.35</ele>
        <time>2019-05-29T11:17:36Z</time>
      </trkpt>
      <trkpt lat="41.3281" lon="-8.68055">
        <ele>69.83</ele>
        <time>2019-05-29T11:17:49Z</time>
      </trkpt>
      <trkpt lat="41.32818" lon="-8.68047">
        <ele>69.35</ele>
        <time>2019-05-29T11:18:03Z</time>
      </trkpt>
      <trkpt lat="41.32834" lon="-8.68036">
        <ele>69.35</ele>
        <time>2019-05-29T11:18:18Z</time>
      </trkpt>
      <trkpt lat="41.32854" lon="-8.68032">
        <ele>69.35</ele>
        <time>2019-05-29T11:18:33Z</time>
      </trkpt>
      <trkpt lat="41.32858" lon="-8.68031">
        <ele>70.31</ele>
        <time>2019-05-29T11:18:51Z</time>
      </trkpt>
      <trkpt lat="41.32877" lon="-8.68029">
        <ele>69.35</ele>
        <time>2019-05-29T11:19:09Z</time>
      </trkpt>
      <trkpt lat="41.3289" lon="-8.68026">
        <ele>69.83</ele>
        <time>2019-05-29T11:19:24Z</time>
      </trkpt>
      <trkpt lat="41.32891" lon="-8.68024">
        <ele>69.35</ele>
        <time>2019-05-29T11:19:27Z</time>
      </trkpt>
      <trkpt lat="41.32896" lon="-8.6802">
        <ele>69.35</ele>
        <time>2019-05-29T11:19:33Z</time>
      </trkpt>
      <trkpt lat="41.3291" lon="-8.68014">
        <ele>69.83</ele>
        <time>2019-05-29T11:19:46Z</time>
      </trkpt>
      <trkpt lat="41.32916" lon="-8.68012">
        <ele>69.83</ele>
        <time>2019-05-29T11:19:52Z</time>
      </trkpt>
      <trkpt lat="41.32917" lon="-8.68012">
        <ele>69.83</ele>
        <time>2019-05-29T11:19:53Z</time>
      </trkpt>
      <trkpt lat="41.32935" lon="-8.68013">
        <ele>69.35</ele>
        <time>2019-05-29T11:20:09Z</time>
      </trkpt>
      <trkpt lat="41.32948" lon="-8.68015">
        <ele>69.35</ele>
        <time>2019-05-29T11:20:22Z</time>
      </trkpt>
      <trkpt lat="41.32965" lon="-8.68016">
        <ele>69.35</ele>
        <time>2019-05-29T11:20:36Z</time>
      </trkpt>
      <trkpt lat="41.32983" lon="-8.68018">
        <ele>69.83</ele>
        <time>2019-05-29T11:20:53Z</time>
      </trkpt>
      <trkpt lat="41.33003" lon="-8.6802">
        <ele>68.39</ele>
        <time>2019-05-29T11:21:09Z</time>
      </trkpt>
      <trkpt lat="41.33028" lon="-8.68024">
        <ele>68.87</ele>
        <time>2019-05-29T11:21:27Z</time>
      </trkpt>
      <trkpt lat="41.33047" lon="-8.68025">
        <ele>68.87</ele>
        <time>2019-05-29T11:21:44Z</time>
      </trkpt>
      <trkpt lat="41.33058" lon="-8.68028">
        <ele>68.87</ele>
        <time>2019-05-29T11:21:52Z</time>
      </trkpt>
      <trkpt lat="41.33059" lon="-8.68029">
        <ele>69.35</ele>
        <time>2019-05-29T11:21:53Z</time>
      </trkpt>
      <trkpt lat="41.33081" lon="-8.68038">
        <ele>68.39</ele>
        <time>2019-05-29T11:22:08Z</time>
      </trkpt>
      <trkpt lat="41.33098" lon="-8.68045">
        <ele>67.43</ele>
        <time>2019-05-29T11:22:22Z</time>
      </trkpt>
      <trkpt lat="41.33109" lon="-8.68053">
        <ele>67.91</ele>
        <time>2019-05-29T11:22:35Z</time>
      </trkpt>
      <trkpt lat="41.33122" lon="-8.6806">
        <ele>67.43</ele>
        <time>2019-05-29T11:22:49Z</time>
      </trkpt>
      <trkpt lat="41.3314" lon="-8.68061">
        <ele>67.43</ele>
        <time>2019-05-29T11:23:04Z</time>
      </trkpt>
      <trkpt lat="41.33158" lon="-8.68064">
        <ele>66.95</ele>
        <time>2019-05-29T11:23:17Z</time>
      </trkpt>
      <trkpt lat="41.3318" lon="-8.68066">
        <ele>66.47</ele>
        <time>2019-05-29T11:23:32Z</time>
      </trkpt>
      <trkpt lat="41.33202" lon="-8.68077">
        <ele>65.99</ele>
        <time>2019-05-29T11:23:46Z</time>
      </trkpt>
      <trkpt lat="41.33226" lon="-8.6809">
        <ele>65.03</ele>
        <time>2019-05-29T11:24:04Z</time>
      </trkpt>
      <trkpt lat="41.33244" lon="-8.68098">
        <ele>64.07</ele>
        <time>2019-05-29T11:24:17Z</time>
      </trkpt>
      <trkpt lat="41.33246" lon="-8.68104">
        <ele>64.55</ele>
        <time>2019-05-29T11:24:35Z</time>
      </trkpt>
      <trkpt lat="41.33249" lon="-8.68109">
        <ele>64.55</ele>
        <time>2019-05-29T11:24:49Z</time>
      </trkpt>
      <trkpt lat="41.33264" lon="-8.68118">
        <ele>63.58</ele>
        <time>2019-05-29T11:25:04Z</time>
      </trkpt>
      <trkpt lat="41.33279" lon="-8.68127">
        <ele>63.58</ele>
        <time>2019-05-29T11:25:18Z</time>
      </trkpt>
      <trkpt lat="41.33288" lon="-8.68133">
        <ele>63.58</ele>
        <time>2019-05-29T11:25:32Z</time>
      </trkpt>
      <trkpt lat="41.33292" lon="-8.68136">
        <ele>63.58</ele>
        <time>2019-05-29T11:25:38Z</time>
      </trkpt>
      <trkpt lat="41.33293" lon="-8.68138">
        <ele>63.58</ele>
        <time>2019-05-29T11:25:39Z</time>
      </trkpt>
      <trkpt lat="41.33293" lon="-8.68139">
        <ele>63.58</ele>
        <time>2019-05-29T11:25:40Z</time>
      </trkpt>
      <trkpt lat="41.33294" lon="-8.6814">
        <ele>63.58</ele>
        <time>2019-05-29T11:25:41Z</time>
      </trkpt>
      <trkpt lat="41.33295" lon="-8.68141">
        <ele>63.58</ele>
        <time>2019-05-29T11:25:42Z</time>
      </trkpt>
      <trkpt lat="41.33306" lon="-8.6815">
        <ele>63.1</ele>
        <time>2019-05-29T11:25:55Z</time>
      </trkpt>
      <trkpt lat="41.33321" lon="-8.68158">
        <ele>62.62</ele>
        <time>2019-05-29T11:26:09Z</time>
      </trkpt>
      <trkpt lat="41.33324" lon="-8.6816">
        <ele>62.62</ele>
        <time>2019-05-29T11:26:12Z</time>
      </trkpt>
      <trkpt lat="41.33342" lon="-8.6817">
        <ele>63.58</ele>
        <time>2019-05-29T11:26:27Z</time>
      </trkpt>
      <trkpt lat="41.33361" lon="-8.68179">
        <ele>63.1</ele>
        <time>2019-05-29T11:26:42Z</time>
      </trkpt>
      <trkpt lat="41.33378" lon="-8.68188">
        <ele>62.62</ele>
        <time>2019-05-29T11:26:58Z</time>
      </trkpt>
      <trkpt lat="41.33386" lon="-8.68194">
        <ele>63.1</ele>
        <time>2019-05-29T11:27:10Z</time>
      </trkpt>
      <trkpt lat="41.33397" lon="-8.682">
        <ele>63.1</ele>
        <time>2019-05-29T11:27:22Z</time>
      </trkpt>
      <trkpt lat="41.3342" lon="-8.68207">
        <ele>62.62</ele>
        <time>2019-05-29T11:27:36Z</time>
      </trkpt>
      <trkpt lat="41.33432" lon="-8.68213">
        <ele>62.14</ele>
        <time>2019-05-29T11:27:48Z</time>
      </trkpt>
      <trkpt lat="41.33444" lon="-8.68219">
        <ele>62.14</ele>
        <time>2019-05-29T11:28:03Z</time>
      </trkpt>
      <trkpt lat="41.33466" lon="-8.68223">
        <ele>61.66</ele>
        <time>2019-05-29T11:28:20Z</time>
      </trkpt>
      <trkpt lat="41.33481" lon="-8.68223">
        <ele>61.66</ele>
        <time>2019-05-29T11:28:33Z</time>
      </trkpt>
      <trkpt lat="41.33484" lon="-8.68222">
        <ele>63.1</ele>
        <time>2019-05-29T11:28:36Z</time>
      </trkpt>
      <trkpt lat="41.33485" lon="-8.68221">
        <ele>61.66</ele>
        <time>2019-05-29T11:28:38Z</time>
      </trkpt>
      <trkpt lat="41.33488" lon="-8.68221">
        <ele>61.66</ele>
        <time>2019-05-29T11:28:41Z</time>
      </trkpt>
      <trkpt lat="41.33511" lon="-8.68223">
        <ele>61.66</ele>
        <time>2019-05-29T11:28:55Z</time>
      </trkpt>
      <trkpt lat="41.33526" lon="-8.68222">
        <ele>61.18</ele>
        <time>2019-05-29T11:29:08Z</time>
      </trkpt>
      <trkpt lat="41.33536" lon="-8.68219">
        <ele>61.66</ele>
        <time>2019-05-29T11:29:22Z</time>
      </trkpt>
      <trkpt lat="41.33538" lon="-8.68217">
        <ele>61.66</ele>
        <time>2019-05-29T11:29:24Z</time>
      </trkpt>
      <trkpt lat="41.33544" lon="-8.68211">
        <ele>61.66</ele>
        <time>2019-05-29T11:29:34Z</time>
      </trkpt>
      <trkpt lat="41.33546" lon="-8.68212">
        <ele>61.18</ele>
        <time>2019-05-29T11:29:54Z</time>
      </trkpt>
      <trkpt lat="41.33548" lon="-8.68208">
        <ele>61.66</ele>
        <time>2019-05-29T11:30:18Z</time>
      </trkpt>
      <trkpt lat="41.33546" lon="-8.68209">
        <ele>62.14</ele>
        <time>2019-05-29T11:30:33Z</time>
      </trkpt>
      <trkpt lat="41.33548" lon="-8.68209">
        <ele>61.66</ele>
        <time>2019-05-29T11:30:47Z</time>
      </trkpt>
      <trkpt lat="41.33548" lon="-8.68205">
        <ele>61.66</ele>
        <time>2019-05-29T11:31:01Z</time>
      </trkpt>
      <trkpt lat="41.33547" lon="-8.682">
        <ele>61.66</ele>
        <time>2019-05-29T11:31:05Z</time>
      </trkpt>
      <trkpt lat="41.33545" lon="-8.68196">
        <ele>62.14</ele>
        <time>2019-05-29T11:31:17Z</time>
      </trkpt>
      <trkpt lat="41.33541" lon="-8.68198">
        <ele>62.14</ele>
        <time>2019-05-29T11:31:51Z</time>
      </trkpt>
      <trkpt lat="41.33545" lon="-8.68196">
        <ele>61.66</ele>
        <time>2019-05-29T11:32:29Z</time>
      </trkpt>
      <trkpt lat="41.33549" lon="-8.68195">
        <ele>62.62</ele>
        <time>2019-05-29T11:32:57Z</time>
      </trkpt>
      <trkpt lat="41.33558" lon="-8.68196">
        <ele>62.62</ele>
        <time>2019-05-29T11:33:33Z</time>
      </trkpt>
      <trkpt lat="41.33557" lon="-8.68195">
        <ele>63.1</ele>
        <time>2019-05-29T11:34:05Z</time>
      </trkpt>
      <trkpt lat="41.33558" lon="-8.68197">
        <ele>62.62</ele>
        <time>2019-05-29T11:34:32Z</time>
      </trkpt>
      <trkpt lat="41.33559" lon="-8.68194">
        <ele>62.14</ele>
        <time>2019-05-29T11:35:01Z</time>
      </trkpt>
      <trkpt lat="41.33551" lon="-8.68198">
        <ele>62.62</ele>
        <time>2019-05-29T11:35:20Z</time>
      </trkpt>
      <trkpt lat="41.33553" lon="-8.68201">
        <ele>62.62</ele>
        <time>2019-05-29T11:35:27Z</time>
      </trkpt>
      <trkpt lat="41.33555" lon="-8.68206">
        <ele>62.62</ele>
        <time>2019-05-29T11:35:32Z</time>
      </trkpt>
      <trkpt lat="41.33557" lon="-8.68207">
        <ele>62.14</ele>
        <time>2019-05-29T11:35:34Z</time>
      </trkpt>
      <trkpt lat="41.33558" lon="-8.68208">
        <ele>62.62</ele>
        <time>2019-05-29T11:35:35Z</time>
      </trkpt>
      <trkpt lat="41.33559" lon="-8.68209">
        <ele>62.14</ele>
        <time>2019-05-29T11:35:36Z</time>
      </trkpt>
      <trkpt lat="41.33564" lon="-8.68211">
        <ele>62.62</ele>
        <time>2019-05-29T11:35:46Z</time>
      </trkpt>
      <trkpt lat="41.33572" lon="-8.6821">
        <ele>62.62</ele>
        <time>2019-05-29T11:35:55Z</time>
      </trkpt>
      <trkpt lat="41.33575" lon="-8.68211">
        <ele>62.62</ele>
        <time>2019-05-29T11:35:57Z</time>
      </trkpt>
      <trkpt lat="41.33594" lon="-8.68212">
        <ele>62.62</ele>
        <time>2019-05-29T11:36:12Z</time>
      </trkpt>
      <trkpt lat="41.33608" lon="-8.68216">
        <ele>62.14</ele>
        <time>2019-05-29T11:36:24Z</time>
      </trkpt>
      <trkpt lat="41.33609" lon="-8.68216">
        <ele>62.14</ele>
        <time>2019-05-29T11:36:25Z</time>
      </trkpt>
      <trkpt lat="41.33612" lon="-8.68217">
        <ele>61.66</ele>
        <time>2019-05-29T11:36:28Z</time>
      </trkpt>
      <trkpt lat="41.33613" lon="-8.68218">
        <ele>62.14</ele>
        <time>2019-05-29T11:36:29Z</time>
      </trkpt>
      <trkpt lat="41.33627" lon="-8.68223">
        <ele>61.18</ele>
        <time>2019-05-29T11:36:41Z</time>
      </trkpt>
      <trkpt lat="41.33628" lon="-8.68223">
        <ele>61.66</ele>
        <time>2019-05-29T11:36:42Z</time>
      </trkpt>
      <trkpt lat="41.33632" lon="-8.68224">
        <ele>61.66</ele>
        <time>2019-05-29T11:36:45Z</time>
      </trkpt>
      <trkpt lat="41.33633" lon="-8.68224">
        <ele>62.14</ele>
        <time>2019-05-29T11:36:46Z</time>
      </trkpt>
      <trkpt lat="41.33635" lon="-8.68224">
        <ele>62.14</ele>
        <time>2019-05-29T11:36:47Z</time>
      </trkpt>
      <trkpt lat="41.33636" lon="-8.68224">
        <ele>61.66</ele>
        <time>2019-05-29T11:36:48Z</time>
      </trkpt>
      <trkpt lat="41.33637" lon="-8.68224">
        <ele>62.14</ele>
        <time>2019-05-29T11:36:49Z</time>
      </trkpt>
      <trkpt lat="41.33654" lon="-8.68227">
        <ele>62.14</ele>
        <time>2019-05-29T11:37:03Z</time>
      </trkpt>
      <trkpt lat="41.33672" lon="-8.68228">
        <ele>62.14</ele>
        <time>2019-05-29T11:37:17Z</time>
      </trkpt>
      <trkpt lat="41.33693" lon="-8.68233">
        <ele>62.14</ele>
        <time>2019-05-29T11:37:33Z</time>
      </trkpt>
      <trkpt lat="41.33713" lon="-8.68235">
        <ele>62.62</ele>
        <time>2019-05-29T11:37:49Z</time>
      </trkpt>
      <trkpt lat="41.33725" lon="-8.68239">
        <ele>62.62</ele>
        <time>2019-05-29T11:38:02Z</time>
      </trkpt>
      <trkpt lat="41.33739" lon="-8.68241">
        <ele>63.1</ele>
        <time>2019-05-29T11:38:16Z</time>
      </trkpt>
      <trkpt lat="41.33761" lon="-8.6824">
        <ele>63.58</ele>
        <time>2019-05-29T11:38:30Z</time>
      </trkpt>
      <trkpt lat="41.33774" lon="-8.68242">
        <ele>64.07</ele>
        <time>2019-05-29T11:38:46Z</time>
      </trkpt>
      <trkpt lat="41.3379" lon="-8.68238">
        <ele>64.55</ele>
        <time>2019-05-29T11:38:59Z</time>
      </trkpt>
      <trkpt lat="41.33808" lon="-8.68235">
        <ele>65.03</ele>
        <time>2019-05-29T11:39:14Z</time>
      </trkpt>
      <trkpt lat="41.33821" lon="-8.68233">
        <ele>64.07</ele>
        <time>2019-05-29T11:39:25Z</time>
      </trkpt>
      <trkpt lat="41.33825" lon="-8.68234">
        <ele>65.03</ele>
        <time>2019-05-29T11:39:38Z</time>
      </trkpt>
      <trkpt lat="41.33828" lon="-8.68238">
        <ele>64.07</ele>
        <time>2019-05-29T11:39:50Z</time>
      </trkpt>
      <trkpt lat="41.33829" lon="-8.68235">
        <ele>64.55</ele>
        <time>2019-05-29T11:40:26Z</time>
      </trkpt>
      <trkpt lat="41.33828" lon="-8.68242">
        <ele>63.58</ele>
        <time>2019-05-29T11:41:05Z</time>
      </trkpt>
      <trkpt lat="41.33829" lon="-8.68244">
        <ele>64.55</ele>
        <time>2019-05-29T11:41:31Z</time>
      </trkpt>
      <trkpt lat="41.33828" lon="-8.68245">
        <ele>64.07</ele>
        <time>2019-05-29T11:42:15Z</time>
      </trkpt>
      <trkpt lat="41.33828" lon="-8.68238">
        <ele>64.07</ele>
        <time>2019-05-29T11:42:45Z</time>
      </trkpt>
      <trkpt lat="41.33826" lon="-8.68235">
        <ele>64.07</ele>
        <time>2019-05-29T11:43:07Z</time>
      </trkpt>
      <trkpt lat="41.33829" lon="-8.68237">
        <ele>64.55</ele>
        <time>2019-05-29T11:43:28Z</time>
      </trkpt>
      <trkpt lat="41.33831" lon="-8.68236">
        <ele>65.03</ele>
        <time>2019-05-29T11:44:01Z</time>
      </trkpt>
      <trkpt lat="41.33832" lon="-8.68229">
        <ele>64.55</ele>
        <time>2019-05-29T11:44:13Z</time>
      </trkpt>
      <trkpt lat="41.33837" lon="-8.68227">
        <ele>64.07</ele>
        <time>2019-05-29T11:44:28Z</time>
      </trkpt>
      <trkpt lat="41.33836" lon="-8.68227">
        <ele>64.55</ele>
        <time>2019-05-29T11:44:42Z</time>
      </trkpt>
      <trkpt lat="41.33838" lon="-8.68225">
        <ele>64.07</ele>
        <time>2019-05-29T11:45:01Z</time>
      </trkpt>
      <trkpt lat="41.33844" lon="-8.68213">
        <ele>64.55</ele>
        <time>2019-05-29T11:45:14Z</time>
      </trkpt>
      <trkpt lat="41.33845" lon="-8.6821">
        <ele>64.07</ele>
        <time>2019-05-29T11:45:17Z</time>
      </trkpt>
      <trkpt lat="41.33846" lon="-8.68204">
        <ele>64.07</ele>
        <time>2019-05-29T11:45:29Z</time>
      </trkpt>
      <trkpt lat="41.33843" lon="-8.68192">
        <ele>64.55</ele>
        <time>2019-05-29T11:45:43Z</time>
      </trkpt>
      <trkpt lat="41.33842" lon="-8.68191">
        <ele>64.55</ele>
        <time>2019-05-29T11:46:00Z</time>
      </trkpt>
      <trkpt lat="41.33844" lon="-8.68184">
        <ele>64.55</ele>
        <time>2019-05-29T11:46:21Z</time>
      </trkpt>
      <trkpt lat="41.33848" lon="-8.68179">
        <ele>65.03</ele>
        <time>2019-05-29T11:46:41Z</time>
      </trkpt>
      <trkpt lat="41.33853" lon="-8.68173">
        <ele>65.03</ele>
        <time>2019-05-29T11:46:54Z</time>
      </trkpt>
      <trkpt lat="41.33853" lon="-8.68168">
        <ele>65.03</ele>
        <time>2019-05-29T11:47:07Z</time>
      </trkpt>
      <trkpt lat="41.33853" lon="-8.6817">
        <ele>64.55</ele>
        <time>2019-05-29T11:47:21Z</time>
      </trkpt>
      <trkpt lat="41.33855" lon="-8.6817">
        <ele>64.55</ele>
        <time>2019-05-29T11:47:22Z</time>
      </trkpt>
      <trkpt lat="41.33866" lon="-8.68177">
        <ele>64.07</ele>
        <time>2019-05-29T11:47:35Z</time>
      </trkpt>
      <trkpt lat="41.33876" lon="-8.68182">
        <ele>64.07</ele>
        <time>2019-05-29T11:47:48Z</time>
      </trkpt>
      <trkpt lat="41.33884" lon="-8.68191">
        <ele>64.07</ele>
        <time>2019-05-29T11:47:57Z</time>
      </trkpt>
      <trkpt lat="41.33885" lon="-8.68192">
        <ele>64.07</ele>
        <time>2019-05-29T11:47:58Z</time>
      </trkpt>
      <trkpt lat="41.33898" lon="-8.68192">
        <ele>64.07</ele>
        <time>2019-05-29T11:48:11Z</time>
      </trkpt>
      <trkpt lat="41.33912" lon="-8.68186">
        <ele>63.58</ele>
        <time>2019-05-29T11:48:25Z</time>
      </trkpt>
      <trkpt lat="41.33915" lon="-8.68185">
        <ele>63.1</ele>
        <time>2019-05-29T11:48:28Z</time>
      </trkpt>
      <trkpt lat="41.33931" lon="-8.68178">
        <ele>62.62</ele>
        <time>2019-05-29T11:48:43Z</time>
      </trkpt>
      <trkpt lat="41.33942" lon="-8.68173">
        <ele>63.1</ele>
        <time>2019-05-29T11:48:51Z</time>
      </trkpt>
      <trkpt lat="41.33944" lon="-8.68173">
        <ele>63.1</ele>
        <time>2019-05-29T11:48:52Z</time>
      </trkpt>
      <trkpt lat="41.33945" lon="-8.68172">
        <ele>63.1</ele>
        <time>2019-05-29T11:48:53Z</time>
      </trkpt>
      <trkpt lat="41.33954" lon="-8.68171">
        <ele>63.1</ele>
        <time>2019-05-29T11:49:04Z</time>
      </trkpt>
      <trkpt lat="41.33967" lon="-8.68165">
        <ele>62.62</ele>
        <time>2019-05-29T11:49:17Z</time>
      </trkpt>
      <trkpt lat="41.33976" lon="-8.68161">
        <ele>63.1</ele>
        <time>2019-05-29T11:49:25Z</time>
      </trkpt>
      <trkpt lat="41.33978" lon="-8.68161">
        <ele>62.62</ele>
        <time>2019-05-29T11:49:26Z</time>
      </trkpt>
      <trkpt lat="41.3398" lon="-8.6816">
        <ele>62.62</ele>
        <time>2019-05-29T11:49:27Z</time>
      </trkpt>
      <trkpt lat="41.33981" lon="-8.6816">
        <ele>62.62</ele>
        <time>2019-05-29T11:49:28Z</time>
      </trkpt>
      <trkpt lat="41.33982" lon="-8.68159">
        <ele>62.62</ele>
        <time>2019-05-29T11:49:29Z</time>
      </trkpt>
      <trkpt lat="41.33984" lon="-8.68159">
        <ele>62.62</ele>
        <time>2019-05-29T11:49:30Z</time>
      </trkpt>
      <trkpt lat="41.33999" lon="-8.68153">
        <ele>62.62</ele>
        <time>2019-05-29T11:49:43Z</time>
      </trkpt>
      <trkpt lat="41.34013" lon="-8.68149">
        <ele>62.14</ele>
        <time>2019-05-29T11:49:55Z</time>
      </trkpt>
      <trkpt lat="41.34029" lon="-8.68146">
        <ele>62.14</ele>
        <time>2019-05-29T11:50:08Z</time>
      </trkpt>
      <trkpt lat="41.34037" lon="-8.68133">
        <ele>62.14</ele>
        <time>2019-05-29T11:50:21Z</time>
      </trkpt>
      <trkpt lat="41.34037" lon="-8.68128">
        <ele>62.62</ele>
        <time>2019-05-29T11:50:24Z</time>
      </trkpt>
      <trkpt lat="41.34039" lon="-8.68115">
        <ele>63.1</ele>
        <time>2019-05-29T11:50:36Z</time>
      </trkpt>
      <trkpt lat="41.34036" lon="-8.681">
        <ele>63.1</ele>
        <time>2019-05-29T11:50:51Z</time>
      </trkpt>
      <trkpt lat="41.34031" lon="-8.68098">
        <ele>63.58</ele>
        <time>2019-05-29T11:51:14Z</time>
      </trkpt>
      <trkpt lat="41.34036" lon="-8.68098">
        <ele>63.1</ele>
        <time>2019-05-29T11:51:28Z</time>
      </trkpt>
      <trkpt lat="41.34032" lon="-8.68098">
        <ele>62.62</ele>
        <time>2019-05-29T11:51:40Z</time>
      </trkpt>
      <trkpt lat="41.34031" lon="-8.68098">
        <ele>63.1</ele>
        <time>2019-05-29T11:51:55Z</time>
      </trkpt>
      <trkpt lat="41.3403" lon="-8.68093">
        <ele>62.62</ele>
        <time>2019-05-29T11:52:07Z</time>
      </trkpt>
      <trkpt lat="41.34026" lon="-8.68095">
        <ele>63.58</ele>
        <time>2019-05-29T11:52:21Z</time>
      </trkpt>
      <trkpt lat="41.34026" lon="-8.68101">
        <ele>62.14</ele>
        <time>2019-05-29T11:52:33Z</time>
      </trkpt>
      <trkpt lat="41.34026" lon="-8.68108">
        <ele>63.1</ele>
        <time>2019-05-29T11:52:55Z</time>
      </trkpt>
      <trkpt lat="41.34027" lon="-8.68107">
        <ele>63.58</ele>
        <time>2019-05-29T11:53:19Z</time>
      </trkpt>
      <trkpt lat="41.34028" lon="-8.68106">
        <ele>62.62</ele>
        <time>2019-05-29T11:53:34Z</time>
      </trkpt>
      <trkpt lat="41.34029" lon="-8.68103">
        <ele>63.58</ele>
        <time>2019-05-29T11:53:52Z</time>
      </trkpt>
      <trkpt lat="41.34029" lon="-8.68103">
        <ele>63.58</ele>
        <time>2019-05-29T11:54:19Z</time>
      </trkpt>
    </trkseg>
  </trk>
</gpx>